<?xml version="1.0" encoding="UTF-8" standalone="no" ?>
<gpx xmlns="http://www.topografix.com/GPX/1/1" creator="MapSource 6.16.3" version="1.1" xmlns:xsi="http://www.w3.org/2001/XMLSchema-instance" xsi:schemaLocation="http://www.topografix.com/GPX/1/1 http://www.topografix.com/GPX/1/1/gpx.xsd">

  <metadata>
    <link href="http://www.garmin.com">
      <text>Garmin International</text>
    </link>
    <time>2016-09-17T07:50:29Z</time>
    <bounds maxlat="45.895578861236572" maxlon="8.518502712249756" minlat="45.854616165161133" minlon="8.461875915527344"/>
  </metadata>

  <wpt lat="45.877883322536945" lon="8.511233339086175">
    <name>PARTENZA / ARRIVO</name>
    <sym>Trail Head</sym>
    <extensions>
      <gpxx:WaypointExtension xmlns:gpxx="http://www.garmin.com/xmlschemas/GpxExtensions/v3">
        <gpxx:DisplayMode>SymbolAndName</gpxx:DisplayMode>
      </gpxx:WaypointExtension>
    </extensions>
  </wpt>

  <trk>
    <name>ACTIVE LOG</name>
    <trkseg>
      <trkpt lat="45.877876281738281" lon="8.511228561401367">
        <ele>613.93896484375</ele>
        <time>2007-12-02T09:06:22Z</time>
      </trkpt>
      <trkpt lat="45.877962112426758" lon="8.511121273040772">
        <ele>614.419677734375</ele>
        <time>2007-12-02T09:06:57Z</time>
      </trkpt>
      <trkpt lat="45.877983570098877" lon="8.510885238647461">
        <ele>613.45849609375</ele>
        <time>2007-12-02T09:07:06Z</time>
      </trkpt>
      <trkpt lat="45.878133773803711" lon="8.510499000549316">
        <ele>612.0166015625</ele>
        <time>2007-12-02T09:07:16Z</time>
      </trkpt>
      <trkpt lat="45.878541469573975" lon="8.509984016418457">
        <ele>609.61328125</ele>
        <time>2007-12-02T09:07:29Z</time>
      </trkpt>
      <trkpt lat="45.87916374206543" lon="8.509104251861572">
        <ele>608.65185546875</ele>
        <time>2007-12-02T09:07:48Z</time>
      </trkpt>
      <trkpt lat="45.879335403442383" lon="8.509232997894287">
        <ele>608.65185546875</ele>
        <time>2007-12-02T09:07:52Z</time>
      </trkpt>
      <trkpt lat="45.879507064819336" lon="8.509383201599121">
        <ele>608.65185546875</ele>
        <time>2007-12-02T09:07:55Z</time>
      </trkpt>
      <trkpt lat="45.879850387573242" lon="8.509297370910645">
        <ele>607.690673828125</ele>
        <time>2007-12-02T09:07:59Z</time>
      </trkpt>
      <trkpt lat="45.880022048950195" lon="8.509254455566406">
        <ele>607.690673828125</ele>
        <time>2007-12-02T09:08:01Z</time>
      </trkpt>
      <trkpt lat="45.880193710327148" lon="8.509211540222168">
        <ele>607.2099609375</ele>
        <time>2007-12-02T09:08:03Z</time>
      </trkpt>
      <trkpt lat="45.880365371704102" lon="8.509125709533691">
        <ele>607.2099609375</ele>
        <time>2007-12-02T09:08:05Z</time>
      </trkpt>
      <trkpt lat="45.88064432144165" lon="8.509147167205811">
        <ele>606.729248046875</ele>
        <time>2007-12-02T09:08:09Z</time>
      </trkpt>
      <trkpt lat="45.880858898162842" lon="8.509211540222168">
        <ele>606.24853515625</ele>
        <time>2007-12-02T09:08:13Z</time>
      </trkpt>
      <trkpt lat="45.881202220916748" lon="8.509147167205811">
        <ele>605.287353515625</ele>
        <time>2007-12-02T09:08:20Z</time>
      </trkpt>
      <trkpt lat="45.881567001342773" lon="8.509211540222168">
        <ele>605.76806640625</ele>
        <time>2007-12-02T09:08:29Z</time>
      </trkpt>
      <trkpt lat="45.881717205047607" lon="8.509254455566406">
        <ele>607.2099609375</ele>
        <time>2007-12-02T09:08:36Z</time>
      </trkpt>
      <trkpt lat="45.881867408752441" lon="8.509318828582764">
        <ele>609.61328125</ele>
        <time>2007-12-02T09:08:44Z</time>
      </trkpt>
      <trkpt lat="45.88191032409668" lon="8.509318828582764">
        <ele>608.65185546875</ele>
        <time>2007-12-02T09:08:47Z</time>
      </trkpt>
      <trkpt lat="45.882060527801514" lon="8.509190082550049">
        <ele>610.09375</ele>
        <time>2007-12-02T09:09:00Z</time>
      </trkpt>
      <trkpt lat="45.882103443145752" lon="8.509125709533691">
        <ele>610.09375</ele>
        <time>2007-12-02T09:09:04Z</time>
      </trkpt>
      <trkpt lat="45.882296562194824" lon="8.509104251861572">
        <ele>609.132568359375</ele>
        <time>2007-12-02T09:09:13Z</time>
      </trkpt>
      <trkpt lat="45.882339477539063" lon="8.509104251861572">
        <ele>609.132568359375</ele>
        <time>2007-12-02T09:09:15Z</time>
      </trkpt>
      <trkpt lat="45.88240385055542" lon="8.509039878845215">
        <ele>608.65185546875</ele>
        <time>2007-12-02T09:09:19Z</time>
      </trkpt>
      <trkpt lat="45.882575511932373" lon="8.508932590484619">
        <ele>615.381103515625</ele>
        <time>2007-12-02T09:09:28Z</time>
      </trkpt>
      <trkpt lat="45.882811546325684" lon="8.508803844451904">
        <ele>620.187744140625</ele>
        <time>2007-12-02T09:09:41Z</time>
      </trkpt>
      <trkpt lat="45.883026123046875" lon="8.508567810058594">
        <ele>621.149169921875</ele>
        <time>2007-12-02T09:09:54Z</time>
      </trkpt>
      <trkpt lat="45.883283615112305" lon="8.508331775665283">
        <ele>619.70703125</ele>
        <time>2007-12-02T09:10:03Z</time>
      </trkpt>
      <trkpt lat="45.883305072784424" lon="8.508310317993164">
        <ele>619.70703125</ele>
        <time>2007-12-02T09:10:04Z</time>
      </trkpt>
      <trkpt lat="45.88341236114502" lon="8.508074283599854">
        <ele>620.187744140625</ele>
        <time>2007-12-02T09:10:15Z</time>
      </trkpt>
      <trkpt lat="45.883519649505615" lon="8.507966995239258">
        <ele>621.629638671875</ele>
        <time>2007-12-02T09:10:23Z</time>
      </trkpt>
      <trkpt lat="45.88364839553833" lon="8.5079026222229">
        <ele>623.07177734375</ele>
        <time>2007-12-02T09:10:33Z</time>
      </trkpt>
      <trkpt lat="45.883841514587402" lon="8.507773876190186">
        <ele>623.07177734375</ele>
        <time>2007-12-02T09:10:44Z</time>
      </trkpt>
      <trkpt lat="45.883841514587402" lon="8.507752418518066">
        <ele>623.552490234375</ele>
        <time>2007-12-02T09:10:45Z</time>
      </trkpt>
      <trkpt lat="45.884013175964355" lon="8.507494926452637">
        <ele>623.552490234375</ele>
        <time>2007-12-02T09:10:57Z</time>
      </trkpt>
      <trkpt lat="45.884206295013428" lon="8.507237434387207">
        <ele>624.994384765625</ele>
        <time>2007-12-02T09:11:08Z</time>
      </trkpt>
      <trkpt lat="45.8843994140625" lon="8.506894111633301">
        <ele>626.9169921875</ele>
        <time>2007-12-02T09:11:22Z</time>
      </trkpt>
      <trkpt lat="45.884549617767334" lon="8.506529331207275">
        <ele>628.35888671875</ele>
        <time>2007-12-02T09:11:35Z</time>
      </trkpt>
      <trkpt lat="45.88465690612793" lon="8.50616455078125">
        <ele>630.281494140625</ele>
        <time>2007-12-02T09:11:48Z</time>
      </trkpt>
      <trkpt lat="45.884742736816406" lon="8.505842685699463">
        <ele>632.2041015625</ele>
        <time>2007-12-02T09:12:00Z</time>
      </trkpt>
      <trkpt lat="45.884828567504883" lon="8.505606651306152">
        <ele>633.64599609375</ele>
        <time>2007-12-02T09:12:09Z</time>
      </trkpt>
      <trkpt lat="45.884914398193359" lon="8.505370616912842">
        <ele>634.607421875</ele>
        <time>2007-12-02T09:12:19Z</time>
      </trkpt>
      <trkpt lat="45.884978771209717" lon="8.50515604019165">
        <ele>635.088134765625</ele>
        <time>2007-12-02T09:12:28Z</time>
      </trkpt>
      <trkpt lat="45.885128974914551" lon="8.504812717437744">
        <ele>637.0107421875</ele>
        <time>2007-12-02T09:12:41Z</time>
      </trkpt>
      <trkpt lat="45.885257720947266" lon="8.504512310028076">
        <ele>638.452880859375</ele>
        <time>2007-12-02T09:12:51Z</time>
      </trkpt>
      <trkpt lat="45.885279178619385" lon="8.504233360290527">
        <ele>638.452880859375</ele>
        <time>2007-12-02T09:13:00Z</time>
      </trkpt>
      <trkpt lat="45.885214805603027" lon="8.503868579864502">
        <ele>638.93359375</ele>
        <time>2007-12-02T09:13:11Z</time>
      </trkpt>
      <trkpt lat="45.885257720947266" lon="8.503525257110596">
        <ele>639.894775390625</ele>
        <time>2007-12-02T09:13:24Z</time>
      </trkpt>
      <trkpt lat="45.885279178619385" lon="8.503503799438477">
        <ele>639.894775390625</ele>
        <time>2007-12-02T09:13:25Z</time>
      </trkpt>
      <trkpt lat="45.885300636291504" lon="8.503503799438477">
        <ele>639.4140625</ele>
        <time>2007-12-02T09:13:27Z</time>
      </trkpt>
      <trkpt lat="45.885579586029053" lon="8.503696918487549">
        <ele>643.25927734375</ele>
        <time>2007-12-02T09:13:43Z</time>
      </trkpt>
      <trkpt lat="45.885837078094482" lon="8.503804206848145">
        <ele>641.8173828125</ele>
        <time>2007-12-02T09:13:55Z</time>
      </trkpt>
      <trkpt lat="45.886073112487793" lon="8.503761291503906">
        <ele>643.25927734375</ele>
        <time>2007-12-02T09:14:06Z</time>
      </trkpt>
      <trkpt lat="45.886223316192627" lon="8.503546714782715">
        <ele>644.701171875</ele>
        <time>2007-12-02T09:14:15Z</time>
      </trkpt>
      <trkpt lat="45.886459350585938" lon="8.503289222717285">
        <ele>648.06591796875</ele>
        <time>2007-12-02T09:14:26Z</time>
      </trkpt>
      <trkpt lat="45.886673927307129" lon="8.503117561340332">
        <ele>651.9111328125</ele>
        <time>2007-12-02T09:14:37Z</time>
      </trkpt>
      <trkpt lat="45.886867046356201" lon="8.502945899963379">
        <ele>654.314697265625</ele>
        <time>2007-12-02T09:14:47Z</time>
      </trkpt>
      <trkpt lat="45.887103080749512" lon="8.502731323242188">
        <ele>655.756591796875</ele>
        <time>2007-12-02T09:14:59Z</time>
      </trkpt>
      <trkpt lat="45.887274742126465" lon="8.502495288848877">
        <ele>654.795166015625</ele>
        <time>2007-12-02T09:15:09Z</time>
      </trkpt>
      <trkpt lat="45.887360572814941" lon="8.502216339111328">
        <ele>655.27587890625</ele>
        <time>2007-12-02T09:15:20Z</time>
      </trkpt>
      <trkpt lat="45.88740348815918" lon="8.501937389373779">
        <ele>658.159912109375</ele>
        <time>2007-12-02T09:15:31Z</time>
      </trkpt>
      <trkpt lat="45.887510776519775" lon="8.501787185668945">
        <ele>659.601806640625</ele>
        <time>2007-12-02T09:15:39Z</time>
      </trkpt>
      <trkpt lat="45.887682437896729" lon="8.501572608947754">
        <ele>664.408203125</ele>
        <time>2007-12-02T09:15:54Z</time>
      </trkpt>
      <trkpt lat="45.887854099273682" lon="8.501400947570801">
        <ele>666.8115234375</ele>
        <time>2007-12-02T09:16:07Z</time>
      </trkpt>
      <trkpt lat="45.887982845306396" lon="8.501272201538086">
        <ele>670.17626953125</ele>
        <time>2007-12-02T09:16:16Z</time>
      </trkpt>
      <trkpt lat="45.888197422027588" lon="8.501079082489014">
        <ele>672.57958984375</ele>
        <time>2007-12-02T09:16:30Z</time>
      </trkpt>
      <trkpt lat="45.888347625732422" lon="8.500950336456299">
        <ele>672.098876953125</ele>
        <time>2007-12-02T09:16:40Z</time>
      </trkpt>
      <trkpt lat="45.888519287109375" lon="8.500714302062988">
        <ele>674.502197265625</ele>
        <time>2007-12-02T09:16:53Z</time>
      </trkpt>
      <trkpt lat="45.888583660125732" lon="8.500499725341797">
        <ele>674.502197265625</ele>
        <time>2007-12-02T09:17:03Z</time>
      </trkpt>
      <trkpt lat="45.888669490814209" lon="8.500220775604248">
        <ele>675.944091796875</ele>
        <time>2007-12-02T09:17:15Z</time>
      </trkpt>
      <trkpt lat="45.888798236846924" lon="8.500070571899414">
        <ele>675.46337890625</ele>
        <time>2007-12-02T09:17:23Z</time>
      </trkpt>
      <trkpt lat="45.888991355895996" lon="8.49992036819458">
        <ele>679.30859375</ele>
        <time>2007-12-02T09:17:36Z</time>
      </trkpt>
      <trkpt lat="45.88914155960083" lon="8.499770164489746">
        <ele>682.192626953125</ele>
        <time>2007-12-02T09:17:47Z</time>
      </trkpt>
      <trkpt lat="45.889313220977783" lon="8.499577045440674">
        <ele>683.634521484375</ele>
        <time>2007-12-02T09:18:00Z</time>
      </trkpt>
      <trkpt lat="45.889441967010498" lon="8.49942684173584">
        <ele>685.076904296875</ele>
        <time>2007-12-02T09:18:10Z</time>
      </trkpt>
      <trkpt lat="45.889592170715332" lon="8.499212265014648">
        <ele>687.960693359375</ele>
        <time>2007-12-02T09:18:22Z</time>
      </trkpt>
      <trkpt lat="45.889785289764404" lon="8.498954772949219">
        <ele>690.844482421875</ele>
        <time>2007-12-02T09:18:36Z</time>
      </trkpt>
      <trkpt lat="45.889999866485596" lon="8.498632907867432">
        <ele>695.17041015625</ele>
        <time>2007-12-02T09:18:52Z</time>
      </trkpt>
      <trkpt lat="45.89015007019043" lon="8.498332500457764">
        <ele>696.1318359375</ele>
        <time>2007-12-02T09:19:07Z</time>
      </trkpt>
      <trkpt lat="45.890235900878906" lon="8.497989177703857">
        <ele>698.054443359375</ele>
        <time>2007-12-02T09:19:20Z</time>
      </trkpt>
      <trkpt lat="45.890257358551025" lon="8.49768877029419">
        <ele>696.612548828125</ele>
        <time>2007-12-02T09:19:30Z</time>
      </trkpt>
      <trkpt lat="45.890192985534668" lon="8.497345447540283">
        <ele>698.534912109375</ele>
        <time>2007-12-02T09:19:40Z</time>
      </trkpt>
      <trkpt lat="45.890214443206787" lon="8.49693775177002">
        <ele>699.97705078125</ele>
        <time>2007-12-02T09:19:50Z</time>
      </trkpt>
      <trkpt lat="45.890343189239502" lon="8.496444225311279">
        <ele>702.38037109375</ele>
        <time>2007-12-02T09:20:04Z</time>
      </trkpt>
      <trkpt lat="45.890429019927979" lon="8.496015071868897">
        <ele>704.78369140625</ele>
        <time>2007-12-02T09:20:16Z</time>
      </trkpt>
      <trkpt lat="45.890557765960693" lon="8.495714664459229">
        <ele>705.7451171875</ele>
        <time>2007-12-02T09:20:25Z</time>
      </trkpt>
      <trkpt lat="45.890686511993408" lon="8.495414257049561">
        <ele>707.667724609375</ele>
        <time>2007-12-02T09:20:36Z</time>
      </trkpt>
      <trkpt lat="45.890815258026123" lon="8.495113849639893">
        <ele>709.59033203125</ele>
        <time>2007-12-02T09:20:45Z</time>
      </trkpt>
      <trkpt lat="45.89087963104248" lon="8.49494218826294">
        <ele>711.0322265625</ele>
        <time>2007-12-02T09:20:52Z</time>
      </trkpt>
      <trkpt lat="45.890965461730957" lon="8.494598865509033">
        <ele>711.99365234375</ele>
        <time>2007-12-02T09:21:02Z</time>
      </trkpt>
      <trkpt lat="45.891029834747314" lon="8.49416971206665">
        <ele>713.916015625</ele>
        <time>2007-12-02T09:21:13Z</time>
      </trkpt>
      <trkpt lat="45.891029834747314" lon="8.493955135345459">
        <ele>714.396728515625</ele>
        <time>2007-12-02T09:21:22Z</time>
      </trkpt>
      <trkpt lat="45.891072750091553" lon="8.493762016296387">
        <ele>714.396728515625</ele>
        <time>2007-12-02T09:21:29Z</time>
      </trkpt>
      <trkpt lat="45.89113712310791" lon="8.493397235870361">
        <ele>714.396728515625</ele>
        <time>2007-12-02T09:21:39Z</time>
      </trkpt>
      <trkpt lat="45.891158580780029" lon="8.492989540100098">
        <ele>714.396728515625</ele>
        <time>2007-12-02T09:21:49Z</time>
      </trkpt>
      <trkpt lat="45.891222953796387" lon="8.492453098297119">
        <ele>713.916015625</ele>
        <time>2007-12-02T09:22:02Z</time>
      </trkpt>
      <trkpt lat="45.891330242156982" lon="8.49193811416626">
        <ele>714.396728515625</ele>
        <time>2007-12-02T09:22:14Z</time>
      </trkpt>
      <trkpt lat="45.891480445861816" lon="8.491487503051758">
        <ele>714.87744140625</ele>
        <time>2007-12-02T09:22:26Z</time>
      </trkpt>
      <trkpt lat="45.891587734222412" lon="8.491144180297852">
        <ele>716.80029296875</ele>
        <time>2007-12-02T09:22:36Z</time>
      </trkpt>
      <trkpt lat="45.891737937927246" lon="8.490715026855469">
        <ele>718.2421875</ele>
        <time>2007-12-02T09:22:49Z</time>
      </trkpt>
      <trkpt lat="45.89188814163208" lon="8.490285873413086">
        <ele>720.6455078125</ele>
        <time>2007-12-02T09:23:02Z</time>
      </trkpt>
      <trkpt lat="45.892059803009033" lon="8.489985466003418">
        <ele>722.08740234375</ele>
        <time>2007-12-02T09:23:13Z</time>
      </trkpt>
      <trkpt lat="45.892231464385986" lon="8.48968505859375">
        <ele>723.048828125</ele>
        <time>2007-12-02T09:23:24Z</time>
      </trkpt>
      <trkpt lat="45.89238166809082" lon="8.489363193511963">
        <ele>724.49072265625</ele>
        <time>2007-12-02T09:23:36Z</time>
      </trkpt>
      <trkpt lat="45.892488956451416" lon="8.489084243774414">
        <ele>725.451904296875</ele>
        <time>2007-12-02T09:23:47Z</time>
      </trkpt>
      <trkpt lat="45.892510414123535" lon="8.488848209381104">
        <ele>726.413330078125</ele>
        <time>2007-12-02T09:23:56Z</time>
      </trkpt>
      <trkpt lat="45.892574787139893" lon="8.488612174987793">
        <ele>725.9326171875</ele>
        <time>2007-12-02T09:24:06Z</time>
      </trkpt>
      <trkpt lat="45.892724990844727" lon="8.488504886627197">
        <ele>728.3359375</ele>
        <time>2007-12-02T09:24:16Z</time>
      </trkpt>
      <trkpt lat="45.892982482910156" lon="8.488333225250244">
        <ele>730.258544921875</ele>
        <time>2007-12-02T09:24:29Z</time>
      </trkpt>
      <trkpt lat="45.893175601959229" lon="8.488140106201172">
        <ele>733.142578125</ele>
        <time>2007-12-02T09:24:40Z</time>
      </trkpt>
      <trkpt lat="45.89339017868042" lon="8.487882614135742">
        <ele>734.10400390625</ele>
        <time>2007-12-02T09:24:54Z</time>
      </trkpt>
      <trkpt lat="45.893561840057373" lon="8.487603664398193">
        <ele>735.0654296875</ele>
        <time>2007-12-02T09:25:07Z</time>
      </trkpt>
      <trkpt lat="45.893712043762207" lon="8.487410545349121">
        <ele>734.584716796875</ele>
        <time>2007-12-02T09:25:17Z</time>
      </trkpt>
      <trkpt lat="45.893905162811279" lon="8.487174510955811">
        <ele>736.026611328125</ele>
        <time>2007-12-02T09:25:30Z</time>
      </trkpt>
      <trkpt lat="45.894012451171875" lon="8.486895561218262">
        <ele>737.94921875</ele>
        <time>2007-12-02T09:25:43Z</time>
      </trkpt>
      <trkpt lat="45.894119739532471" lon="8.48670244216919">
        <ele>741.313720703125</ele>
        <time>2007-12-02T09:25:53Z</time>
      </trkpt>
      <trkpt lat="45.894184112548828" lon="8.486466407775879">
        <ele>744.67822265625</ele>
        <time>2007-12-02T09:26:05Z</time>
      </trkpt>
      <trkpt lat="45.894248485565186" lon="8.486316204071045">
        <ele>746.60107421875</ele>
        <time>2007-12-02T09:26:14Z</time>
      </trkpt>
      <trkpt lat="45.894334316253662" lon="8.486166000366211">
        <ele>749.485107421875</ele>
        <time>2007-12-02T09:26:24Z</time>
      </trkpt>
      <trkpt lat="45.894420146942139" lon="8.486015796661377">
        <ele>750.446533203125</ele>
        <time>2007-12-02T09:26:33Z</time>
      </trkpt>
      <trkpt lat="45.894484519958496" lon="8.485865592956543">
        <ele>750.927001953125</ele>
        <time>2007-12-02T09:26:43Z</time>
      </trkpt>
      <trkpt lat="45.894613265991211" lon="8.485608100891113">
        <ele>752.368896484375</ele>
        <time>2007-12-02T09:26:57Z</time>
      </trkpt>
      <trkpt lat="45.894699096679688" lon="8.485393524169922">
        <ele>754.291748046875</ele>
        <time>2007-12-02T09:27:10Z</time>
      </trkpt>
      <trkpt lat="45.894784927368164" lon="8.485178947448731">
        <ele>757.175537109375</ele>
        <time>2007-12-02T09:27:21Z</time>
      </trkpt>
      <trkpt lat="45.894806385040283" lon="8.485071659088135">
        <ele>758.136962890625</ele>
        <time>2007-12-02T09:27:26Z</time>
      </trkpt>
      <trkpt lat="45.894870758056641" lon="8.484985828399658">
        <ele>758.617431640625</ele>
        <time>2007-12-02T09:27:33Z</time>
      </trkpt>
      <trkpt lat="45.894999504089355" lon="8.484899997711182">
        <ele>760.5400390625</ele>
        <time>2007-12-02T09:27:43Z</time>
      </trkpt>
      <trkpt lat="45.895106792449951" lon="8.484899997711182">
        <ele>761.982177734375</ele>
        <time>2007-12-02T09:27:50Z</time>
      </trkpt>
      <trkpt lat="45.895192623138428" lon="8.484814167022705">
        <ele>761.982177734375</ele>
        <time>2007-12-02T09:27:57Z</time>
      </trkpt>
      <trkpt lat="45.895321369171143" lon="8.484642505645752">
        <ele>764.385498046875</ele>
        <time>2007-12-02T09:28:09Z</time>
      </trkpt>
      <trkpt lat="45.895407199859619" lon="8.484535217285156">
        <ele>765.82763671875</ele>
        <time>2007-12-02T09:28:18Z</time>
      </trkpt>
      <trkpt lat="45.895493030548096" lon="8.484385013580322">
        <ele>766.788818359375</ele>
        <time>2007-12-02T09:28:29Z</time>
      </trkpt>
      <trkpt lat="45.895578861236572" lon="8.48419189453125">
        <ele>769.6728515625</ele>
        <time>2007-12-02T09:28:41Z</time>
      </trkpt>
      <trkpt lat="45.895578861236572" lon="8.484148979187012">
        <ele>770.634033203125</ele>
        <time>2007-12-02T09:28:44Z</time>
      </trkpt>
      <trkpt lat="45.895557403564453" lon="8.484020233154297">
        <ele>771.11474609375</ele>
        <time>2007-12-02T09:28:51Z</time>
      </trkpt>
      <trkpt lat="45.895514488220215" lon="8.483741283416748">
        <ele>772.075927734375</ele>
        <time>2007-12-02T09:29:04Z</time>
      </trkpt>
      <trkpt lat="45.895450115203857" lon="8.483569622039795">
        <ele>774.479248046875</ele>
        <time>2007-12-02T09:29:14Z</time>
      </trkpt>
      <trkpt lat="45.895407199859619" lon="8.483462333679199">
        <ele>776.40185546875</ele>
        <time>2007-12-02T09:29:22Z</time>
      </trkpt>
      <trkpt lat="45.895364284515381" lon="8.483376502990723">
        <ele>776.882568359375</ele>
        <time>2007-12-02T09:29:27Z</time>
      </trkpt>
      <trkpt lat="45.895364284515381" lon="8.483140468597412">
        <ele>776.882568359375</ele>
        <time>2007-12-02T09:29:39Z</time>
      </trkpt>
      <trkpt lat="45.895342826843262" lon="8.482925891876221">
        <ele>778.324462890625</ele>
        <time>2007-12-02T09:29:50Z</time>
      </trkpt>
      <trkpt lat="45.895299911499023" lon="8.482840061187744">
        <ele>779.766357421875</ele>
        <time>2007-12-02T09:29:56Z</time>
      </trkpt>
      <trkpt lat="45.895171165466309" lon="8.482754230499268">
        <ele>782.169921875</ele>
        <time>2007-12-02T09:30:08Z</time>
      </trkpt>
      <trkpt lat="45.895042419433594" lon="8.482646942138672">
        <ele>783.61181640625</ele>
        <time>2007-12-02T09:30:18Z</time>
      </trkpt>
      <trkpt lat="45.894978046417236" lon="8.482518196105957">
        <ele>785.053955078125</ele>
        <time>2007-12-02T09:30:26Z</time>
      </trkpt>
      <trkpt lat="45.894935131072998" lon="8.482303619384766">
        <ele>785.534423828125</ele>
        <time>2007-12-02T09:30:37Z</time>
      </trkpt>
      <trkpt lat="45.894935131072998" lon="8.482089042663574">
        <ele>786.01513671875</ele>
        <time>2007-12-02T09:30:47Z</time>
      </trkpt>
      <trkpt lat="45.894913673400879" lon="8.481917381286621">
        <ele>787.45703125</ele>
        <time>2007-12-02T09:30:57Z</time>
      </trkpt>
      <trkpt lat="45.894806385040283" lon="8.481810092926025">
        <ele>789.379638671875</ele>
        <time>2007-12-02T09:31:08Z</time>
      </trkpt>
      <trkpt lat="45.894763469696045" lon="8.481810092926025">
        <ele>790.341064453125</ele>
        <time>2007-12-02T09:31:10Z</time>
      </trkpt>
      <trkpt lat="45.894699096679688" lon="8.482003211975098">
        <ele>792.744384765625</ele>
        <time>2007-12-02T09:31:20Z</time>
      </trkpt>
      <trkpt lat="45.894677639007568" lon="8.482260704040527">
        <ele>793.70556640625</ele>
        <time>2007-12-02T09:31:31Z</time>
      </trkpt>
      <trkpt lat="45.89463472366333" lon="8.482496738433838">
        <ele>794.186279296875</ele>
        <time>2007-12-02T09:31:43Z</time>
      </trkpt>
      <trkpt lat="45.894570350646973" lon="8.482732772827148">
        <ele>794.186279296875</ele>
        <time>2007-12-02T09:31:54Z</time>
      </trkpt>
      <trkpt lat="45.894463062286377" lon="8.482990264892578">
        <ele>795.1474609375</ele>
        <time>2007-12-02T09:32:06Z</time>
      </trkpt>
      <trkpt lat="45.894334316253662" lon="8.483226299285889">
        <ele>796.109130859375</ele>
        <time>2007-12-02T09:32:18Z</time>
      </trkpt>
      <trkpt lat="45.894205570220947" lon="8.483355045318604">
        <ele>796.58984375</ele>
        <time>2007-12-02T09:32:27Z</time>
      </trkpt>
      <trkpt lat="45.894076824188232" lon="8.483505249023438">
        <ele>798.51220703125</ele>
        <time>2007-12-02T09:32:37Z</time>
      </trkpt>
      <trkpt lat="45.893969535827637" lon="8.483719825744629">
        <ele>799.954345703125</ele>
        <time>2007-12-02T09:32:48Z</time>
      </trkpt>
      <trkpt lat="45.893926620483398" lon="8.483848571777344">
        <ele>800.91552734375</ele>
        <time>2007-12-02T09:32:55Z</time>
      </trkpt>
      <trkpt lat="45.893905162811279" lon="8.484063148498535">
        <ele>801.396240234375</ele>
        <time>2007-12-02T09:33:04Z</time>
      </trkpt>
      <trkpt lat="45.893819332122803" lon="8.484213352203369">
        <ele>802.838134765625</ele>
        <time>2007-12-02T09:33:12Z</time>
      </trkpt>
      <trkpt lat="45.893797874450684" lon="8.484256267547607">
        <ele>802.838134765625</ele>
        <time>2007-12-02T09:33:15Z</time>
      </trkpt>
      <trkpt lat="45.89362621307373" lon="8.484299182891846">
        <ele>801.876953125</ele>
        <time>2007-12-02T09:33:26Z</time>
      </trkpt>
      <trkpt lat="45.893476009368896" lon="8.484427928924561">
        <ele>803.31884765625</ele>
        <time>2007-12-02T09:33:35Z</time>
      </trkpt>
      <trkpt lat="45.893325805664063" lon="8.484599590301514">
        <ele>805.241455078125</ele>
        <time>2007-12-02T09:33:45Z</time>
      </trkpt>
      <trkpt lat="45.893218517303467" lon="8.484728336334229">
        <ele>805.241455078125</ele>
        <time>2007-12-02T09:33:53Z</time>
      </trkpt>
      <trkpt lat="45.893068313598633" lon="8.484921455383301">
        <ele>807.1640625</ele>
        <time>2007-12-02T09:34:04Z</time>
      </trkpt>
      <trkpt lat="45.892832279205322" lon="8.484964370727539">
        <ele>806.683349609375</ele>
        <time>2007-12-02T09:34:17Z</time>
      </trkpt>
      <trkpt lat="45.89263916015625" lon="8.484964370727539">
        <ele>806.683349609375</ele>
        <time>2007-12-02T09:34:28Z</time>
      </trkpt>
      <trkpt lat="45.89238166809082" lon="8.485007286071777">
        <ele>807.644775390625</ele>
        <time>2007-12-02T09:34:41Z</time>
      </trkpt>
      <trkpt lat="45.892188549041748" lon="8.485050201416016">
        <ele>808.60595703125</ele>
        <time>2007-12-02T09:34:52Z</time>
      </trkpt>
      <trkpt lat="45.891973972320557" lon="8.485136032104492">
        <ele>810.528564453125</ele>
        <time>2007-12-02T09:35:03Z</time>
      </trkpt>
      <trkpt lat="45.891802310943604" lon="8.485221862792969">
        <ele>811.00927734375</ele>
        <time>2007-12-02T09:35:14Z</time>
      </trkpt>
      <trkpt lat="45.891587734222412" lon="8.485243320465088">
        <ele>811.970703125</ele>
        <time>2007-12-02T09:35:26Z</time>
      </trkpt>
      <trkpt lat="45.891416072845459" lon="8.485264778137207">
        <ele>812.93212890625</ele>
        <time>2007-12-02T09:35:35Z</time>
      </trkpt>
      <trkpt lat="45.891222953796387" lon="8.485350608825684">
        <ele>814.854736328125</ele>
        <time>2007-12-02T09:35:46Z</time>
      </trkpt>
      <trkpt lat="45.891051292419434" lon="8.485414981842041">
        <ele>817.258056640625</ele>
        <time>2007-12-02T09:35:56Z</time>
      </trkpt>
      <trkpt lat="45.89087963104248" lon="8.485457897186279">
        <ele>819.1806640625</ele>
        <time>2007-12-02T09:36:06Z</time>
      </trkpt>
      <trkpt lat="45.890707969665527" lon="8.485479354858398">
        <ele>819.661376953125</ele>
        <time>2007-12-02T09:36:16Z</time>
      </trkpt>
      <trkpt lat="45.890450477600098" lon="8.485522270202637">
        <ele>822.545166015625</ele>
        <time>2007-12-02T09:36:30Z</time>
      </trkpt>
      <trkpt lat="45.890278816223145" lon="8.485586643218994">
        <ele>823.987060546875</ele>
        <time>2007-12-02T09:36:42Z</time>
      </trkpt>
      <trkpt lat="45.890128612518311" lon="8.485651016235352">
        <ele>825.90966796875</ele>
        <time>2007-12-02T09:36:51Z</time>
      </trkpt>
      <trkpt lat="45.889956951141357" lon="8.485779762268066">
        <ele>828.7939453125</ele>
        <time>2007-12-02T09:37:03Z</time>
      </trkpt>
      <trkpt lat="45.889849662780762" lon="8.4859299659729">
        <ele>831.197265625</ele>
        <time>2007-12-02T09:37:13Z</time>
      </trkpt>
      <trkpt lat="45.889763832092285" lon="8.486123085021973">
        <ele>833.600341796875</ele>
        <time>2007-12-02T09:37:25Z</time>
      </trkpt>
      <trkpt lat="45.889678001403809" lon="8.486380577087402">
        <ele>832.158447265625</ele>
        <time>2007-12-02T09:37:37Z</time>
      </trkpt>
      <trkpt lat="45.889613628387451" lon="8.486595153808594">
        <ele>833.11962890625</ele>
        <time>2007-12-02T09:37:47Z</time>
      </trkpt>
      <trkpt lat="45.889527797698975" lon="8.486809730529785">
        <ele>834.561767578125</ele>
        <time>2007-12-02T09:37:57Z</time>
      </trkpt>
      <trkpt lat="45.889441967010498" lon="8.487045764923096">
        <ele>836.003662109375</ele>
        <time>2007-12-02T09:38:06Z</time>
      </trkpt>
      <trkpt lat="45.889356136322021" lon="8.487260341644287">
        <ele>835.52294921875</ele>
        <time>2007-12-02T09:38:15Z</time>
      </trkpt>
      <trkpt lat="45.889205932617188" lon="8.487453460693359">
        <ele>835.04248046875</ele>
        <time>2007-12-02T09:38:23Z</time>
      </trkpt>
      <trkpt lat="45.889055728912354" lon="8.487646579742432">
        <ele>834.0810546875</ele>
        <time>2007-12-02T09:38:33Z</time>
      </trkpt>
      <trkpt lat="45.8888840675354" lon="8.487882614135742">
        <ele>834.561767578125</ele>
        <time>2007-12-02T09:38:43Z</time>
      </trkpt>
      <trkpt lat="45.888690948486328" lon="8.48818302154541">
        <ele>836.484375</ele>
        <time>2007-12-02T09:38:53Z</time>
      </trkpt>
      <trkpt lat="45.888519287109375" lon="8.488504886627197">
        <ele>837.445556640625</ele>
        <time>2007-12-02T09:39:05Z</time>
      </trkpt>
      <trkpt lat="45.888347625732422" lon="8.48869800567627">
        <ele>838.8876953125</ele>
        <time>2007-12-02T09:39:15Z</time>
      </trkpt>
      <trkpt lat="45.888111591339111" lon="8.488998413085938">
        <ele>839.3681640625</ele>
        <time>2007-12-02T09:39:28Z</time>
      </trkpt>
      <trkpt lat="45.888004302978516" lon="8.489105701446533">
        <ele>838.8876953125</ele>
        <time>2007-12-02T09:39:35Z</time>
      </trkpt>
      <trkpt lat="45.887939929962158" lon="8.489062786102295">
        <ele>839.3681640625</ele>
        <time>2007-12-02T09:39:45Z</time>
      </trkpt>
      <trkpt lat="45.887939929962158" lon="8.489062786102295">
        <ele>840.32958984375</ele>
        <time>2007-12-02T09:39:58Z</time>
      </trkpt>
      <trkpt lat="45.887939929962158" lon="8.489041328430176">
        <ele>839.848876953125</ele>
        <time>2007-12-02T09:40:07Z</time>
      </trkpt>
      <trkpt lat="45.887961387634277" lon="8.489019870758057">
        <ele>841.290771484375</ele>
        <time>2007-12-02T09:40:17Z</time>
      </trkpt>
      <trkpt lat="45.887961387634277" lon="8.489019870758057">
        <ele>843.21337890625</ele>
        <time>2007-12-02T09:40:24Z</time>
      </trkpt>
      <trkpt lat="45.888004302978516" lon="8.488976955413818">
        <ele>843.21337890625</ele>
        <time>2007-12-02T09:40:26Z</time>
      </trkpt>
      <trkpt lat="45.888090133666992" lon="8.488826751708984">
        <ele>844.655517578125</ele>
        <time>2007-12-02T09:40:36Z</time>
      </trkpt>
      <trkpt lat="45.88813304901123" lon="8.488590717315674">
        <ele>843.694091796875</ele>
        <time>2007-12-02T09:40:49Z</time>
      </trkpt>
      <trkpt lat="45.88813304901123" lon="8.488504886627197">
        <ele>844.655517578125</ele>
        <time>2007-12-02T09:40:54Z</time>
      </trkpt>
      <trkpt lat="45.88815450668335" lon="8.488311767578125">
        <ele>844.655517578125</ele>
        <time>2007-12-02T09:41:05Z</time>
      </trkpt>
      <trkpt lat="45.888175964355469" lon="8.488225936889648">
        <ele>845.13623046875</ele>
        <time>2007-12-02T09:41:10Z</time>
      </trkpt>
      <trkpt lat="45.88813304901123" lon="8.488011360168457">
        <ele>848.9814453125</ele>
        <time>2007-12-02T09:41:25Z</time>
      </trkpt>
      <trkpt lat="45.888068675994873" lon="8.487839698791504">
        <ele>850.423583984375</ele>
        <time>2007-12-02T09:41:37Z</time>
      </trkpt>
      <trkpt lat="45.888047218322754" lon="8.487775325775147">
        <ele>852.345947265625</ele>
        <time>2007-12-02T09:41:41Z</time>
      </trkpt>
      <trkpt lat="45.888004302978516" lon="8.48768949508667">
        <ele>855.22998046875</ele>
        <time>2007-12-02T09:41:47Z</time>
      </trkpt>
      <trkpt lat="45.887939929962158" lon="8.487517833709717">
        <ele>856.191162109375</ele>
        <time>2007-12-02T09:41:59Z</time>
      </trkpt>
      <trkpt lat="45.887939929962158" lon="8.487496376037598">
        <ele>856.671875</ele>
        <time>2007-12-02T09:42:00Z</time>
      </trkpt>
      <trkpt lat="45.887918472290039" lon="8.48743200302124">
        <ele>857.63330078125</ele>
        <time>2007-12-02T09:42:05Z</time>
      </trkpt>
      <trkpt lat="45.88789701461792" lon="8.487217426300049">
        <ele>858.594482421875</ele>
        <time>2007-12-02T09:42:19Z</time>
      </trkpt>
      <trkpt lat="45.887939929962158" lon="8.486981391906738">
        <ele>860.517333984375</ele>
        <time>2007-12-02T09:42:33Z</time>
      </trkpt>
      <trkpt lat="45.888004302978516" lon="8.486745357513428">
        <ele>862.920654296875</ele>
        <time>2007-12-02T09:42:47Z</time>
      </trkpt>
      <trkpt lat="45.888068675994873" lon="8.486595153808594">
        <ele>862.920654296875</ele>
        <time>2007-12-02T09:42:59Z</time>
      </trkpt>
      <trkpt lat="45.888090133666992" lon="8.486552238464356">
        <ele>863.8818359375</ele>
        <time>2007-12-02T09:43:05Z</time>
      </trkpt>
      <trkpt lat="45.888197422027588" lon="8.486423492431641">
        <ele>867.24658203125</ele>
        <time>2007-12-02T09:43:18Z</time>
      </trkpt>
      <trkpt lat="45.888240337371826" lon="8.486294746398926">
        <ele>869.169189453125</ele>
        <time>2007-12-02T09:43:29Z</time>
      </trkpt>
      <trkpt lat="45.888304710388184" lon="8.48618745803833">
        <ele>870.13037109375</ele>
        <time>2007-12-02T09:43:40Z</time>
      </trkpt>
      <trkpt lat="45.888369083404541" lon="8.486080169677734">
        <ele>871.091796875</ele>
        <time>2007-12-02T09:43:51Z</time>
      </trkpt>
      <trkpt lat="45.888411998748779" lon="8.485972881317139">
        <ele>871.572265625</ele>
        <time>2007-12-02T09:44:00Z</time>
      </trkpt>
      <trkpt lat="45.888433456420898" lon="8.485865592956543">
        <ele>872.052978515625</ele>
        <time>2007-12-02T09:44:09Z</time>
      </trkpt>
      <trkpt lat="45.888433456420898" lon="8.485801219940186">
        <ele>873.014404296875</ele>
        <time>2007-12-02T09:44:14Z</time>
      </trkpt>
      <trkpt lat="45.888326168060303" lon="8.485715389251709">
        <ele>875.898193359375</ele>
        <time>2007-12-02T09:44:27Z</time>
      </trkpt>
      <trkpt lat="45.888240337371826" lon="8.485672473907471">
        <ele>877.340576171875</ele>
        <time>2007-12-02T09:44:39Z</time>
      </trkpt>
      <trkpt lat="45.88815450668335" lon="8.485651016235352">
        <ele>878.3017578125</ele>
        <time>2007-12-02T09:44:49Z</time>
      </trkpt>
      <trkpt lat="45.888090133666992" lon="8.485565185546875">
        <ele>879.74365234375</ele>
        <time>2007-12-02T09:44:59Z</time>
      </trkpt>
      <trkpt lat="45.888090133666992" lon="8.485414981842041">
        <ele>882.627685546875</ele>
        <time>2007-12-02T09:45:11Z</time>
      </trkpt>
      <trkpt lat="45.888090133666992" lon="8.485350608825684">
        <ele>884.069580078125</ele>
        <time>2007-12-02T09:45:15Z</time>
      </trkpt>
      <trkpt lat="45.888090133666992" lon="8.485157489776611">
        <ele>883.5888671875</ele>
        <time>2007-12-02T09:45:25Z</time>
      </trkpt>
      <trkpt lat="45.888111591339111" lon="8.484749794006348">
        <ele>882.14697265625</ele>
        <time>2007-12-02T09:45:34Z</time>
      </trkpt>
      <trkpt lat="45.888111591339111" lon="8.484706878662109">
        <ele>881.666259765625</ele>
        <time>2007-12-02T09:45:38Z</time>
      </trkpt>
      <trkpt lat="45.88813304901123" lon="8.484363555908203">
        <ele>885.511474609375</ele>
        <time>2007-12-02T09:50:32Z</time>
      </trkpt>
      <trkpt lat="45.888047218322754" lon="8.484299182891846">
        <ele>885.031005859375</ele>
        <time>2007-12-02T09:50:37Z</time>
      </trkpt>
      <trkpt lat="45.887854099273682" lon="8.48419189453125">
        <ele>883.108154296875</ele>
        <time>2007-12-02T09:50:48Z</time>
      </trkpt>
      <trkpt lat="45.887575149536133" lon="8.484084606170654">
        <ele>883.108154296875</ele>
        <time>2007-12-02T09:51:00Z</time>
      </trkpt>
      <trkpt lat="45.887317657470703" lon="8.483977317810059">
        <ele>884.069580078125</ele>
        <time>2007-12-02T09:51:08Z</time>
      </trkpt>
      <trkpt lat="45.886974334716797" lon="8.483891487121582">
        <ele>884.069580078125</ele>
        <time>2007-12-02T09:51:18Z</time>
      </trkpt>
      <trkpt lat="45.886545181274414" lon="8.483762741088867">
        <ele>881.185791015625</ele>
        <time>2007-12-02T09:51:27Z</time>
      </trkpt>
      <trkpt lat="45.886008739471436" lon="8.483655452728272">
        <ele>878.3017578125</ele>
        <time>2007-12-02T09:51:38Z</time>
      </trkpt>
      <trkpt lat="45.885579586029053" lon="8.483483791351318">
        <ele>876.379150390625</ele>
        <time>2007-12-02T09:51:48Z</time>
      </trkpt>
      <trkpt lat="45.885128974914551" lon="8.483333587646484">
        <ele>874.93701171875</ele>
        <time>2007-12-02T09:52:00Z</time>
      </trkpt>
      <trkpt lat="45.884850025177002" lon="8.483054637908936">
        <ele>875.41748046875</ele>
        <time>2007-12-02T09:52:10Z</time>
      </trkpt>
      <trkpt lat="45.884635448455811" lon="8.482861518859863">
        <ele>876.85986328125</ele>
        <time>2007-12-02T09:52:18Z</time>
      </trkpt>
      <trkpt lat="45.884356498718262" lon="8.482711315155029">
        <ele>876.379150390625</ele>
        <time>2007-12-02T09:52:27Z</time>
      </trkpt>
      <trkpt lat="45.884013175964355" lon="8.482711315155029">
        <ele>876.379150390625</ele>
        <time>2007-12-02T09:52:37Z</time>
      </trkpt>
      <trkpt lat="45.883862972259521" lon="8.482775688171387">
        <ele>876.379150390625</ele>
        <time>2007-12-02T09:52:44Z</time>
      </trkpt>
      <trkpt lat="45.883777141571045" lon="8.482797145843506">
        <ele>875.898193359375</ele>
        <time>2007-12-02T09:52:53Z</time>
      </trkpt>
      <trkpt lat="45.883669853210449" lon="8.482861518859863">
        <ele>875.41748046875</ele>
        <time>2007-12-02T09:53:02Z</time>
      </trkpt>
      <trkpt lat="45.883498191833496" lon="8.482925891876221">
        <ele>875.41748046875</ele>
        <time>2007-12-02T09:53:12Z</time>
      </trkpt>
      <trkpt lat="45.883240699768066" lon="8.483076095581055">
        <ele>874.93701171875</ele>
        <time>2007-12-02T09:53:24Z</time>
      </trkpt>
      <trkpt lat="45.883090496063232" lon="8.483247756958008">
        <ele>875.41748046875</ele>
        <time>2007-12-02T09:53:33Z</time>
      </trkpt>
      <trkpt lat="45.883069038391113" lon="8.483376502990723">
        <ele>877.340576171875</ele>
        <time>2007-12-02T09:53:40Z</time>
      </trkpt>
      <trkpt lat="45.883026123046875" lon="8.483526706695557">
        <ele>879.262939453125</ele>
        <time>2007-12-02T09:53:48Z</time>
      </trkpt>
      <trkpt lat="45.882983207702637" lon="8.48369836807251">
        <ele>880.224365234375</ele>
        <time>2007-12-02T09:53:57Z</time>
      </trkpt>
      <trkpt lat="45.882983207702637" lon="8.483912944793701">
        <ele>882.627685546875</ele>
        <time>2007-12-02T09:54:08Z</time>
      </trkpt>
      <trkpt lat="45.882983207702637" lon="8.484106063842773">
        <ele>885.511474609375</ele>
        <time>2007-12-02T09:54:17Z</time>
      </trkpt>
      <trkpt lat="45.882983207702637" lon="8.484234809875488">
        <ele>886.472900390625</ele>
        <time>2007-12-02T09:54:24Z</time>
      </trkpt>
      <trkpt lat="45.883004665374756" lon="8.484342098236084">
        <ele>887.914794921875</ele>
        <time>2007-12-02T09:54:31Z</time>
      </trkpt>
      <trkpt lat="45.883069038391113" lon="8.484513759613037">
        <ele>888.876220703125</ele>
        <time>2007-12-02T09:54:40Z</time>
      </trkpt>
      <trkpt lat="45.883026123046875" lon="8.484706878662109">
        <ele>891.279296875</ele>
        <time>2007-12-02T09:54:53Z</time>
      </trkpt>
      <trkpt lat="45.883026123046875" lon="8.484771251678467">
        <ele>892.7216796875</ele>
        <time>2007-12-02T09:54:58Z</time>
      </trkpt>
      <trkpt lat="45.882875919342041" lon="8.484899997711182">
        <ele>896.086181640625</ele>
        <time>2007-12-02T09:55:08Z</time>
      </trkpt>
      <trkpt lat="45.88266134262085" lon="8.484985828399658">
        <ele>895.60546875</ele>
        <time>2007-12-02T09:55:19Z</time>
      </trkpt>
      <trkpt lat="45.882468223571777" lon="8.485071659088135">
        <ele>895.60546875</ele>
        <time>2007-12-02T09:55:28Z</time>
      </trkpt>
      <trkpt lat="45.882232189178467" lon="8.485178947448731">
        <ele>893.682861328125</ele>
        <time>2007-12-02T09:55:37Z</time>
      </trkpt>
      <trkpt lat="45.882167816162109" lon="8.485221862792969">
        <ele>892.7216796875</ele>
        <time>2007-12-02T09:55:39Z</time>
      </trkpt>
      <trkpt lat="45.881845951080322" lon="8.485651016235352">
        <ele>891.279296875</ele>
        <time>2007-12-02T09:55:47Z</time>
      </trkpt>
      <trkpt lat="45.881803035736084" lon="8.485715389251709">
        <ele>891.760009765625</ele>
        <time>2007-12-02T09:55:48Z</time>
      </trkpt>
      <trkpt lat="45.881481170654297" lon="8.486294746398926">
        <ele>891.760009765625</ele>
        <time>2007-12-02T09:55:58Z</time>
      </trkpt>
      <trkpt lat="45.881502628326416" lon="8.486423492431641">
        <ele>892.240966796875</ele>
        <time>2007-12-02T09:56:03Z</time>
      </trkpt>
      <trkpt lat="45.881567001342773" lon="8.486380577087402">
        <ele>893.2021484375</ele>
        <time>2007-12-02T09:56:05Z</time>
      </trkpt>
      <trkpt lat="45.881760120391846" lon="8.486166000366211">
        <ele>895.124755859375</ele>
        <time>2007-12-02T09:56:18Z</time>
      </trkpt>
      <trkpt lat="45.881845951080322" lon="8.486037254333496">
        <ele>894.64404296875</ele>
        <time>2007-12-02T09:56:27Z</time>
      </trkpt>
      <trkpt lat="45.881996154785156" lon="8.485887050628662">
        <ele>896.086181640625</ele>
        <time>2007-12-02T09:56:38Z</time>
      </trkpt>
      <trkpt lat="45.882167816162109" lon="8.485758304595947">
        <ele>899.931396484375</ele>
        <time>2007-12-02T09:56:51Z</time>
      </trkpt>
      <trkpt lat="45.882339477539063" lon="8.485736846923828">
        <ele>901.373291015625</ele>
        <time>2007-12-02T09:57:01Z</time>
      </trkpt>
      <trkpt lat="45.882489681243896" lon="8.485758304595947">
        <ele>901.85400390625</ele>
        <time>2007-12-02T09:57:13Z</time>
      </trkpt>
      <trkpt lat="45.882596969604492" lon="8.48569393157959">
        <ele>902.33447265625</ele>
        <time>2007-12-02T09:57:21Z</time>
      </trkpt>
      <trkpt lat="45.88263988494873" lon="8.485672473907471">
        <ele>902.815185546875</ele>
        <time>2007-12-02T09:57:25Z</time>
      </trkpt>
      <trkpt lat="45.882833003997803" lon="8.485608100891113">
        <ele>906.1796875</ele>
        <time>2007-12-02T09:57:38Z</time>
      </trkpt>
      <trkpt lat="45.882940292358398" lon="8.485565185546875">
        <ele>906.660400390625</ele>
        <time>2007-12-02T09:57:49Z</time>
      </trkpt>
      <trkpt lat="45.883047580718994" lon="8.485543727874756">
        <ele>909.06396484375</ele>
        <time>2007-12-02T09:57:58Z</time>
      </trkpt>
      <trkpt lat="45.88315486907959" lon="8.485543727874756">
        <ele>909.544677734375</ele>
        <time>2007-12-02T09:58:07Z</time>
      </trkpt>
      <trkpt lat="45.883283615112305" lon="8.485522270202637">
        <ele>909.544677734375</ele>
        <time>2007-12-02T09:58:17Z</time>
      </trkpt>
      <trkpt lat="45.883476734161377" lon="8.485522270202637">
        <ele>911.947998046875</ele>
        <time>2007-12-02T09:58:30Z</time>
      </trkpt>
      <trkpt lat="45.883669853210449" lon="8.485479354858398">
        <ele>914.35107421875</ele>
        <time>2007-12-02T09:58:47Z</time>
      </trkpt>
      <trkpt lat="45.883777141571045" lon="8.485414981842041">
        <ele>915.793212890625</ele>
        <time>2007-12-02T09:58:58Z</time>
      </trkpt>
      <trkpt lat="45.883841514587402" lon="8.485393524169922">
        <ele>915.793212890625</ele>
        <time>2007-12-02T09:59:06Z</time>
      </trkpt>
      <trkpt lat="45.883927345275879" lon="8.485307693481445">
        <ele>918.1962890625</ele>
        <time>2007-12-02T09:59:17Z</time>
      </trkpt>
      <trkpt lat="45.883991718292236" lon="8.485178947448731">
        <ele>921.080322265625</ele>
        <time>2007-12-02T09:59:28Z</time>
      </trkpt>
      <trkpt lat="45.884056091308594" lon="8.485114574432373">
        <ele>923.0029296875</ele>
        <time>2007-12-02T09:59:38Z</time>
      </trkpt>
      <trkpt lat="45.884227752685547" lon="8.485157489776611">
        <ele>925.886962890625</ele>
        <time>2007-12-02T09:59:52Z</time>
      </trkpt>
      <trkpt lat="45.884270668029785" lon="8.485178947448731">
        <ele>925.40625</ele>
        <time>2007-12-02T09:59:57Z</time>
      </trkpt>
      <trkpt lat="45.884377956390381" lon="8.48520040512085">
        <ele>924.92578125</ele>
        <time>2007-12-02T10:00:05Z</time>
      </trkpt>
      <trkpt lat="45.884549617767334" lon="8.485286235809326">
        <ele>924.445068359375</ele>
        <time>2007-12-02T10:00:14Z</time>
      </trkpt>
      <trkpt lat="45.884850025177002" lon="8.485457897186279">
        <ele>922.522216796875</ele>
        <time>2007-12-02T10:00:25Z</time>
      </trkpt>
      <trkpt lat="45.884957313537598" lon="8.485522270202637">
        <ele>922.04150390625</ele>
        <time>2007-12-02T10:00:28Z</time>
      </trkpt>
      <trkpt lat="45.885171890258789" lon="8.485651016235352">
        <ele>921.560791015625</ele>
        <time>2007-12-02T10:00:31Z</time>
      </trkpt>
      <trkpt lat="45.885515213012695" lon="8.485715389251709">
        <ele>922.04150390625</ele>
        <time>2007-12-02T10:00:36Z</time>
      </trkpt>
      <trkpt lat="45.885879993438721" lon="8.485758304595947">
        <ele>922.522216796875</ele>
        <time>2007-12-02T10:00:43Z</time>
      </trkpt>
      <trkpt lat="45.886266231536865" lon="8.485844135284424">
        <ele>921.560791015625</ele>
        <time>2007-12-02T10:00:53Z</time>
      </trkpt>
      <trkpt lat="45.886459350585938" lon="8.485865592956543">
        <ele>920.599609375</ele>
        <time>2007-12-02T10:01:02Z</time>
      </trkpt>
      <trkpt lat="45.886523723602295" lon="8.485822677612305">
        <ele>919.15771484375</ele>
        <time>2007-12-02T10:01:10Z</time>
      </trkpt>
      <trkpt lat="45.88665246963501" lon="8.485758304595947">
        <ele>922.04150390625</ele>
        <time>2007-12-02T10:01:26Z</time>
      </trkpt>
      <trkpt lat="45.886716842651367" lon="8.485736846923828">
        <ele>923.483642578125</ele>
        <time>2007-12-02T10:01:35Z</time>
      </trkpt>
      <trkpt lat="45.886802673339844" lon="8.485779762268066">
        <ele>921.560791015625</ele>
        <time>2007-12-02T10:01:44Z</time>
      </trkpt>
      <trkpt lat="45.886824131011963" lon="8.485801219940186">
        <ele>922.522216796875</ele>
        <time>2007-12-02T10:01:46Z</time>
      </trkpt>
      <trkpt lat="45.886802673339844" lon="8.485844135284424">
        <ele>922.522216796875</ele>
        <time>2007-12-02T10:01:50Z</time>
      </trkpt>
      <trkpt lat="45.88665246963501" lon="8.485908508300781">
        <ele>922.522216796875</ele>
        <time>2007-12-02T10:02:02Z</time>
      </trkpt>
      <trkpt lat="45.886545181274414" lon="8.486015796661377">
        <ele>922.04150390625</ele>
        <time>2007-12-02T10:02:12Z</time>
      </trkpt>
      <trkpt lat="45.886416435241699" lon="8.486166000366211">
        <ele>922.522216796875</ele>
        <time>2007-12-02T10:02:26Z</time>
      </trkpt>
      <trkpt lat="45.886352062225342" lon="8.486273288726807">
        <ele>922.04150390625</ele>
        <time>2007-12-02T10:02:35Z</time>
      </trkpt>
      <trkpt lat="45.886266231536865" lon="8.486380577087402">
        <ele>922.04150390625</ele>
        <time>2007-12-02T10:02:44Z</time>
      </trkpt>
      <trkpt lat="45.886223316192627" lon="8.48644495010376">
        <ele>922.522216796875</ele>
        <time>2007-12-02T10:02:54Z</time>
      </trkpt>
      <trkpt lat="45.88615894317627" lon="8.486487865447998">
        <ele>923.483642578125</ele>
        <time>2007-12-02T10:03:05Z</time>
      </trkpt>
      <trkpt lat="45.886073112487793" lon="8.486573696136475">
        <ele>925.886962890625</ele>
        <time>2007-12-02T10:03:17Z</time>
      </trkpt>
      <trkpt lat="45.886008739471436" lon="8.486659526824951">
        <ele>930.212890625</ele>
        <time>2007-12-02T10:03:29Z</time>
      </trkpt>
      <trkpt lat="45.885944366455078" lon="8.486745357513428">
        <ele>932.135498046875</ele>
        <time>2007-12-02T10:03:41Z</time>
      </trkpt>
      <trkpt lat="45.885879993438721" lon="8.486831188201904">
        <ele>935.5</ele>
        <time>2007-12-02T10:03:53Z</time>
      </trkpt>
      <trkpt lat="45.885794162750244" lon="8.486917018890381">
        <ele>936.46142578125</ele>
        <time>2007-12-02T10:04:07Z</time>
      </trkpt>
      <trkpt lat="45.885729789733887" lon="8.487002849578857">
        <ele>937.9033203125</ele>
        <time>2007-12-02T10:04:18Z</time>
      </trkpt>
      <trkpt lat="45.885665416717529" lon="8.487131595611572">
        <ele>939.34521484375</ele>
        <time>2007-12-02T10:04:32Z</time>
      </trkpt>
      <trkpt lat="45.885622501373291" lon="8.487238883972168">
        <ele>939.34521484375</ele>
        <time>2007-12-02T10:04:39Z</time>
      </trkpt>
      <trkpt lat="45.885579586029053" lon="8.487389087677002">
        <ele>940.306884765625</ele>
        <time>2007-12-02T10:04:50Z</time>
      </trkpt>
      <trkpt lat="45.885558128356934" lon="8.487517833709717">
        <ele>941.26806640625</ele>
        <time>2007-12-02T10:05:02Z</time>
      </trkpt>
      <trkpt lat="45.885515213012695" lon="8.487582206726074">
        <ele>944.152099609375</ele>
        <time>2007-12-02T10:05:29Z</time>
      </trkpt>
      <trkpt lat="45.885515213012695" lon="8.487582206726074">
        <ele>944.152099609375</ele>
        <time>2007-12-02T10:05:37Z</time>
      </trkpt>
      <trkpt lat="45.885493755340576" lon="8.487625122070313">
        <ele>945.11328125</ele>
        <time>2007-12-02T10:05:46Z</time>
      </trkpt>
      <trkpt lat="45.8854079246521" lon="8.487732410430908">
        <ele>947.5166015625</ele>
        <time>2007-12-02T10:05:58Z</time>
      </trkpt>
      <trkpt lat="45.885343551635742" lon="8.487839698791504">
        <ele>946.555419921875</ele>
        <time>2007-12-02T10:06:10Z</time>
      </trkpt>
      <trkpt lat="45.885279178619385" lon="8.487925529479981">
        <ele>950.400634765625</ele>
        <time>2007-12-02T10:06:19Z</time>
      </trkpt>
      <trkpt lat="45.885214805603027" lon="8.488032817840576">
        <ele>951.842529296875</ele>
        <time>2007-12-02T10:06:32Z</time>
      </trkpt>
      <trkpt lat="45.885128974914551" lon="8.488140106201172">
        <ele>953.76513671875</ele>
        <time>2007-12-02T10:06:45Z</time>
      </trkpt>
      <trkpt lat="45.885043144226074" lon="8.488225936889648">
        <ele>955.20703125</ele>
        <time>2007-12-02T10:06:57Z</time>
      </trkpt>
      <trkpt lat="45.884935855865479" lon="8.488311767578125">
        <ele>956.649169921875</ele>
        <time>2007-12-02T10:07:09Z</time>
      </trkpt>
      <trkpt lat="45.884850025177002" lon="8.488354682922363">
        <ele>957.610595703125</ele>
        <time>2007-12-02T10:07:20Z</time>
      </trkpt>
      <trkpt lat="45.884764194488525" lon="8.488397598266602">
        <ele>958.09130859375</ele>
        <time>2007-12-02T10:07:39Z</time>
      </trkpt>
      <trkpt lat="45.884678363800049" lon="8.488461971282959">
        <ele>960.494384765625</ele>
        <time>2007-12-02T10:07:48Z</time>
      </trkpt>
      <trkpt lat="45.884592533111572" lon="8.488569259643555">
        <ele>961.9365234375</ele>
        <time>2007-12-02T10:07:58Z</time>
      </trkpt>
      <trkpt lat="45.884528160095215" lon="8.488740921020508">
        <ele>960.97509765625</ele>
        <time>2007-12-02T10:08:07Z</time>
      </trkpt>
      <trkpt lat="45.884549617767334" lon="8.488912582397461">
        <ele>960.97509765625</ele>
        <time>2007-12-02T10:08:11Z</time>
      </trkpt>
      <trkpt lat="45.884485244750977" lon="8.489105701446533">
        <ele>962.897705078125</ele>
        <time>2007-12-02T10:08:20Z</time>
      </trkpt>
      <trkpt lat="45.884420871734619" lon="8.489320278167725">
        <ele>964.339599609375</ele>
        <time>2007-12-02T10:08:31Z</time>
      </trkpt>
      <trkpt lat="45.884335041046143" lon="8.48944902420044">
        <ele>967.2236328125</ele>
        <time>2007-12-02T10:08:40Z</time>
      </trkpt>
      <trkpt lat="45.884120464324951" lon="8.489663600921631">
        <ele>968.66552734375</ele>
        <time>2007-12-02T10:08:49Z</time>
      </trkpt>
      <trkpt lat="45.883970260620117" lon="8.489792346954346">
        <ele>967.2236328125</ele>
        <time>2007-12-02T10:08:56Z</time>
      </trkpt>
      <trkpt lat="45.883777141571045" lon="8.48994255065918">
        <ele>967.7041015625</ele>
        <time>2007-12-02T10:09:09Z</time>
      </trkpt>
      <trkpt lat="45.88364839553833" lon="8.490049839019775">
        <ele>969.146240234375</ele>
        <time>2007-12-02T10:09:19Z</time>
      </trkpt>
      <trkpt lat="45.883498191833496" lon="8.490200042724609">
        <ele>968.66552734375</ele>
        <time>2007-12-02T10:09:29Z</time>
      </trkpt>
      <trkpt lat="45.883433818817139" lon="8.490307331085205">
        <ele>969.146240234375</ele>
        <time>2007-12-02T10:09:34Z</time>
      </trkpt>
      <trkpt lat="45.883369445800781" lon="8.490478992462158">
        <ele>972.0302734375</ele>
        <time>2007-12-02T10:09:47Z</time>
      </trkpt>
      <trkpt lat="45.883326530456543" lon="8.490586280822754">
        <ele>974.914306640625</ele>
        <time>2007-12-02T10:09:57Z</time>
      </trkpt>
      <trkpt lat="45.883197784423828" lon="8.490672111511231">
        <ele>973.472412109375</ele>
        <time>2007-12-02T10:10:09Z</time>
      </trkpt>
      <trkpt lat="45.883133411407471" lon="8.49069356918335">
        <ele>974.43359375</ele>
        <time>2007-12-02T10:10:16Z</time>
      </trkpt>
      <trkpt lat="45.883111953735352" lon="8.49069356918335">
        <ele>974.43359375</ele>
        <time>2007-12-02T10:10:23Z</time>
      </trkpt>
      <trkpt lat="45.883004665374756" lon="8.490736484527588">
        <ele>972.510986328125</ele>
        <time>2007-12-02T10:10:29Z</time>
      </trkpt>
      <trkpt lat="45.882768630981445" lon="8.490800857543945">
        <ele>971.54931640625</ele>
        <time>2007-12-02T10:10:35Z</time>
      </trkpt>
      <trkpt lat="45.882596969604492" lon="8.490908145904541">
        <ele>973.472412109375</ele>
        <time>2007-12-02T10:10:41Z</time>
      </trkpt>
      <trkpt lat="45.882511138916016" lon="8.490951061248779">
        <ele>974.43359375</ele>
        <time>2007-12-02T10:10:50Z</time>
      </trkpt>
      <trkpt lat="45.882425308227539" lon="8.490993976593018">
        <ele>975.394775390625</ele>
        <time>2007-12-02T10:11:00Z</time>
      </trkpt>
      <trkpt lat="45.882339477539063" lon="8.491036891937256">
        <ele>977.317626953125</ele>
        <time>2007-12-02T10:11:10Z</time>
      </trkpt>
      <trkpt lat="45.882253646850586" lon="8.491058349609375">
        <ele>979.720703125</ele>
        <time>2007-12-02T10:11:22Z</time>
      </trkpt>
      <trkpt lat="45.882232189178467" lon="8.491058349609375">
        <ele>977.317626953125</ele>
        <time>2007-12-02T10:12:55Z</time>
      </trkpt>
      <trkpt lat="45.88214635848999" lon="8.491058349609375">
        <ele>980.68212890625</ele>
        <time>2007-12-02T10:16:35Z</time>
      </trkpt>
      <trkpt lat="45.882039070129395" lon="8.491058349609375">
        <ele>979.239990234375</ele>
        <time>2007-12-02T10:16:38Z</time>
      </trkpt>
      <trkpt lat="45.881803035736084" lon="8.491122722625732">
        <ele>975.87548828125</ele>
        <time>2007-12-02T10:16:45Z</time>
      </trkpt>
      <trkpt lat="45.881416797637939" lon="8.491272926330566">
        <ele>973.952880859375</ele>
        <time>2007-12-02T10:16:57Z</time>
      </trkpt>
      <trkpt lat="45.881030559539795" lon="8.491551876068115">
        <ele>972.0302734375</ele>
        <time>2007-12-02T10:17:07Z</time>
      </trkpt>
      <trkpt lat="45.880687236785889" lon="8.491809368133545">
        <ele>968.184814453125</ele>
        <time>2007-12-02T10:17:17Z</time>
      </trkpt>
      <trkpt lat="45.880429744720459" lon="8.491916656494141">
        <ele>968.66552734375</ele>
        <time>2007-12-02T10:17:26Z</time>
      </trkpt>
      <trkpt lat="45.880236625671387" lon="8.491959571838379">
        <ele>965.78173828125</ele>
        <time>2007-12-02T10:17:31Z</time>
      </trkpt>
      <trkpt lat="45.880129337310791" lon="8.492109775543213">
        <ele>966.26220703125</ele>
        <time>2007-12-02T10:17:35Z</time>
      </trkpt>
      <trkpt lat="45.879936218261719" lon="8.492302894592285">
        <ele>945.593994140625</ele>
        <time>2007-12-02T10:17:45Z</time>
      </trkpt>
      <trkpt lat="45.87989330291748" lon="8.492517471313477">
        <ele>942.2294921875</ele>
        <time>2007-12-02T10:17:53Z</time>
      </trkpt>
      <trkpt lat="45.879957675933838" lon="8.492774963378906">
        <ele>947.035888671875</ele>
        <time>2007-12-02T10:18:05Z</time>
      </trkpt>
      <trkpt lat="45.880107879638672" lon="8.493010997772217">
        <ele>947.997314453125</ele>
        <time>2007-12-02T10:18:17Z</time>
      </trkpt>
      <trkpt lat="45.880172252655029" lon="8.493225574493408">
        <ele>948.477783203125</ele>
        <time>2007-12-02T10:18:25Z</time>
      </trkpt>
      <trkpt lat="45.880236625671387" lon="8.493547439575195">
        <ele>947.5166015625</ele>
        <time>2007-12-02T10:18:36Z</time>
      </trkpt>
      <trkpt lat="45.880193710327148" lon="8.493590354919434">
        <ele>946.555419921875</ele>
        <time>2007-12-02T10:18:42Z</time>
      </trkpt>
      <trkpt lat="45.880129337310791" lon="8.493697643280029">
        <ele>950.881103515625</ele>
        <time>2007-12-02T10:18:52Z</time>
      </trkpt>
      <trkpt lat="45.880107879638672" lon="8.493740558624268">
        <ele>950.881103515625</ele>
        <time>2007-12-02T10:19:03Z</time>
      </trkpt>
      <trkpt lat="45.880107879638672" lon="8.493740558624268">
        <ele>953.284423828125</ele>
        <time>2007-12-02T10:19:34Z</time>
      </trkpt>
      <trkpt lat="45.880086421966553" lon="8.493783473968506">
        <ele>951.842529296875</ele>
        <time>2007-12-02T10:20:36Z</time>
      </trkpt>
      <trkpt lat="45.8799147605896" lon="8.494062423706055">
        <ele>950.400634765625</ele>
        <time>2007-12-02T10:20:45Z</time>
      </trkpt>
      <trkpt lat="45.879786014556885" lon="8.494255542755127">
        <ele>949.439208984375</ele>
        <time>2007-12-02T10:20:52Z</time>
      </trkpt>
      <trkpt lat="45.879678726196289" lon="8.494598865509033">
        <ele>947.035888671875</ele>
        <time>2007-12-02T10:21:02Z</time>
      </trkpt>
      <trkpt lat="45.879549980163574" lon="8.49494218826294">
        <ele>945.11328125</ele>
        <time>2007-12-02T10:21:11Z</time>
      </trkpt>
      <trkpt lat="45.879442691802979" lon="8.495328426361084">
        <ele>943.190673828125</ele>
        <time>2007-12-02T10:21:18Z</time>
      </trkpt>
      <trkpt lat="45.879378318786621" lon="8.495564460754395">
        <ele>940.787353515625</ele>
        <time>2007-12-02T10:21:24Z</time>
      </trkpt>
      <trkpt lat="45.879378318786621" lon="8.495779037475586">
        <ele>940.787353515625</ele>
        <time>2007-12-02T10:21:28Z</time>
      </trkpt>
      <trkpt lat="45.879313945770264" lon="8.495779037475586">
        <ele>938.384033203125</ele>
        <time>2007-12-02T10:21:33Z</time>
      </trkpt>
      <trkpt lat="45.879142284393311" lon="8.495328426361084">
        <ele>936.94189453125</ele>
        <time>2007-12-02T10:21:46Z</time>
      </trkpt>
      <trkpt lat="45.879034996032715" lon="8.495113849639893">
        <ele>937.422607421875</ele>
        <time>2007-12-02T10:21:53Z</time>
      </trkpt>
      <trkpt lat="45.878820419311523" lon="8.494641780853272">
        <ele>937.422607421875</ele>
        <time>2007-12-02T10:22:04Z</time>
      </trkpt>
      <trkpt lat="45.878541469573975" lon="8.494040966033936">
        <ele>935.980712890625</ele>
        <time>2007-12-02T10:22:15Z</time>
      </trkpt>
      <trkpt lat="45.878520011901855" lon="8.493976593017578">
        <ele>935.980712890625</ele>
        <time>2007-12-02T10:22:16Z</time>
      </trkpt>
      <trkpt lat="45.878498554229736" lon="8.493869304656982">
        <ele>934.538818359375</ele>
        <time>2007-12-02T10:22:20Z</time>
      </trkpt>
      <trkpt lat="45.878477096557617" lon="8.493826389312744">
        <ele>933.577392578125</ele>
        <time>2007-12-02T10:22:22Z</time>
      </trkpt>
      <trkpt lat="45.87841272354126" lon="8.493654727935791">
        <ele>933.577392578125</ele>
        <time>2007-12-02T10:22:29Z</time>
      </trkpt>
      <trkpt lat="45.878283977508545" lon="8.493590354919434">
        <ele>933.0966796875</ele>
        <time>2007-12-02T10:22:37Z</time>
      </trkpt>
      <trkpt lat="45.878198146820068" lon="8.493525981903076">
        <ele>933.577392578125</ele>
        <time>2007-12-02T10:22:47Z</time>
      </trkpt>
      <trkpt lat="45.878219604492188" lon="8.493525981903076">
        <ele>927.8095703125</ele>
        <time>2007-12-02T10:23:25Z</time>
      </trkpt>
      <trkpt lat="45.878198146820068" lon="8.493525981903076">
        <ele>923.964111328125</ele>
        <time>2007-12-02T10:23:42Z</time>
      </trkpt>
      <trkpt lat="45.878026485443115" lon="8.493483066558838">
        <ele>922.522216796875</ele>
        <time>2007-12-02T10:23:49Z</time>
      </trkpt>
      <trkpt lat="45.877704620361328" lon="8.493354320526123">
        <ele>918.677001953125</ele>
        <time>2007-12-02T10:23:57Z</time>
      </trkpt>
      <trkpt lat="45.877189636230469" lon="8.493139743804932">
        <ele>916.75439453125</ele>
        <time>2007-12-02T10:24:07Z</time>
      </trkpt>
      <trkpt lat="45.876567363739014" lon="8.492903709411621">
        <ele>913.389892578125</ele>
        <time>2007-12-02T10:24:19Z</time>
      </trkpt>
      <trkpt lat="45.876331329345703" lon="8.49292516708374">
        <ele>912.428466796875</ele>
        <time>2007-12-02T10:24:23Z</time>
      </trkpt>
      <trkpt lat="45.875966548919678" lon="8.493053913116455">
        <ele>910.505859375</ele>
        <time>2007-12-02T10:24:29Z</time>
      </trkpt>
      <trkpt lat="45.875859260559082" lon="8.493096828460693">
        <ele>910.025146484375</ele>
        <time>2007-12-02T10:24:31Z</time>
      </trkpt>
      <trkpt lat="45.875773429870605" lon="8.493053913116455">
        <ele>909.06396484375</ele>
        <time>2007-12-02T10:24:36Z</time>
      </trkpt>
      <trkpt lat="45.875601768493652" lon="8.493010997772217">
        <ele>906.1796875</ele>
        <time>2007-12-02T10:25:30Z</time>
      </trkpt>
      <trkpt lat="45.87566614151001" lon="8.493053913116455">
        <ele>884.55029296875</ele>
        <time>2007-12-02T10:34:39Z</time>
      </trkpt>
      <trkpt lat="45.875601768493652" lon="8.493032455444336">
        <ele>897.04736328125</ele>
        <time>2007-12-02T10:35:24Z</time>
      </trkpt>
      <trkpt lat="45.875430107116699" lon="8.493032455444336">
        <ele>898.4892578125</ele>
        <time>2007-12-02T10:35:32Z</time>
      </trkpt>
      <trkpt lat="45.87515115737915" lon="8.493118286132813">
        <ele>899.931396484375</ele>
        <time>2007-12-02T10:35:41Z</time>
      </trkpt>
      <trkpt lat="45.874764919281006" lon="8.493204116821289">
        <ele>900.412109375</ele>
        <time>2007-12-02T10:35:50Z</time>
      </trkpt>
      <trkpt lat="45.874464511871338" lon="8.493225574493408">
        <ele>898.969970703125</ele>
        <time>2007-12-02T10:35:56Z</time>
      </trkpt>
      <trkpt lat="45.8744215965271" lon="8.493118286132813">
        <ele>897.528076171875</ele>
        <time>2007-12-02T10:36:00Z</time>
      </trkpt>
      <trkpt lat="45.874507427215576" lon="8.492860794067383">
        <ele>895.60546875</ele>
        <time>2007-12-02T10:36:07Z</time>
      </trkpt>
      <trkpt lat="45.874593257904053" lon="8.492431640625">
        <ele>889.83740234375</ele>
        <time>2007-12-02T10:36:18Z</time>
      </trkpt>
      <trkpt lat="45.874679088592529" lon="8.492109775543213">
        <ele>884.55029296875</ele>
        <time>2007-12-02T10:36:26Z</time>
      </trkpt>
      <trkpt lat="45.874679088592529" lon="8.491916656494141">
        <ele>884.069580078125</ele>
        <time>2007-12-02T10:36:32Z</time>
      </trkpt>
      <trkpt lat="45.874700546264648" lon="8.491766452789307">
        <ele>883.108154296875</ele>
        <time>2007-12-02T10:36:37Z</time>
      </trkpt>
      <trkpt lat="45.874722003936768" lon="8.491466045379639">
        <ele>880.705078125</ele>
        <time>2007-12-02T10:36:46Z</time>
      </trkpt>
      <trkpt lat="45.874722003936768" lon="8.491401672363281">
        <ele>877.821044921875</ele>
        <time>2007-12-02T10:36:52Z</time>
      </trkpt>
      <trkpt lat="45.874700546264648" lon="8.491401672363281">
        <ele>874.93701171875</ele>
        <time>2007-12-02T10:36:58Z</time>
      </trkpt>
      <trkpt lat="45.874679088592529" lon="8.491380214691162">
        <ele>872.052978515625</ele>
        <time>2007-12-02T10:37:07Z</time>
      </trkpt>
      <trkpt lat="45.874679088592529" lon="8.491380214691162">
        <ele>870.13037109375</ele>
        <time>2007-12-02T10:37:14Z</time>
      </trkpt>
      <trkpt lat="45.874636173248291" lon="8.491380214691162">
        <ele>871.572265625</ele>
        <time>2007-12-02T10:37:26Z</time>
      </trkpt>
      <trkpt lat="45.874550342559814" lon="8.491380214691162">
        <ele>870.611083984375</ele>
        <time>2007-12-02T10:37:31Z</time>
      </trkpt>
      <trkpt lat="45.874528884887695" lon="8.491401672363281">
        <ele>869.64990234375</ele>
        <time>2007-12-02T10:37:37Z</time>
      </trkpt>
      <trkpt lat="45.874550342559814" lon="8.491401672363281">
        <ele>869.64990234375</ele>
        <time>2007-12-02T10:37:42Z</time>
      </trkpt>
      <trkpt lat="45.874636173248291" lon="8.49144458770752">
        <ele>844.655517578125</ele>
        <time>2007-12-02T10:41:05Z</time>
      </trkpt>
      <trkpt lat="45.874443054199219" lon="8.491573333740234">
        <ele>846.09765625</ele>
        <time>2007-12-02T10:41:13Z</time>
      </trkpt>
      <trkpt lat="45.87416410446167" lon="8.49168062210083">
        <ele>848.9814453125</ele>
        <time>2007-12-02T10:41:22Z</time>
      </trkpt>
      <trkpt lat="45.873949527740479" lon="8.491809368133545">
        <ele>850.423583984375</ele>
        <time>2007-12-02T10:41:30Z</time>
      </trkpt>
      <trkpt lat="45.873842239379883" lon="8.492066860198975">
        <ele>849.462158203125</ele>
        <time>2007-12-02T10:41:36Z</time>
      </trkpt>
      <trkpt lat="45.873734951019287" lon="8.492496013641357">
        <ele>848.020263671875</ele>
        <time>2007-12-02T10:41:46Z</time>
      </trkpt>
      <trkpt lat="45.873541831970215" lon="8.492860794067383">
        <ele>849.462158203125</ele>
        <time>2007-12-02T10:41:56Z</time>
      </trkpt>
      <trkpt lat="45.873305797576904" lon="8.493204116821289">
        <ele>851.865478515625</ele>
        <time>2007-12-02T10:42:07Z</time>
      </trkpt>
      <trkpt lat="45.873091220855713" lon="8.493697643280029">
        <ele>851.384765625</ele>
        <time>2007-12-02T10:42:19Z</time>
      </trkpt>
      <trkpt lat="45.872962474822998" lon="8.494062423706055">
        <ele>852.345947265625</ele>
        <time>2007-12-02T10:42:28Z</time>
      </trkpt>
      <trkpt lat="45.872812271118164" lon="8.494470119476318">
        <ele>851.865478515625</ele>
        <time>2007-12-02T10:42:37Z</time>
      </trkpt>
      <trkpt lat="45.872747898101807" lon="8.494663238525391">
        <ele>854.268798828125</ele>
        <time>2007-12-02T10:42:44Z</time>
      </trkpt>
      <trkpt lat="45.872747898101807" lon="8.49468469619751">
        <ele>854.749267578125</ele>
        <time>2007-12-02T10:42:45Z</time>
      </trkpt>
      <trkpt lat="45.872704982757568" lon="8.494598865509033">
        <ele>855.22998046875</ele>
        <time>2007-12-02T10:42:50Z</time>
      </trkpt>
      <trkpt lat="45.872704982757568" lon="8.494534492492676">
        <ele>855.22998046875</ele>
        <time>2007-12-02T10:42:52Z</time>
      </trkpt>
      <trkpt lat="45.872769355773926" lon="8.494212627410889">
        <ele>855.710693359375</ele>
        <time>2007-12-02T10:43:00Z</time>
      </trkpt>
      <trkpt lat="45.872833728790283" lon="8.493762016296387">
        <ele>854.268798828125</ele>
        <time>2007-12-02T10:43:11Z</time>
      </trkpt>
      <trkpt lat="45.872855186462402" lon="8.49318265914917">
        <ele>853.7880859375</ele>
        <time>2007-12-02T10:43:24Z</time>
      </trkpt>
      <trkpt lat="45.872855186462402" lon="8.492538928985596">
        <ele>854.268798828125</ele>
        <time>2007-12-02T10:43:38Z</time>
      </trkpt>
      <trkpt lat="45.872876644134521" lon="8.492345809936523">
        <ele>853.7880859375</ele>
        <time>2007-12-02T10:43:45Z</time>
      </trkpt>
      <trkpt lat="45.872898101806641" lon="8.49217414855957">
        <ele>853.7880859375</ele>
        <time>2007-12-02T10:43:54Z</time>
      </trkpt>
      <trkpt lat="45.872941017150879" lon="8.491959571838379">
        <ele>850.423583984375</ele>
        <time>2007-12-02T10:44:05Z</time>
      </trkpt>
      <trkpt lat="45.872962474822998" lon="8.491744995117188">
        <ele>856.191162109375</ele>
        <time>2007-12-02T10:44:17Z</time>
      </trkpt>
      <trkpt lat="45.87291955947876" lon="8.491594791412354">
        <ele>858.594482421875</ele>
        <time>2007-12-02T10:44:28Z</time>
      </trkpt>
      <trkpt lat="45.872855186462402" lon="8.491551876068115">
        <ele>859.555908203125</ele>
        <time>2007-12-02T10:44:37Z</time>
      </trkpt>
      <trkpt lat="45.872769355773926" lon="8.491594791412354">
        <ele>861.95947265625</ele>
        <time>2007-12-02T10:44:48Z</time>
      </trkpt>
      <trkpt lat="45.872704982757568" lon="8.491659164428711">
        <ele>864.84326171875</ele>
        <time>2007-12-02T10:45:00Z</time>
      </trkpt>
      <trkpt lat="45.872619152069092" lon="8.491659164428711">
        <ele>867.24658203125</ele>
        <time>2007-12-02T10:45:11Z</time>
      </trkpt>
      <trkpt lat="45.872597694396973" lon="8.491659164428711">
        <ele>865.323974609375</ele>
        <time>2007-12-02T10:45:19Z</time>
      </trkpt>
      <trkpt lat="45.872554779052734" lon="8.491702079772949">
        <ele>867.24658203125</ele>
        <time>2007-12-02T10:45:29Z</time>
      </trkpt>
      <trkpt lat="45.872490406036377" lon="8.491744995117188">
        <ele>865.323974609375</ele>
        <time>2007-12-02T10:45:42Z</time>
      </trkpt>
      <trkpt lat="45.87242603302002" lon="8.491766452789307">
        <ele>866.28515625</ele>
        <time>2007-12-02T10:45:51Z</time>
      </trkpt>
      <trkpt lat="45.872318744659424" lon="8.491787910461426">
        <ele>870.13037109375</ele>
        <time>2007-12-02T10:46:02Z</time>
      </trkpt>
      <trkpt lat="45.872232913970947" lon="8.491809368133545">
        <ele>871.091796875</ele>
        <time>2007-12-02T10:46:13Z</time>
      </trkpt>
      <trkpt lat="45.872125625610352" lon="8.491852283477783">
        <ele>874.456298828125</ele>
        <time>2007-12-02T10:46:23Z</time>
      </trkpt>
      <trkpt lat="45.872125625610352" lon="8.49193811416626">
        <ele>875.41748046875</ele>
        <time>2007-12-02T10:46:36Z</time>
      </trkpt>
      <trkpt lat="45.872082710266113" lon="8.491981029510498">
        <ele>875.41748046875</ele>
        <time>2007-12-02T10:46:42Z</time>
      </trkpt>
      <trkpt lat="45.871953964233398" lon="8.492238521575928">
        <ele>874.93701171875</ele>
        <time>2007-12-02T10:46:54Z</time>
      </trkpt>
      <trkpt lat="45.871760845184326" lon="8.492474555969238">
        <ele>873.9755859375</ele>
        <time>2007-12-02T10:47:08Z</time>
      </trkpt>
      <trkpt lat="45.871610641479492" lon="8.492624759674072">
        <ele>873.4951171875</ele>
        <time>2007-12-02T10:47:19Z</time>
      </trkpt>
      <trkpt lat="45.87141752243042" lon="8.492774963378906">
        <ele>878.3017578125</ele>
        <time>2007-12-02T10:47:31Z</time>
      </trkpt>
      <trkpt lat="45.871288776397705" lon="8.492903709411621">
        <ele>880.705078125</ele>
        <time>2007-12-02T10:47:40Z</time>
      </trkpt>
      <trkpt lat="45.871267318725586" lon="8.492903709411621">
        <ele>884.069580078125</ele>
        <time>2007-12-02T10:47:52Z</time>
      </trkpt>
      <trkpt lat="45.871202945709229" lon="8.492860794067383">
        <ele>885.031005859375</ele>
        <time>2007-12-02T10:48:09Z</time>
      </trkpt>
      <trkpt lat="45.87116003036499" lon="8.492710590362549">
        <ele>884.069580078125</ele>
        <time>2007-12-02T10:48:23Z</time>
      </trkpt>
      <trkpt lat="45.87116003036499" lon="8.49268913269043">
        <ele>884.069580078125</ele>
        <time>2007-12-02T10:48:24Z</time>
      </trkpt>
      <trkpt lat="45.87116003036499" lon="8.492517471313477">
        <ele>884.069580078125</ele>
        <time>2007-12-02T10:48:37Z</time>
      </trkpt>
      <trkpt lat="45.871202945709229" lon="8.492281436920166">
        <ele>884.55029296875</ele>
        <time>2007-12-02T10:48:54Z</time>
      </trkpt>
      <trkpt lat="45.871224403381348" lon="8.49217414855957">
        <ele>886.472900390625</ele>
        <time>2007-12-02T10:49:05Z</time>
      </trkpt>
      <trkpt lat="45.871288776397705" lon="8.491981029510498">
        <ele>886.953369140625</ele>
        <time>2007-12-02T10:49:19Z</time>
      </trkpt>
      <trkpt lat="45.871353149414063" lon="8.491766452789307">
        <ele>885.9921875</ele>
        <time>2007-12-02T10:49:34Z</time>
      </trkpt>
      <trkpt lat="45.871503353118896" lon="8.491551876068115">
        <ele>886.472900390625</ele>
        <time>2007-12-02T10:49:49Z</time>
      </trkpt>
      <trkpt lat="45.87165355682373" lon="8.4914231300354">
        <ele>886.472900390625</ele>
        <time>2007-12-02T10:50:04Z</time>
      </trkpt>
      <trkpt lat="45.871803760528564" lon="8.491272926330566">
        <ele>886.472900390625</ele>
        <time>2007-12-02T10:50:22Z</time>
      </trkpt>
      <trkpt lat="45.871868133544922" lon="8.49118709564209">
        <ele>886.472900390625</ele>
        <time>2007-12-02T10:50:36Z</time>
      </trkpt>
      <trkpt lat="45.871868133544922" lon="8.491036891937256">
        <ele>1014.808837890625</ele>
        <time>2007-12-02T10:50:50Z</time>
      </trkpt>
      <trkpt lat="45.871846675872803" lon="8.49092960357666">
        <ele>933.0966796875</ele>
        <time>2007-12-02T10:50:56Z</time>
      </trkpt>
      <trkpt lat="45.871932506561279" lon="8.490650653839111">
        <ele>915.793212890625</ele>
        <time>2007-12-02T10:51:10Z</time>
      </trkpt>
      <trkpt lat="45.871953964233398" lon="8.490393161773682">
        <ele>915.3125</ele>
        <time>2007-12-02T10:51:21Z</time>
      </trkpt>
      <trkpt lat="45.872018337249756" lon="8.490071296691895">
        <ele>914.35107421875</ele>
        <time>2007-12-02T10:51:36Z</time>
      </trkpt>
      <trkpt lat="45.872039794921875" lon="8.48994255065918">
        <ele>913.870361328125</ele>
        <time>2007-12-02T10:51:43Z</time>
      </trkpt>
      <trkpt lat="45.872082710266113" lon="8.489577770233154">
        <ele>914.35107421875</ele>
        <time>2007-12-02T10:51:58Z</time>
      </trkpt>
      <trkpt lat="45.872082710266113" lon="8.489341735839844">
        <ele>912.9091796875</ele>
        <time>2007-12-02T10:52:07Z</time>
      </trkpt>
      <trkpt lat="45.872147083282471" lon="8.489148616790772">
        <ele>912.428466796875</ele>
        <time>2007-12-02T10:52:17Z</time>
      </trkpt>
      <trkpt lat="45.872232913970947" lon="8.488848209381104">
        <ele>908.583251953125</ele>
        <time>2007-12-02T10:52:28Z</time>
      </trkpt>
      <trkpt lat="45.872340202331543" lon="8.488569259643555">
        <ele>907.14111328125</ele>
        <time>2007-12-02T10:52:39Z</time>
      </trkpt>
      <trkpt lat="45.872468948364258" lon="8.488268852233887">
        <ele>903.776611328125</ele>
        <time>2007-12-02T10:52:52Z</time>
      </trkpt>
      <trkpt lat="45.872533321380615" lon="8.488011360168457">
        <ele>903.2958984375</ele>
        <time>2007-12-02T10:53:04Z</time>
      </trkpt>
      <trkpt lat="45.872619152069092" lon="8.487839698791504">
        <ele>906.660400390625</ele>
        <time>2007-12-02T10:53:14Z</time>
      </trkpt>
      <trkpt lat="45.87266206741333" lon="8.487646579742432">
        <ele>911.947998046875</ele>
        <time>2007-12-02T10:53:27Z</time>
      </trkpt>
      <trkpt lat="45.872683525085449" lon="8.487603664398193">
        <ele>913.389892578125</ele>
        <time>2007-12-02T10:53:30Z</time>
      </trkpt>
      <trkpt lat="45.872704982757568" lon="8.487367630004883">
        <ele>915.3125</ele>
        <time>2007-12-02T10:53:41Z</time>
      </trkpt>
      <trkpt lat="45.872769355773926" lon="8.487131595611572">
        <ele>915.793212890625</ele>
        <time>2007-12-02T10:53:56Z</time>
      </trkpt>
      <trkpt lat="45.872812271118164" lon="8.486959934234619">
        <ele>913.870361328125</ele>
        <time>2007-12-02T10:54:06Z</time>
      </trkpt>
      <trkpt lat="45.872876644134521" lon="8.486766815185547">
        <ele>913.389892578125</ele>
        <time>2007-12-02T10:54:16Z</time>
      </trkpt>
      <trkpt lat="45.872983932495117" lon="8.486573696136475">
        <ele>909.544677734375</ele>
        <time>2007-12-02T10:54:27Z</time>
      </trkpt>
      <trkpt lat="45.873048305511475" lon="8.486316204071045">
        <ele>910.505859375</ele>
        <time>2007-12-02T10:54:40Z</time>
      </trkpt>
      <trkpt lat="45.873134136199951" lon="8.486015796661377">
        <ele>910.505859375</ele>
        <time>2007-12-02T10:54:53Z</time>
      </trkpt>
      <trkpt lat="45.873198509216309" lon="8.485822677612305">
        <ele>911.947998046875</ele>
        <time>2007-12-02T10:55:03Z</time>
      </trkpt>
      <trkpt lat="45.873305797576904" lon="8.485565185546875">
        <ele>912.9091796875</ele>
        <time>2007-12-02T10:55:17Z</time>
      </trkpt>
      <trkpt lat="45.873370170593262" lon="8.485286235809326">
        <ele>912.428466796875</ele>
        <time>2007-12-02T10:55:27Z</time>
      </trkpt>
      <trkpt lat="45.873456001281738" lon="8.484985828399658">
        <ele>913.870361328125</ele>
        <time>2007-12-02T10:55:38Z</time>
      </trkpt>
      <trkpt lat="45.873563289642334" lon="8.484621047973633">
        <ele>918.1962890625</ele>
        <time>2007-12-02T10:55:51Z</time>
      </trkpt>
      <trkpt lat="45.873627662658691" lon="8.484406471252441">
        <ele>916.273681640625</ele>
        <time>2007-12-02T10:55:59Z</time>
      </trkpt>
      <trkpt lat="45.873777866363525" lon="8.484041690826416">
        <ele>918.1962890625</ele>
        <time>2007-12-02T10:56:13Z</time>
      </trkpt>
      <trkpt lat="45.873863697052002" lon="8.483891487121582">
        <ele>921.560791015625</ele>
        <time>2007-12-02T10:56:23Z</time>
      </trkpt>
      <trkpt lat="45.873992443084717" lon="8.48369836807251">
        <ele>921.560791015625</ele>
        <time>2007-12-02T10:56:36Z</time>
      </trkpt>
      <trkpt lat="45.874121189117432" lon="8.483548164367676">
        <ele>923.0029296875</ele>
        <time>2007-12-02T10:56:49Z</time>
      </trkpt>
      <trkpt lat="45.874292850494385" lon="8.483376502990723">
        <ele>927.8095703125</ele>
        <time>2007-12-02T10:57:05Z</time>
      </trkpt>
      <trkpt lat="45.87440013885498" lon="8.483269214630127">
        <ele>930.212890625</ele>
        <time>2007-12-02T10:57:15Z</time>
      </trkpt>
      <trkpt lat="45.874507427215576" lon="8.483097553253174">
        <ele>933.577392578125</ele>
        <time>2007-12-02T10:57:29Z</time>
      </trkpt>
      <trkpt lat="45.874614715576172" lon="8.482904434204102">
        <ele>933.577392578125</ele>
        <time>2007-12-02T10:57:42Z</time>
      </trkpt>
      <trkpt lat="45.874743461608887" lon="8.482711315155029">
        <ele>934.538818359375</ele>
        <time>2007-12-02T10:57:58Z</time>
      </trkpt>
      <trkpt lat="45.874807834625244" lon="8.482561111450195">
        <ele>936.46142578125</ele>
        <time>2007-12-02T10:58:07Z</time>
      </trkpt>
      <trkpt lat="45.874700546264648" lon="8.482646942138672">
        <ele>941.748779296875</ele>
        <time>2007-12-02T10:58:16Z</time>
      </trkpt>
      <trkpt lat="45.874722003936768" lon="8.482625484466553">
        <ele>943.190673828125</ele>
        <time>2007-12-02T10:58:41Z</time>
      </trkpt>
      <trkpt lat="45.874550342559814" lon="8.482775688171387">
        <ele>962.897705078125</ele>
        <time>2007-12-02T11:00:53Z</time>
      </trkpt>
      <trkpt lat="45.874335765838623" lon="8.482840061187744">
        <ele>959.533203125</ele>
        <time>2007-12-02T11:01:01Z</time>
      </trkpt>
      <trkpt lat="45.873928070068359" lon="8.482818603515625">
        <ele>956.649169921875</ele>
        <time>2007-12-02T11:01:13Z</time>
      </trkpt>
      <trkpt lat="45.873649120330811" lon="8.482732772827148">
        <ele>956.16845703125</ele>
        <time>2007-12-02T11:01:22Z</time>
      </trkpt>
      <trkpt lat="45.873520374298096" lon="8.482711315155029">
        <ele>955.20703125</ele>
        <time>2007-12-02T11:01:27Z</time>
      </trkpt>
      <trkpt lat="45.873348712921143" lon="8.482925891876221">
        <ele>954.726318359375</ele>
        <time>2007-12-02T11:01:34Z</time>
      </trkpt>
      <trkpt lat="45.873005390167236" lon="8.48344087600708">
        <ele>951.842529296875</ele>
        <time>2007-12-02T11:01:44Z</time>
      </trkpt>
      <trkpt lat="45.872597694396973" lon="8.484084606170654">
        <ele>949.439208984375</ele>
        <time>2007-12-02T11:01:53Z</time>
      </trkpt>
      <trkpt lat="45.872490406036377" lon="8.484256267547607">
        <ele>948.477783203125</ele>
        <time>2007-12-02T11:01:55Z</time>
      </trkpt>
      <trkpt lat="45.872211456298828" lon="8.484320640563965">
        <ele>947.5166015625</ele>
        <time>2007-12-02T11:01:59Z</time>
      </trkpt>
      <trkpt lat="45.872147083282471" lon="8.484170436859131">
        <ele>947.035888671875</ele>
        <time>2007-12-02T11:02:01Z</time>
      </trkpt>
      <trkpt lat="45.872018337249756" lon="8.483548164367676">
        <ele>945.11328125</ele>
        <time>2007-12-02T11:02:07Z</time>
      </trkpt>
      <trkpt lat="45.872018337249756" lon="8.483054637908936">
        <ele>942.2294921875</ele>
        <time>2007-12-02T11:02:11Z</time>
      </trkpt>
      <trkpt lat="45.871932506561279" lon="8.48219633102417">
        <ele>938.384033203125</ele>
        <time>2007-12-02T11:02:18Z</time>
      </trkpt>
      <trkpt lat="45.871868133544922" lon="8.481810092926025">
        <ele>936.46142578125</ele>
        <time>2007-12-02T11:02:22Z</time>
      </trkpt>
      <trkpt lat="45.871803760528564" lon="8.481338024139404">
        <ele>934.538818359375</ele>
        <time>2007-12-02T11:02:28Z</time>
      </trkpt>
      <trkpt lat="45.87165355682373" lon="8.481123447418213">
        <ele>933.577392578125</ele>
        <time>2007-12-02T11:02:32Z</time>
      </trkpt>
      <trkpt lat="45.871546268463135" lon="8.480908870697022">
        <ele>931.17431640625</ele>
        <time>2007-12-02T11:02:36Z</time>
      </trkpt>
      <trkpt lat="45.871782302856445" lon="8.480372428894043">
        <ele>929.732177734375</ele>
        <time>2007-12-02T11:02:44Z</time>
      </trkpt>
      <trkpt lat="45.871889591217041" lon="8.480136394500732">
        <ele>928.77099609375</ele>
        <time>2007-12-02T11:02:47Z</time>
      </trkpt>
      <trkpt lat="45.871825218200684" lon="8.480050563812256">
        <ele>927.8095703125</ele>
        <time>2007-12-02T11:02:51Z</time>
      </trkpt>
      <trkpt lat="45.871782302856445" lon="8.480072021484375">
        <ele>926.848388671875</ele>
        <time>2007-12-02T11:02:52Z</time>
      </trkpt>
      <trkpt lat="45.871438980102539" lon="8.480393886566162">
        <ele>923.0029296875</ele>
        <time>2007-12-02T11:02:59Z</time>
      </trkpt>
      <trkpt lat="45.871009826660156" lon="8.480973243713379">
        <ele>915.793212890625</ele>
        <time>2007-12-02T11:03:07Z</time>
      </trkpt>
      <trkpt lat="45.870881080627441" lon="8.481016159057617">
        <ele>913.389892578125</ele>
        <time>2007-12-02T11:03:11Z</time>
      </trkpt>
      <trkpt lat="45.870838165283203" lon="8.480973243713379">
        <ele>913.389892578125</ele>
        <time>2007-12-02T11:03:12Z</time>
      </trkpt>
      <trkpt lat="45.870730876922607" lon="8.480629920959473">
        <ele>908.102783203125</ele>
        <time>2007-12-02T11:03:18Z</time>
      </trkpt>
      <trkpt lat="45.870602130889893" lon="8.480737209320068">
        <ele>906.1796875</ele>
        <time>2007-12-02T11:03:21Z</time>
      </trkpt>
      <trkpt lat="45.87040901184082" lon="8.481016159057617">
        <ele>904.25732421875</ele>
        <time>2007-12-02T11:03:26Z</time>
      </trkpt>
      <trkpt lat="45.870323181152344" lon="8.481123447418213">
        <ele>903.2958984375</ele>
        <time>2007-12-02T11:03:28Z</time>
      </trkpt>
      <trkpt lat="45.870151519775391" lon="8.481037616729736">
        <ele>902.815185546875</ele>
        <time>2007-12-02T11:03:32Z</time>
      </trkpt>
      <trkpt lat="45.87017297744751" lon="8.480887413024902">
        <ele>902.33447265625</ele>
        <time>2007-12-02T11:03:34Z</time>
      </trkpt>
      <trkpt lat="45.870301723480225" lon="8.480608463287354">
        <ele>900.892578125</ele>
        <time>2007-12-02T11:03:39Z</time>
      </trkpt>
      <trkpt lat="45.870344638824463" lon="8.480565547943115">
        <ele>900.892578125</ele>
        <time>2007-12-02T11:03:40Z</time>
      </trkpt>
      <trkpt lat="45.870430469512939" lon="8.4804368019104">
        <ele>900.412109375</ele>
        <time>2007-12-02T11:03:42Z</time>
      </trkpt>
      <trkpt lat="45.870838165283203" lon="8.47994327545166">
        <ele>897.528076171875</ele>
        <time>2007-12-02T11:03:51Z</time>
      </trkpt>
      <trkpt lat="45.871009826660156" lon="8.479385375976563">
        <ele>893.682861328125</ele>
        <time>2007-12-02T11:03:58Z</time>
      </trkpt>
      <trkpt lat="45.870966911315918" lon="8.478806018829346">
        <ele>890.798583984375</ele>
        <time>2007-12-02T11:04:05Z</time>
      </trkpt>
      <trkpt lat="45.870902538299561" lon="8.478763103485107">
        <ele>889.356689453125</ele>
        <time>2007-12-02T11:04:08Z</time>
      </trkpt>
      <trkpt lat="45.870881080627441" lon="8.478763103485107">
        <ele>888.3955078125</ele>
        <time>2007-12-02T11:04:12Z</time>
      </trkpt>
      <trkpt lat="45.870838165283203" lon="8.478806018829346">
        <ele>886.472900390625</ele>
        <time>2007-12-02T11:04:21Z</time>
      </trkpt>
      <trkpt lat="45.870773792266846" lon="8.478827476501465">
        <ele>885.511474609375</ele>
        <time>2007-12-02T11:04:27Z</time>
      </trkpt>
      <trkpt lat="45.870773792266846" lon="8.478827476501465">
        <ele>885.031005859375</ele>
        <time>2007-12-02T11:04:34Z</time>
      </trkpt>
      <trkpt lat="45.870773792266846" lon="8.478827476501465">
        <ele>881.666259765625</ele>
        <time>2007-12-02T11:04:59Z</time>
      </trkpt>
      <trkpt lat="45.870752334594727" lon="8.478827476501465">
        <ele>881.185791015625</ele>
        <time>2007-12-02T11:05:33Z</time>
      </trkpt>
      <trkpt lat="45.870752334594727" lon="8.478848934173584">
        <ele>877.340576171875</ele>
        <time>2007-12-02T11:06:55Z</time>
      </trkpt>
      <trkpt lat="45.870730876922607" lon="8.478848934173584">
        <ele>877.340576171875</ele>
        <time>2007-12-02T11:07:19Z</time>
      </trkpt>
      <trkpt lat="45.870709419250488" lon="8.478827476501465">
        <ele>877.340576171875</ele>
        <time>2007-12-02T11:07:43Z</time>
      </trkpt>
      <trkpt lat="45.870645046234131" lon="8.478934764862061">
        <ele>877.340576171875</ele>
        <time>2007-12-02T11:07:53Z</time>
      </trkpt>
      <trkpt lat="45.870559215545654" lon="8.479020595550537">
        <ele>877.821044921875</ele>
        <time>2007-12-02T11:08:02Z</time>
      </trkpt>
      <trkpt lat="45.870516300201416" lon="8.479042053222656">
        <ele>877.821044921875</ele>
        <time>2007-12-02T11:08:05Z</time>
      </trkpt>
      <trkpt lat="45.870366096496582" lon="8.479127883911133">
        <ele>877.821044921875</ele>
        <time>2007-12-02T11:08:18Z</time>
      </trkpt>
      <trkpt lat="45.870215892791748" lon="8.479149341583252">
        <ele>877.821044921875</ele>
        <time>2007-12-02T11:08:30Z</time>
      </trkpt>
      <trkpt lat="45.870087146759033" lon="8.479106426239014">
        <ele>877.821044921875</ele>
        <time>2007-12-02T11:08:41Z</time>
      </trkpt>
      <trkpt lat="45.870022773742676" lon="8.479084968566895">
        <ele>877.821044921875</ele>
        <time>2007-12-02T11:08:49Z</time>
      </trkpt>
      <trkpt lat="45.869936943054199" lon="8.479020595550537">
        <ele>878.3017578125</ele>
        <time>2007-12-02T11:08:57Z</time>
      </trkpt>
      <trkpt lat="45.869851112365723" lon="8.478913307189941">
        <ele>878.3017578125</ele>
        <time>2007-12-02T11:09:09Z</time>
      </trkpt>
      <trkpt lat="45.869786739349365" lon="8.478827476501465">
        <ele>878.3017578125</ele>
        <time>2007-12-02T11:09:18Z</time>
      </trkpt>
      <trkpt lat="45.869700908660889" lon="8.478720188140869">
        <ele>878.3017578125</ele>
        <time>2007-12-02T11:09:29Z</time>
      </trkpt>
      <trkpt lat="45.869636535644531" lon="8.478591442108154">
        <ele>878.782470703125</ele>
        <time>2007-12-02T11:09:40Z</time>
      </trkpt>
      <trkpt lat="45.869636535644531" lon="8.478569984436035">
        <ele>878.782470703125</ele>
        <time>2007-12-02T11:09:41Z</time>
      </trkpt>
      <trkpt lat="45.869615077972412" lon="8.47846269607544">
        <ele>878.782470703125</ele>
        <time>2007-12-02T11:09:50Z</time>
      </trkpt>
      <trkpt lat="45.869593620300293" lon="8.478333950042725">
        <ele>878.782470703125</ele>
        <time>2007-12-02T11:10:01Z</time>
      </trkpt>
      <trkpt lat="45.869572162628174" lon="8.47820520401001">
        <ele>879.262939453125</ele>
        <time>2007-12-02T11:10:12Z</time>
      </trkpt>
      <trkpt lat="45.869550704956055" lon="8.478097915649414">
        <ele>883.108154296875</ele>
        <time>2007-12-02T11:10:22Z</time>
      </trkpt>
      <trkpt lat="45.869529247283936" lon="8.477969169616699">
        <ele>889.356689453125</ele>
        <time>2007-12-02T11:10:33Z</time>
      </trkpt>
      <trkpt lat="45.869529247283936" lon="8.477861881256104">
        <ele>890.798583984375</ele>
        <time>2007-12-02T11:10:42Z</time>
      </trkpt>
      <trkpt lat="45.869507789611816" lon="8.477754592895508">
        <ele>894.16357421875</ele>
        <time>2007-12-02T11:10:54Z</time>
      </trkpt>
      <trkpt lat="45.869507789611816" lon="8.47771167755127">
        <ele>897.528076171875</ele>
        <time>2007-12-02T11:11:03Z</time>
      </trkpt>
      <trkpt lat="45.869507789611816" lon="8.477625846862793">
        <ele>898.0087890625</ele>
        <time>2007-12-02T11:11:08Z</time>
      </trkpt>
      <trkpt lat="45.869486331939697" lon="8.477475643157959">
        <ele>902.33447265625</ele>
        <time>2007-12-02T11:11:20Z</time>
      </trkpt>
      <trkpt lat="45.869486331939697" lon="8.477346897125244">
        <ele>903.2958984375</ele>
        <time>2007-12-02T11:11:28Z</time>
      </trkpt>
      <trkpt lat="45.869529247283936" lon="8.477239608764648">
        <ele>903.776611328125</ele>
        <time>2007-12-02T11:11:36Z</time>
      </trkpt>
      <trkpt lat="45.869550704956055" lon="8.47719669342041">
        <ele>903.776611328125</ele>
        <time>2007-12-02T11:11:42Z</time>
      </trkpt>
      <trkpt lat="45.869593620300293" lon="8.477067947387695">
        <ele>906.1796875</ele>
        <time>2007-12-02T11:11:53Z</time>
      </trkpt>
      <trkpt lat="45.86965799331665" lon="8.4769606590271">
        <ele>907.14111328125</ele>
        <time>2007-12-02T11:12:03Z</time>
      </trkpt>
      <trkpt lat="45.86967945098877" lon="8.476939201354981">
        <ele>907.14111328125</ele>
        <time>2007-12-02T11:12:04Z</time>
      </trkpt>
      <trkpt lat="45.869765281677246" lon="8.476853370666504">
        <ele>908.583251953125</ele>
        <time>2007-12-02T11:12:15Z</time>
      </trkpt>
      <trkpt lat="45.869808197021484" lon="8.476810455322266">
        <ele>909.06396484375</ele>
        <time>2007-12-02T11:12:21Z</time>
      </trkpt>
      <trkpt lat="45.86991548538208" lon="8.476746082305908">
        <ele>914.831787109375</ele>
        <time>2007-12-02T11:12:34Z</time>
      </trkpt>
      <trkpt lat="45.870044231414795" lon="8.476724624633789">
        <ele>917.715576171875</ele>
        <time>2007-12-02T11:12:44Z</time>
      </trkpt>
      <trkpt lat="45.870194435119629" lon="8.476660251617432">
        <ele>914.35107421875</ele>
        <time>2007-12-02T11:12:55Z</time>
      </trkpt>
      <trkpt lat="45.87040901184082" lon="8.476574420928955">
        <ele>916.273681640625</ele>
        <time>2007-12-02T11:13:08Z</time>
      </trkpt>
      <trkpt lat="45.870559215545654" lon="8.476574420928955">
        <ele>917.715576171875</ele>
        <time>2007-12-02T11:13:17Z</time>
      </trkpt>
      <trkpt lat="45.870709419250488" lon="8.476531505584717">
        <ele>918.1962890625</ele>
        <time>2007-12-02T11:13:28Z</time>
      </trkpt>
      <trkpt lat="45.870773792266846" lon="8.47644567489624">
        <ele>919.638427734375</ele>
        <time>2007-12-02T11:13:34Z</time>
      </trkpt>
      <trkpt lat="45.870859622955322" lon="8.476188182830811">
        <ele>917.235107421875</ele>
        <time>2007-12-02T11:13:48Z</time>
      </trkpt>
      <trkpt lat="45.870902538299561" lon="8.475909233093262">
        <ele>917.715576171875</ele>
        <time>2007-12-02T11:13:57Z</time>
      </trkpt>
      <trkpt lat="45.87092399597168" lon="8.475565910339356">
        <ele>917.235107421875</ele>
        <time>2007-12-02T11:14:09Z</time>
      </trkpt>
      <trkpt lat="45.871031284332275" lon="8.475179672241211">
        <ele>919.638427734375</ele>
        <time>2007-12-02T11:14:21Z</time>
      </trkpt>
      <trkpt lat="45.87116003036499" lon="8.47496509552002">
        <ele>923.964111328125</ele>
        <time>2007-12-02T11:14:30Z</time>
      </trkpt>
      <trkpt lat="45.871353149414063" lon="8.474686145782471">
        <ele>922.04150390625</ele>
        <time>2007-12-02T11:14:45Z</time>
      </trkpt>
      <trkpt lat="45.871460437774658" lon="8.474514484405518">
        <ele>923.0029296875</ele>
        <time>2007-12-02T11:14:58Z</time>
      </trkpt>
      <trkpt lat="45.871567726135254" lon="8.474278450012207">
        <ele>925.886962890625</ele>
        <time>2007-12-02T11:15:10Z</time>
      </trkpt>
      <trkpt lat="45.871610641479492" lon="8.473999500274658">
        <ele>930.693603515625</ele>
        <time>2007-12-02T11:15:23Z</time>
      </trkpt>
      <trkpt lat="45.871610641479492" lon="8.473978042602539">
        <ele>930.693603515625</ele>
        <time>2007-12-02T11:15:24Z</time>
      </trkpt>
      <trkpt lat="45.871589183807373" lon="8.473935127258301">
        <ele>930.212890625</ele>
        <time>2007-12-02T11:15:28Z</time>
      </trkpt>
      <trkpt lat="45.871567726135254" lon="8.473913669586182">
        <ele>931.17431640625</ele>
        <time>2007-12-02T11:15:32Z</time>
      </trkpt>
      <trkpt lat="45.871481895446777" lon="8.474020957946777">
        <ele>935.01953125</ele>
        <time>2007-12-02T11:15:45Z</time>
      </trkpt>
      <trkpt lat="45.871460437774658" lon="8.474085330963135">
        <ele>935.5</ele>
        <time>2007-12-02T11:15:52Z</time>
      </trkpt>
      <trkpt lat="45.871374607086182" lon="8.474256992340088">
        <ele>936.94189453125</ele>
        <time>2007-12-02T11:16:06Z</time>
      </trkpt>
      <trkpt lat="45.871288776397705" lon="8.474407196044922">
        <ele>937.422607421875</ele>
        <time>2007-12-02T11:16:19Z</time>
      </trkpt>
      <trkpt lat="45.871181488037109" lon="8.47445011138916">
        <ele>937.422607421875</ele>
        <time>2007-12-02T11:16:30Z</time>
      </trkpt>
      <trkpt lat="45.871009826660156" lon="8.474493026733398">
        <ele>941.26806640625</ele>
        <time>2007-12-02T11:16:42Z</time>
      </trkpt>
      <trkpt lat="45.870881080627441" lon="8.474471569061279">
        <ele>941.26806640625</ele>
        <time>2007-12-02T11:16:53Z</time>
      </trkpt>
      <trkpt lat="45.870752334594727" lon="8.474535942077637">
        <ele>944.152099609375</ele>
        <time>2007-12-02T11:17:04Z</time>
      </trkpt>
      <trkpt lat="45.870623588562012" lon="8.474557399749756">
        <ele>945.593994140625</ele>
        <time>2007-12-02T11:17:14Z</time>
      </trkpt>
      <trkpt lat="45.870451927185059" lon="8.474578857421875">
        <ele>948.477783203125</ele>
        <time>2007-12-02T11:17:29Z</time>
      </trkpt>
      <trkpt lat="45.870366096496582" lon="8.47445011138916">
        <ele>950.400634765625</ele>
        <time>2007-12-02T11:17:41Z</time>
      </trkpt>
      <trkpt lat="45.870344638824463" lon="8.47421407699585">
        <ele>950.881103515625</ele>
        <time>2007-12-02T11:17:53Z</time>
      </trkpt>
      <trkpt lat="45.870366096496582" lon="8.473999500274658">
        <ele>951.842529296875</ele>
        <time>2007-12-02T11:18:05Z</time>
      </trkpt>
      <trkpt lat="45.87040901184082" lon="8.473742008209229">
        <ele>954.245849609375</ele>
        <time>2007-12-02T11:18:18Z</time>
      </trkpt>
      <trkpt lat="45.870430469512939" lon="8.47369909286499">
        <ele>953.76513671875</ele>
        <time>2007-12-02T11:18:23Z</time>
      </trkpt>
      <trkpt lat="45.870494842529297" lon="8.473527431488037">
        <ele>953.76513671875</ele>
        <time>2007-12-02T11:18:32Z</time>
      </trkpt>
      <trkpt lat="45.870559215545654" lon="8.473248481750488">
        <ele>950.400634765625</ele>
        <time>2007-12-02T11:18:42Z</time>
      </trkpt>
      <trkpt lat="45.870473384857178" lon="8.472990989685059">
        <ele>951.36181640625</ele>
        <time>2007-12-02T11:18:52Z</time>
      </trkpt>
      <trkpt lat="45.870258808135986" lon="8.47271203994751">
        <ele>954.726318359375</ele>
        <time>2007-12-02T11:19:05Z</time>
      </trkpt>
      <trkpt lat="45.870087146759033" lon="8.47245454788208">
        <ele>953.284423828125</ele>
        <time>2007-12-02T11:19:17Z</time>
      </trkpt>
      <trkpt lat="45.870044231414795" lon="8.472433090209961">
        <ele>953.284423828125</ele>
        <time>2007-12-02T11:19:19Z</time>
      </trkpt>
      <trkpt lat="45.86991548538208" lon="8.472433090209961">
        <ele>957.610595703125</ele>
        <time>2007-12-02T11:19:29Z</time>
      </trkpt>
      <trkpt lat="45.869743824005127" lon="8.472433090209961">
        <ele>960.494384765625</ele>
        <time>2007-12-02T11:19:41Z</time>
      </trkpt>
      <trkpt lat="45.869636535644531" lon="8.472433090209961">
        <ele>962.897705078125</ele>
        <time>2007-12-02T11:19:50Z</time>
      </trkpt>
      <trkpt lat="45.869486331939697" lon="8.472368717193604">
        <ele>964.8203125</ele>
        <time>2007-12-02T11:20:02Z</time>
      </trkpt>
      <trkpt lat="45.869443416595459" lon="8.472325801849365">
        <ele>964.8203125</ele>
        <time>2007-12-02T11:20:10Z</time>
      </trkpt>
      <trkpt lat="45.869443416595459" lon="8.472325801849365">
        <ele>965.78173828125</ele>
        <time>2007-12-02T11:20:21Z</time>
      </trkpt>
      <trkpt lat="45.869357585906982" lon="8.472325801849365">
        <ele>967.2236328125</ele>
        <time>2007-12-02T11:20:36Z</time>
      </trkpt>
      <trkpt lat="45.869271755218506" lon="8.472282886505127">
        <ele>967.7041015625</ele>
        <time>2007-12-02T11:20:46Z</time>
      </trkpt>
      <trkpt lat="45.86916446685791" lon="8.472111225128174">
        <ele>967.2236328125</ele>
        <time>2007-12-02T11:20:58Z</time>
      </trkpt>
      <trkpt lat="45.869035720825195" lon="8.471939563751221">
        <ele>967.7041015625</ele>
        <time>2007-12-02T11:21:08Z</time>
      </trkpt>
      <trkpt lat="45.86890697479248" lon="8.472003936767578">
        <ele>967.7041015625</ele>
        <time>2007-12-02T11:21:15Z</time>
      </trkpt>
      <trkpt lat="45.868864059448242" lon="8.472046852111816">
        <ele>967.2236328125</ele>
        <time>2007-12-02T11:21:18Z</time>
      </trkpt>
      <trkpt lat="45.868692398071289" lon="8.472154140472412">
        <ele>967.7041015625</ele>
        <time>2007-12-02T11:21:28Z</time>
      </trkpt>
      <trkpt lat="45.868563652038574" lon="8.472282886505127">
        <ele>968.184814453125</ele>
        <time>2007-12-02T11:21:38Z</time>
      </trkpt>
      <trkpt lat="45.868434906005859" lon="8.472368717193604">
        <ele>967.7041015625</ele>
        <time>2007-12-02T11:21:48Z</time>
      </trkpt>
      <trkpt lat="45.868391990661621" lon="8.472368717193604">
        <ele>969.146240234375</ele>
        <time>2007-12-02T11:21:51Z</time>
      </trkpt>
      <trkpt lat="45.868349075317383" lon="8.472390174865723">
        <ele>970.588134765625</ele>
        <time>2007-12-02T11:21:56Z</time>
      </trkpt>
      <trkpt lat="45.868198871612549" lon="8.472282886505127">
        <ele>974.914306640625</ele>
        <time>2007-12-02T11:22:09Z</time>
      </trkpt>
      <trkpt lat="45.868113040924072" lon="8.472154140472412">
        <ele>973.952880859375</ele>
        <time>2007-12-02T11:22:21Z</time>
      </trkpt>
      <trkpt lat="45.868048667907715" lon="8.471982479095459">
        <ele>973.952880859375</ele>
        <time>2007-12-02T11:22:32Z</time>
      </trkpt>
      <trkpt lat="45.868048667907715" lon="8.471767902374268">
        <ele>976.356201171875</ele>
        <time>2007-12-02T11:22:43Z</time>
      </trkpt>
      <trkpt lat="45.868048667907715" lon="8.471553325653076">
        <ele>976.356201171875</ele>
        <time>2007-12-02T11:22:57Z</time>
      </trkpt>
      <trkpt lat="45.868005752563477" lon="8.471338748931885">
        <ele>976.8369140625</ele>
        <time>2007-12-02T11:23:10Z</time>
      </trkpt>
      <trkpt lat="45.867984294891357" lon="8.471145629882813">
        <ele>977.798095703125</ele>
        <time>2007-12-02T11:23:20Z</time>
      </trkpt>
      <trkpt lat="45.868027210235596" lon="8.47095251083374">
        <ele>977.317626953125</ele>
        <time>2007-12-02T11:23:31Z</time>
      </trkpt>
      <trkpt lat="45.868048667907715" lon="8.47071647644043">
        <ele>978.27880859375</ele>
        <time>2007-12-02T11:23:43Z</time>
      </trkpt>
      <trkpt lat="45.868113040924072" lon="8.470652103424072">
        <ele>978.759521484375</ele>
        <time>2007-12-02T11:23:47Z</time>
      </trkpt>
      <trkpt lat="45.868241786956787" lon="8.470501899719238">
        <ele>979.239990234375</ele>
        <time>2007-12-02T11:23:59Z</time>
      </trkpt>
      <trkpt lat="45.868434906005859" lon="8.470416069030762">
        <ele>978.759521484375</ele>
        <time>2007-12-02T11:24:12Z</time>
      </trkpt>
      <trkpt lat="45.868628025054932" lon="8.470330238342285">
        <ele>980.201416015625</ele>
        <time>2007-12-02T11:24:25Z</time>
      </trkpt>
      <trkpt lat="45.868799686431885" lon="8.470265865325928">
        <ele>982.604736328125</ele>
        <time>2007-12-02T11:24:38Z</time>
      </trkpt>
      <trkpt lat="45.868992805480957" lon="8.470094203948975">
        <ele>985.96923828125</ele>
        <time>2007-12-02T11:24:54Z</time>
      </trkpt>
      <trkpt lat="45.869100093841553" lon="8.470051288604736">
        <ele>985.008056640625</ele>
        <time>2007-12-02T11:25:03Z</time>
      </trkpt>
      <trkpt lat="45.869250297546387" lon="8.470115661621094">
        <ele>987.4111328125</ele>
        <time>2007-12-02T11:25:14Z</time>
      </trkpt>
      <trkpt lat="45.869250297546387" lon="8.470115661621094">
        <ele>987.4111328125</ele>
        <time>2007-12-02T11:25:15Z</time>
      </trkpt>
      <trkpt lat="45.869336128234863" lon="8.470394611358643">
        <ele>990.29541015625</ele>
        <time>2007-12-02T11:25:29Z</time>
      </trkpt>
      <trkpt lat="45.869443416595459" lon="8.470652103424072">
        <ele>993.17919921875</ele>
        <time>2007-12-02T11:25:41Z</time>
      </trkpt>
      <trkpt lat="45.869636535644531" lon="8.470866680145264">
        <ele>994.140625</ele>
        <time>2007-12-02T11:25:53Z</time>
      </trkpt>
      <trkpt lat="45.869894027709961" lon="8.471145629882813">
        <ele>995.58251953125</ele>
        <time>2007-12-02T11:26:04Z</time>
      </trkpt>
      <trkpt lat="45.870258808135986" lon="8.471317291259766">
        <ele>995.101806640625</ele>
        <time>2007-12-02T11:26:16Z</time>
      </trkpt>
      <trkpt lat="45.870516300201416" lon="8.47121000289917">
        <ele>992.69873046875</ele>
        <time>2007-12-02T11:26:25Z</time>
      </trkpt>
      <trkpt lat="45.870687961578369" lon="8.47095251083374">
        <ele>992.69873046875</ele>
        <time>2007-12-02T11:26:35Z</time>
      </trkpt>
      <trkpt lat="45.870816707611084" lon="8.470802307128906">
        <ele>995.101806640625</ele>
        <time>2007-12-02T11:26:45Z</time>
      </trkpt>
      <trkpt lat="45.870838165283203" lon="8.470780849456787">
        <ele>995.58251953125</ele>
        <time>2007-12-02T11:26:47Z</time>
      </trkpt>
      <trkpt lat="45.870902538299561" lon="8.470437526702881">
        <ele>996.063232421875</ele>
        <time>2007-12-02T11:27:00Z</time>
      </trkpt>
      <trkpt lat="45.870988368988037" lon="8.47020149230957">
        <ele>997.0244140625</ele>
        <time>2007-12-02T11:27:09Z</time>
      </trkpt>
      <trkpt lat="45.871095657348633" lon="8.469772338867188">
        <ele>998.46630859375</ele>
        <time>2007-12-02T11:27:23Z</time>
      </trkpt>
      <trkpt lat="45.87116003036499" lon="8.469300270080566">
        <ele>998.46630859375</ele>
        <time>2007-12-02T11:27:35Z</time>
      </trkpt>
      <trkpt lat="45.871095657348633" lon="8.468892574310303">
        <ele>997.98583984375</ele>
        <time>2007-12-02T11:27:47Z</time>
      </trkpt>
      <trkpt lat="45.871009826660156" lon="8.468613624572754">
        <ele>998.947021484375</ele>
        <time>2007-12-02T11:27:58Z</time>
      </trkpt>
      <trkpt lat="45.870966911315918" lon="8.468291759490967">
        <ele>1000.38916015625</ele>
        <time>2007-12-02T11:28:11Z</time>
      </trkpt>
      <trkpt lat="45.871009826660156" lon="8.468055725097656">
        <ele>1000.38916015625</ele>
        <time>2007-12-02T11:28:22Z</time>
      </trkpt>
      <trkpt lat="45.871117115020752" lon="8.46796989440918">
        <ele>1004.715087890625</ele>
        <time>2007-12-02T11:28:31Z</time>
      </trkpt>
      <trkpt lat="45.871310234069824" lon="8.467841148376465">
        <ele>1005.19580078125</ele>
        <time>2007-12-02T11:28:42Z</time>
      </trkpt>
      <trkpt lat="45.871524810791016" lon="8.467755317687988">
        <ele>1005.676513671875</ele>
        <time>2007-12-02T11:28:49Z</time>
      </trkpt>
      <trkpt lat="45.871546268463135" lon="8.467841148376465">
        <ele>1005.19580078125</ele>
        <time>2007-12-02T11:28:53Z</time>
      </trkpt>
      <trkpt lat="45.871524810791016" lon="8.468034267425537">
        <ele>1003.27294921875</ele>
        <time>2007-12-02T11:29:00Z</time>
      </trkpt>
      <trkpt lat="45.871589183807373" lon="8.468248844146729">
        <ele>1003.753662109375</ele>
        <time>2007-12-02T11:29:08Z</time>
      </trkpt>
      <trkpt lat="45.871760845184326" lon="8.468377590179443">
        <ele>1006.156982421875</ele>
        <time>2007-12-02T11:29:17Z</time>
      </trkpt>
      <trkpt lat="45.87191104888916" lon="8.468377590179443">
        <ele>1006.6376953125</ele>
        <time>2007-12-02T11:29:24Z</time>
      </trkpt>
      <trkpt lat="45.872082710266113" lon="8.468313217163086">
        <ele>1008.560302734375</ele>
        <time>2007-12-02T11:29:33Z</time>
      </trkpt>
      <trkpt lat="45.872318744659424" lon="8.468120098114014">
        <ele>1007.59912109375</ele>
        <time>2007-12-02T11:29:46Z</time>
      </trkpt>
      <trkpt lat="45.872533321380615" lon="8.467926979064941">
        <ele>1009.521728515625</ele>
        <time>2007-12-02T11:29:58Z</time>
      </trkpt>
      <trkpt lat="45.872704982757568" lon="8.467819690704346">
        <ele>1008.079833984375</ele>
        <time>2007-12-02T11:30:09Z</time>
      </trkpt>
      <trkpt lat="45.872833728790283" lon="8.467819690704346">
        <ele>1007.59912109375</ele>
        <time>2007-12-02T11:30:16Z</time>
      </trkpt>
      <trkpt lat="45.872812271118164" lon="8.46820592880249">
        <ele>1011.925048828125</ele>
        <time>2007-12-02T11:30:28Z</time>
      </trkpt>
      <trkpt lat="45.872812271118164" lon="8.468549251556397">
        <ele>1012.88623046875</ele>
        <time>2007-12-02T11:30:41Z</time>
      </trkpt>
      <trkpt lat="45.87291955947876" lon="8.468699455261231">
        <ele>1013.847412109375</ele>
        <time>2007-12-02T11:30:50Z</time>
      </trkpt>
      <trkpt lat="45.873112678527832" lon="8.468763828277588">
        <ele>1015.770263671875</ele>
        <time>2007-12-02T11:31:01Z</time>
      </trkpt>
      <trkpt lat="45.873091220855713" lon="8.469042778015137">
        <ele>1013.366943359375</ele>
        <time>2007-12-02T11:31:12Z</time>
      </trkpt>
      <trkpt lat="45.873112678527832" lon="8.469407558441162">
        <ele>1012.88623046875</ele>
        <time>2007-12-02T11:31:23Z</time>
      </trkpt>
      <trkpt lat="45.873262882232666" lon="8.46970796585083">
        <ele>1012.88623046875</ele>
        <time>2007-12-02T11:31:33Z</time>
      </trkpt>
      <trkpt lat="45.873327255249023" lon="8.469922542572022">
        <ele>1013.847412109375</ele>
        <time>2007-12-02T11:31:42Z</time>
      </trkpt>
      <trkpt lat="45.873305797576904" lon="8.47022294998169">
        <ele>1017.212158203125</ele>
        <time>2007-12-02T11:31:52Z</time>
      </trkpt>
      <trkpt lat="45.873370170593262" lon="8.470373153686523">
        <ele>1019.615478515625</ele>
        <time>2007-12-02T11:32:00Z</time>
      </trkpt>
      <trkpt lat="45.873541831970215" lon="8.470373153686523">
        <ele>1019.615478515625</ele>
        <time>2007-12-02T11:32:11Z</time>
      </trkpt>
      <trkpt lat="45.873692035675049" lon="8.470351696014404">
        <ele>1020.09619140625</ele>
        <time>2007-12-02T11:32:22Z</time>
      </trkpt>
      <trkpt lat="45.873863697052002" lon="8.470351696014404">
        <ele>1021.0576171875</ele>
        <time>2007-12-02T11:32:33Z</time>
      </trkpt>
      <trkpt lat="45.874078273773193" lon="8.470373153686523">
        <ele>1023.4609375</ele>
        <time>2007-12-02T11:32:45Z</time>
      </trkpt>
      <trkpt lat="45.874335765838623" lon="8.470480442047119">
        <ele>1024.90283203125</ele>
        <time>2007-12-02T11:33:02Z</time>
      </trkpt>
      <trkpt lat="45.874378681182861" lon="8.470544815063477">
        <ele>1030.18994140625</ele>
        <time>2007-12-02T11:33:11Z</time>
      </trkpt>
      <trkpt lat="45.874443054199219" lon="8.470780849456787">
        <ele>1044.609619140625</ele>
        <time>2007-12-02T11:38:36Z</time>
      </trkpt>
      <trkpt lat="45.8744215965271" lon="8.470673561096191">
        <ele>1041.2451171875</ele>
        <time>2007-12-02T11:38:41Z</time>
      </trkpt>
      <trkpt lat="45.874292850494385" lon="8.470501899719238">
        <ele>1041.2451171875</ele>
        <time>2007-12-02T11:38:52Z</time>
      </trkpt>
      <trkpt lat="45.874078273773193" lon="8.470330238342285">
        <ele>1042.20654296875</ele>
        <time>2007-12-02T11:39:06Z</time>
      </trkpt>
      <trkpt lat="45.873863697052002" lon="8.470244407653809">
        <ele>1043.6484375</ele>
        <time>2007-12-02T11:39:19Z</time>
      </trkpt>
      <trkpt lat="45.873756408691406" lon="8.470094203948975">
        <ele>1044.129150390625</ele>
        <time>2007-12-02T11:39:29Z</time>
      </trkpt>
      <trkpt lat="45.873734951019287" lon="8.469901084899902">
        <ele>1041.725830078125</ele>
        <time>2007-12-02T11:39:39Z</time>
      </trkpt>
      <trkpt lat="45.873756408691406" lon="8.46970796585083">
        <ele>1040.764404296875</ele>
        <time>2007-12-02T11:39:51Z</time>
      </trkpt>
      <trkpt lat="45.873820781707764" lon="8.469536304473877">
        <ele>1037.880615234375</ele>
        <time>2007-12-02T11:40:02Z</time>
      </trkpt>
      <trkpt lat="45.873885154724121" lon="8.469407558441162">
        <ele>1037.880615234375</ele>
        <time>2007-12-02T11:40:12Z</time>
      </trkpt>
      <trkpt lat="45.87390661239624" lon="8.469300270080566">
        <ele>1038.361328125</ele>
        <time>2007-12-02T11:40:19Z</time>
      </trkpt>
      <trkpt lat="45.873949527740479" lon="8.469085693359375">
        <ele>1035.47705078125</ele>
        <time>2007-12-02T11:40:34Z</time>
      </trkpt>
      <trkpt lat="45.873992443084717" lon="8.46895694732666">
        <ele>1037.39990234375</ele>
        <time>2007-12-02T11:40:43Z</time>
      </trkpt>
      <trkpt lat="45.874078273773193" lon="8.468785285949707">
        <ele>1040.764404296875</ele>
        <time>2007-12-02T11:40:54Z</time>
      </trkpt>
      <trkpt lat="45.874078273773193" lon="8.46872091293335">
        <ele>1042.20654296875</ele>
        <time>2007-12-02T11:40:58Z</time>
      </trkpt>
      <trkpt lat="45.874078273773193" lon="8.468699455261231">
        <ele>1041.2451171875</ele>
        <time>2007-12-02T11:41:00Z</time>
      </trkpt>
      <trkpt lat="45.873992443084717" lon="8.468527793884277">
        <ele>1040.764404296875</ele>
        <time>2007-12-02T11:41:12Z</time>
      </trkpt>
      <trkpt lat="45.873928070068359" lon="8.468399047851563">
        <ele>1044.609619140625</ele>
        <time>2007-12-02T11:41:22Z</time>
      </trkpt>
      <trkpt lat="45.873842239379883" lon="8.46820592880249">
        <ele>1044.609619140625</ele>
        <time>2007-12-02T11:41:34Z</time>
      </trkpt>
      <trkpt lat="45.873756408691406" lon="8.468077182769775">
        <ele>1048.454833984375</ele>
        <time>2007-12-02T11:41:45Z</time>
      </trkpt>
      <trkpt lat="45.873734951019287" lon="8.468034267425537">
        <ele>1048.935546875</ele>
        <time>2007-12-02T11:41:47Z</time>
      </trkpt>
      <trkpt lat="45.873713493347168" lon="8.467991352081299">
        <ele>1049.416259765625</ele>
        <time>2007-12-02T11:41:51Z</time>
      </trkpt>
      <trkpt lat="45.87367057800293" lon="8.467819690704346">
        <ele>1053.742431640625</ele>
        <time>2007-12-02T11:42:03Z</time>
      </trkpt>
      <trkpt lat="45.873649120330811" lon="8.467626571655273">
        <ele>1056.1455078125</ele>
        <time>2007-12-02T11:42:15Z</time>
      </trkpt>
      <trkpt lat="45.873649120330811" lon="8.467562198638916">
        <ele>1057.10693359375</ele>
        <time>2007-12-02T11:42:21Z</time>
      </trkpt>
      <trkpt lat="45.87367057800293" lon="8.467433452606201">
        <ele>1056.626220703125</ele>
        <time>2007-12-02T11:42:33Z</time>
      </trkpt>
      <trkpt lat="45.873734951019287" lon="8.467261791229248">
        <ele>1058.068359375</ele>
        <time>2007-12-02T11:42:49Z</time>
      </trkpt>
      <trkpt lat="45.873777866363525" lon="8.467133045196533">
        <ele>1060.471435546875</ele>
        <time>2007-12-02T11:43:01Z</time>
      </trkpt>
      <trkpt lat="45.873820781707764" lon="8.46696138381958">
        <ele>1061.432861328125</ele>
        <time>2007-12-02T11:43:13Z</time>
      </trkpt>
      <trkpt lat="45.873863697052002" lon="8.46672534942627">
        <ele>1063.8359375</ele>
        <time>2007-12-02T11:43:28Z</time>
      </trkpt>
      <trkpt lat="45.873863697052002" lon="8.466618061065674">
        <ele>1066.2392578125</ele>
        <time>2007-12-02T11:43:42Z</time>
      </trkpt>
      <trkpt lat="45.873842239379883" lon="8.466339111328125">
        <ele>1072.00732421875</ele>
        <time>2007-12-02T11:44:02Z</time>
      </trkpt>
      <trkpt lat="45.87390661239624" lon="8.466038703918457">
        <ele>1075.8525390625</ele>
        <time>2007-12-02T11:44:24Z</time>
      </trkpt>
      <trkpt lat="45.873992443084717" lon="8.465824127197266">
        <ele>1075.8525390625</ele>
        <time>2007-12-02T11:44:39Z</time>
      </trkpt>
      <trkpt lat="45.873992443084717" lon="8.465631008148193">
        <ele>1077.294677734375</ele>
        <time>2007-12-02T11:44:54Z</time>
      </trkpt>
      <trkpt lat="45.873970985412598" lon="8.465545177459717">
        <ele>1076.81396484375</ele>
        <time>2007-12-02T11:45:00Z</time>
      </trkpt>
      <trkpt lat="45.873863697052002" lon="8.46545934677124">
        <ele>1077.775146484375</ele>
        <time>2007-12-02T11:45:10Z</time>
      </trkpt>
      <trkpt lat="45.873734951019287" lon="8.465437889099121">
        <ele>1078.736572265625</ele>
        <time>2007-12-02T11:45:22Z</time>
      </trkpt>
      <trkpt lat="45.87367057800293" lon="8.465394973754883">
        <ele>1080.178466796875</ele>
        <time>2007-12-02T11:45:32Z</time>
      </trkpt>
      <trkpt lat="45.873541831970215" lon="8.465480804443359">
        <ele>1091.233642578125</ele>
        <time>2007-12-02T11:46:00Z</time>
      </trkpt>
      <trkpt lat="45.873498916625977" lon="8.46545934677124">
        <ele>1091.233642578125</ele>
        <time>2007-12-02T11:46:03Z</time>
      </trkpt>
      <trkpt lat="45.873391628265381" lon="8.46545934677124">
        <ele>1091.71435546875</ele>
        <time>2007-12-02T11:46:14Z</time>
      </trkpt>
      <trkpt lat="45.873284339904785" lon="8.465416431427002">
        <ele>1091.233642578125</ele>
        <time>2007-12-02T11:46:24Z</time>
      </trkpt>
      <trkpt lat="45.873177051544189" lon="8.465309143066406">
        <ele>1090.7529296875</ele>
        <time>2007-12-02T11:46:35Z</time>
      </trkpt>
      <trkpt lat="45.873069763183594" lon="8.465137481689453">
        <ele>1092.195068359375</ele>
        <time>2007-12-02T11:46:49Z</time>
      </trkpt>
      <trkpt lat="45.873069763183594" lon="8.4649658203125">
        <ele>1091.71435546875</ele>
        <time>2007-12-02T11:47:00Z</time>
      </trkpt>
      <trkpt lat="45.873134136199951" lon="8.46472978591919">
        <ele>1092.195068359375</ele>
        <time>2007-12-02T11:47:16Z</time>
      </trkpt>
      <trkpt lat="45.873177051544189" lon="8.464601039886475">
        <ele>1092.67578125</ele>
        <time>2007-12-02T11:47:28Z</time>
      </trkpt>
      <trkpt lat="45.873177051544189" lon="8.464536666870117">
        <ele>1095.078857421875</ele>
        <time>2007-12-02T11:47:31Z</time>
      </trkpt>
      <trkpt lat="45.873112678527832" lon="8.464429378509522">
        <ele>1096.040283203125</ele>
        <time>2007-12-02T11:47:39Z</time>
      </trkpt>
      <trkpt lat="45.873069763183594" lon="8.464407920837402">
        <ele>1096.52099609375</ele>
        <time>2007-12-02T11:47:43Z</time>
      </trkpt>
      <trkpt lat="45.872962474822998" lon="8.464386463165283">
        <ele>1097.00146484375</ele>
        <time>2007-12-02T11:47:53Z</time>
      </trkpt>
      <trkpt lat="45.872833728790283" lon="8.464386463165283">
        <ele>1097.482177734375</ele>
        <time>2007-12-02T11:48:05Z</time>
      </trkpt>
      <trkpt lat="45.872747898101807" lon="8.464407920837402">
        <ele>1098.924072265625</ele>
        <time>2007-12-02T11:48:11Z</time>
      </trkpt>
      <trkpt lat="45.872704982757568" lon="8.464386463165283">
        <ele>1099.885498046875</ele>
        <time>2007-12-02T11:48:15Z</time>
      </trkpt>
      <trkpt lat="45.872576236724854" lon="8.464386463165283">
        <ele>1100.366455078125</ele>
        <time>2007-12-02T11:48:27Z</time>
      </trkpt>
      <trkpt lat="45.872468948364258" lon="8.464407920837402">
        <ele>1100.366455078125</ele>
        <time>2007-12-02T11:48:36Z</time>
      </trkpt>
      <trkpt lat="45.872361660003662" lon="8.464450836181641">
        <ele>1102.288818359375</ele>
        <time>2007-12-02T11:48:47Z</time>
      </trkpt>
      <trkpt lat="45.872211456298828" lon="8.464493751525879">
        <ele>1106.134033203125</ele>
        <time>2007-12-02T11:49:00Z</time>
      </trkpt>
      <trkpt lat="45.872082710266113" lon="8.46447229385376">
        <ele>1107.576171875</ele>
        <time>2007-12-02T11:49:12Z</time>
      </trkpt>
      <trkpt lat="45.871975421905518" lon="8.464407920837402">
        <ele>1109.498779296875</ele>
        <time>2007-12-02T11:49:22Z</time>
      </trkpt>
      <trkpt lat="45.871846675872803" lon="8.464322090148926">
        <ele>1109.498779296875</ele>
        <time>2007-12-02T11:49:35Z</time>
      </trkpt>
      <trkpt lat="45.871696472167969" lon="8.464322090148926">
        <ele>1112.382568359375</ele>
        <time>2007-12-02T11:49:47Z</time>
      </trkpt>
      <trkpt lat="45.871546268463135" lon="8.464343547821045">
        <ele>1112.86328125</ele>
        <time>2007-12-02T11:50:01Z</time>
      </trkpt>
      <trkpt lat="45.871438980102539" lon="8.464343547821045">
        <ele>1114.785888671875</ele>
        <time>2007-12-02T11:50:11Z</time>
      </trkpt>
      <trkpt lat="45.871310234069824" lon="8.464300632476807">
        <ele>1115.747314453125</ele>
        <time>2007-12-02T11:50:24Z</time>
      </trkpt>
      <trkpt lat="45.871181488037109" lon="8.464236259460449">
        <ele>1117.669921875</ele>
        <time>2007-12-02T11:50:36Z</time>
      </trkpt>
      <trkpt lat="45.871074199676514" lon="8.464150428771973">
        <ele>1117.669921875</ele>
        <time>2007-12-02T11:50:46Z</time>
      </trkpt>
      <trkpt lat="45.870945453643799" lon="8.464086055755615">
        <ele>1117.669921875</ele>
        <time>2007-12-02T11:50:57Z</time>
      </trkpt>
      <trkpt lat="45.870838165283203" lon="8.464064598083496">
        <ele>1118.63134765625</ele>
        <time>2007-12-02T11:51:08Z</time>
      </trkpt>
      <trkpt lat="45.870816707611084" lon="8.464064598083496">
        <ele>1119.5927734375</ele>
        <time>2007-12-02T11:51:09Z</time>
      </trkpt>
      <trkpt lat="45.870752334594727" lon="8.464128971099854">
        <ele>1119.5927734375</ele>
        <time>2007-12-02T11:51:15Z</time>
      </trkpt>
      <trkpt lat="45.870537757873535" lon="8.464257717132568">
        <ele>1119.112060546875</ele>
        <time>2007-12-02T11:51:20Z</time>
      </trkpt>
      <trkpt lat="45.870258808135986" lon="8.464193344116211">
        <ele>1118.150634765625</ele>
        <time>2007-12-02T11:51:28Z</time>
      </trkpt>
      <trkpt lat="45.87017297744751" lon="8.464236259460449">
        <ele>1117.669921875</ele>
        <time>2007-12-02T11:51:30Z</time>
      </trkpt>
      <trkpt lat="45.870044231414795" lon="8.46447229385376">
        <ele>1116.22802734375</ele>
        <time>2007-12-02T11:51:34Z</time>
      </trkpt>
      <trkpt lat="45.86991548538208" lon="8.464579582214356">
        <ele>1116.22802734375</ele>
        <time>2007-12-02T11:51:38Z</time>
      </trkpt>
      <trkpt lat="45.869872570037842" lon="8.46447229385376">
        <ele>1115.747314453125</ele>
        <time>2007-12-02T11:51:40Z</time>
      </trkpt>
      <trkpt lat="45.869829654693604" lon="8.464429378509522">
        <ele>1115.2666015625</ele>
        <time>2007-12-02T11:51:42Z</time>
      </trkpt>
      <trkpt lat="45.869851112365723" lon="8.464000225067139">
        <ele>1114.30517578125</ele>
        <time>2007-12-02T11:51:49Z</time>
      </trkpt>
      <trkpt lat="45.86965799331665" lon="8.463785648345947">
        <ele>1113.824462890625</ele>
        <time>2007-12-02T11:51:53Z</time>
      </trkpt>
      <trkpt lat="45.869293212890625" lon="8.463678359985352">
        <ele>1113.824462890625</ele>
        <time>2007-12-02T11:51:59Z</time>
      </trkpt>
      <trkpt lat="45.869185924530029" lon="8.463592529296875">
        <ele>1113.824462890625</ele>
        <time>2007-12-02T11:52:01Z</time>
      </trkpt>
      <trkpt lat="45.869035720825195" lon="8.463099002838135">
        <ele>1113.824462890625</ele>
        <time>2007-12-02T11:52:07Z</time>
      </trkpt>
      <trkpt lat="45.869121551513672" lon="8.462669849395752">
        <ele>1113.343994140625</ele>
        <time>2007-12-02T11:52:13Z</time>
      </trkpt>
      <trkpt lat="45.869121551513672" lon="8.462369441986084">
        <ele>1112.382568359375</ele>
        <time>2007-12-02T11:52:19Z</time>
      </trkpt>
      <trkpt lat="45.869078636169434" lon="8.462176322937012">
        <ele>1110.940673828125</ele>
        <time>2007-12-02T11:52:27Z</time>
      </trkpt>
      <trkpt lat="45.869014263153076" lon="8.462154865264893">
        <ele>1110.4599609375</ele>
        <time>2007-12-02T11:52:31Z</time>
      </trkpt>
      <trkpt lat="45.868799686431885" lon="8.462240695953369">
        <ele>1109.498779296875</ele>
        <time>2007-12-02T11:52:42Z</time>
      </trkpt>
      <trkpt lat="45.868606567382813" lon="8.462305068969727">
        <ele>1108.537353515625</ele>
        <time>2007-12-02T11:52:54Z</time>
      </trkpt>
      <trkpt lat="45.868499279022217" lon="8.462433815002441">
        <ele>1108.537353515625</ele>
        <time>2007-12-02T11:53:04Z</time>
      </trkpt>
      <trkpt lat="45.868391990661621" lon="8.462519645690918">
        <ele>1109.01806640625</ele>
        <time>2007-12-02T11:53:15Z</time>
      </trkpt>
      <trkpt lat="45.868284702301025" lon="8.462541103363037">
        <ele>1108.056884765625</ele>
        <time>2007-12-02T11:53:24Z</time>
      </trkpt>
      <trkpt lat="45.868263244628906" lon="8.462541103363037">
        <ele>1107.095458984375</ele>
        <time>2007-12-02T11:53:32Z</time>
      </trkpt>
      <trkpt lat="45.868220329284668" lon="8.462519645690918">
        <ele>1104.211669921875</ele>
        <time>2007-12-02T11:54:07Z</time>
      </trkpt>
      <trkpt lat="45.868198871612549" lon="8.462519645690918">
        <ele>1104.692138671875</ele>
        <time>2007-12-02T11:54:15Z</time>
      </trkpt>
      <trkpt lat="45.868155956268311" lon="8.46247673034668">
        <ele>1104.211669921875</ele>
        <time>2007-12-02T11:54:25Z</time>
      </trkpt>
      <trkpt lat="45.868134498596191" lon="8.462412357330322">
        <ele>1100.846923828125</ele>
        <time>2007-12-02T11:56:15Z</time>
      </trkpt>
      <trkpt lat="45.868091583251953" lon="8.462347984313965">
        <ele>1101.808349609375</ele>
        <time>2007-12-02T11:56:20Z</time>
      </trkpt>
      <trkpt lat="45.867962837219238" lon="8.462069034576416">
        <ele>1102.288818359375</ele>
        <time>2007-12-02T11:56:36Z</time>
      </trkpt>
      <trkpt lat="45.867748260498047" lon="8.461875915527344">
        <ele>1102.288818359375</ele>
        <time>2007-12-02T11:56:48Z</time>
      </trkpt>
      <trkpt lat="45.867683887481689" lon="8.462047576904297">
        <ele>1102.288818359375</ele>
        <time>2007-12-02T11:56:52Z</time>
      </trkpt>
      <trkpt lat="45.867640972137451" lon="8.462347984313965">
        <ele>1102.288818359375</ele>
        <time>2007-12-02T11:56:59Z</time>
      </trkpt>
      <trkpt lat="45.867469310760498" lon="8.462820053100586">
        <ele>1101.808349609375</ele>
        <time>2007-12-02T11:57:09Z</time>
      </trkpt>
      <trkpt lat="45.867190361022949" lon="8.463249206542969">
        <ele>1102.288818359375</ele>
        <time>2007-12-02T11:57:20Z</time>
      </trkpt>
      <trkpt lat="45.866997241973877" lon="8.463399410247803">
        <ele>1103.250244140625</ele>
        <time>2007-12-02T11:57:27Z</time>
      </trkpt>
      <trkpt lat="45.866868495941162" lon="8.463613986968994">
        <ele>1104.211669921875</ele>
        <time>2007-12-02T11:57:34Z</time>
      </trkpt>
      <trkpt lat="45.866718292236328" lon="8.463764190673828">
        <ele>1104.211669921875</ele>
        <time>2007-12-02T11:57:41Z</time>
      </trkpt>
      <trkpt lat="45.866653919219971" lon="8.463764190673828">
        <ele>1103.73095703125</ele>
        <time>2007-12-02T11:57:44Z</time>
      </trkpt>
      <trkpt lat="45.866503715515137" lon="8.463571071624756">
        <ele>1102.288818359375</ele>
        <time>2007-12-02T11:57:52Z</time>
      </trkpt>
      <trkpt lat="45.866267681121826" lon="8.463399410247803">
        <ele>1104.211669921875</ele>
        <time>2007-12-02T11:58:01Z</time>
      </trkpt>
      <trkpt lat="45.866010189056396" lon="8.463206291198731">
        <ele>1104.692138671875</ele>
        <time>2007-12-02T11:58:11Z</time>
      </trkpt>
      <trkpt lat="45.865881443023682" lon="8.46322774887085">
        <ele>1104.692138671875</ele>
        <time>2007-12-02T11:58:18Z</time>
      </trkpt>
      <trkpt lat="45.865774154663086" lon="8.463399410247803">
        <ele>1104.211669921875</ele>
        <time>2007-12-02T11:58:27Z</time>
      </trkpt>
      <trkpt lat="45.865645408630371" lon="8.46372127532959">
        <ele>1105.653564453125</ele>
        <time>2007-12-02T11:58:36Z</time>
      </trkpt>
      <trkpt lat="45.865495204925537" lon="8.463828563690186">
        <ele>1105.1728515625</ele>
        <time>2007-12-02T11:58:41Z</time>
      </trkpt>
      <trkpt lat="45.86543083190918" lon="8.463871479034424">
        <ele>1105.1728515625</ele>
        <time>2007-12-02T11:58:43Z</time>
      </trkpt>
      <trkpt lat="45.864980220794678" lon="8.464021682739258">
        <ele>1104.692138671875</ele>
        <time>2007-12-02T11:58:51Z</time>
      </trkpt>
      <trkpt lat="45.864787101745605" lon="8.464064598083496">
        <ele>1103.73095703125</ele>
        <time>2007-12-02T11:58:54Z</time>
      </trkpt>
      <trkpt lat="45.864701271057129" lon="8.464300632476807">
        <ele>1103.250244140625</ele>
        <time>2007-12-02T11:58:57Z</time>
      </trkpt>
      <trkpt lat="45.864465236663818" lon="8.464622497558594">
        <ele>1101.32763671875</ele>
        <time>2007-12-02T11:59:02Z</time>
      </trkpt>
      <trkpt lat="45.864207744598389" lon="8.464879989624023">
        <ele>1100.366455078125</ele>
        <time>2007-12-02T11:59:07Z</time>
      </trkpt>
      <trkpt lat="45.864014625549316" lon="8.46522331237793">
        <ele>1100.366455078125</ele>
        <time>2007-12-02T11:59:13Z</time>
      </trkpt>
      <trkpt lat="45.863757133483887" lon="8.465373516082764">
        <ele>1098.443359375</ele>
        <time>2007-12-02T11:59:19Z</time>
      </trkpt>
      <trkpt lat="45.863714218139648" lon="8.465352058410645">
        <ele>1097.962890625</ele>
        <time>2007-12-02T11:59:20Z</time>
      </trkpt>
      <trkpt lat="45.8634352684021" lon="8.465116024017334">
        <ele>1097.00146484375</ele>
        <time>2007-12-02T11:59:26Z</time>
      </trkpt>
      <trkpt lat="45.863242149353027" lon="8.464944362640381">
        <ele>1097.00146484375</ele>
        <time>2007-12-02T11:59:30Z</time>
      </trkpt>
      <trkpt lat="45.863113403320312" lon="8.464751243591309">
        <ele>1097.00146484375</ele>
        <time>2007-12-02T11:59:33Z</time>
      </trkpt>
      <trkpt lat="45.862941741943359" lon="8.464794158935547">
        <ele>1096.52099609375</ele>
        <time>2007-12-02T11:59:38Z</time>
      </trkpt>
      <trkpt lat="45.86268424987793" lon="8.4649658203125">
        <ele>1095.5595703125</ele>
        <time>2007-12-02T11:59:46Z</time>
      </trkpt>
      <trkpt lat="45.862469673156738" lon="8.465116024017334">
        <ele>1094.59814453125</ele>
        <time>2007-12-02T11:59:53Z</time>
      </trkpt>
      <trkpt lat="45.862190723419189" lon="8.465309143066406">
        <ele>1093.15625</ele>
        <time>2007-12-02T12:00:02Z</time>
      </trkpt>
      <trkpt lat="45.862061977386475" lon="8.465394973754883">
        <ele>1092.67578125</ele>
        <time>2007-12-02T12:00:07Z</time>
      </trkpt>
      <trkpt lat="45.86193323135376" lon="8.46545934677124">
        <ele>1092.195068359375</ele>
        <time>2007-12-02T12:00:13Z</time>
      </trkpt>
      <trkpt lat="45.86167573928833" lon="8.465545177459717">
        <ele>1091.233642578125</ele>
        <time>2007-12-02T12:00:20Z</time>
      </trkpt>
      <trkpt lat="45.861632823944092" lon="8.465523719787598">
        <ele>1090.2724609375</ele>
        <time>2007-12-02T12:00:21Z</time>
      </trkpt>
      <trkpt lat="45.861546993255615" lon="8.465502262115479">
        <ele>1090.2724609375</ele>
        <time>2007-12-02T12:00:23Z</time>
      </trkpt>
      <trkpt lat="45.861504077911377" lon="8.465523719787598">
        <ele>1089.31103515625</ele>
        <time>2007-12-02T12:00:25Z</time>
      </trkpt>
      <trkpt lat="45.861589908599854" lon="8.465631008148193">
        <ele>1087.869140625</ele>
        <time>2007-12-02T12:00:30Z</time>
      </trkpt>
      <trkpt lat="45.861654281616211" lon="8.465673923492432">
        <ele>1087.388427734375</ele>
        <time>2007-12-02T12:00:32Z</time>
      </trkpt>
      <trkpt lat="45.86193323135376" lon="8.465781211853027">
        <ele>1084.504638671875</ele>
        <time>2007-12-02T12:00:39Z</time>
      </trkpt>
      <trkpt lat="45.862190723419189" lon="8.465738296508789">
        <ele>1083.54296875</ele>
        <time>2007-12-02T12:00:44Z</time>
      </trkpt>
      <trkpt lat="45.8624267578125" lon="8.465652465820313">
        <ele>1083.062255859375</ele>
        <time>2007-12-02T12:00:49Z</time>
      </trkpt>
      <trkpt lat="45.862534046173096" lon="8.465609550476074">
        <ele>1083.062255859375</ele>
        <time>2007-12-02T12:00:51Z</time>
      </trkpt>
      <trkpt lat="45.862877368927002" lon="8.465416431427002">
        <ele>1080.178466796875</ele>
        <time>2007-12-02T12:00:57Z</time>
      </trkpt>
      <trkpt lat="45.862963199615479" lon="8.465437889099121">
        <ele>1079.69775390625</ele>
        <time>2007-12-02T12:01:01Z</time>
      </trkpt>
      <trkpt lat="45.862984657287598" lon="8.46545934677124">
        <ele>1079.69775390625</ele>
        <time>2007-12-02T12:01:02Z</time>
      </trkpt>
      <trkpt lat="45.863027572631836" lon="8.465566635131836">
        <ele>1079.217041015625</ele>
        <time>2007-12-02T12:01:05Z</time>
      </trkpt>
      <trkpt lat="45.863091945648193" lon="8.465673923492432">
        <ele>1078.736572265625</ele>
        <time>2007-12-02T12:01:07Z</time>
      </trkpt>
      <trkpt lat="45.863199234008789" lon="8.465995788574219">
        <ele>1077.294677734375</ele>
        <time>2007-12-02T12:01:12Z</time>
      </trkpt>
      <trkpt lat="45.863263607025146" lon="8.466575145721436">
        <ele>1075.371826171875</ele>
        <time>2007-12-02T12:01:20Z</time>
      </trkpt>
      <trkpt lat="45.863263607025146" lon="8.467240333557129">
        <ele>1075.371826171875</ele>
        <time>2007-12-02T12:01:29Z</time>
      </trkpt>
      <trkpt lat="45.863327980041504" lon="8.467411994934082">
        <ele>1074.891357421875</ele>
        <time>2007-12-02T12:01:31Z</time>
      </trkpt>
      <trkpt lat="45.863649845123291" lon="8.467798233032227">
        <ele>1072.00732421875</ele>
        <time>2007-12-02T12:01:37Z</time>
      </trkpt>
      <trkpt lat="45.863778591156006" lon="8.468098640441895">
        <ele>1069.604248046875</ele>
        <time>2007-12-02T12:01:42Z</time>
      </trkpt>
      <trkpt lat="45.863757133483887" lon="8.46820592880249">
        <ele>1068.162109375</ele>
        <time>2007-12-02T12:01:45Z</time>
      </trkpt>
      <trkpt lat="45.863692760467529" lon="8.468248844146729">
        <ele>1067.20068359375</ele>
        <time>2007-12-02T12:01:48Z</time>
      </trkpt>
      <trkpt lat="45.863478183746338" lon="8.468420505523682">
        <ele>1062.874755859375</ele>
        <time>2007-12-02T12:01:57Z</time>
      </trkpt>
      <trkpt lat="45.863306522369385" lon="8.468677997589111">
        <ele>1060.471435546875</ele>
        <time>2007-12-02T12:02:04Z</time>
      </trkpt>
      <trkpt lat="45.863263607025146" lon="8.468978404998779">
        <ele>1059.51025390625</ele>
        <time>2007-12-02T12:02:10Z</time>
      </trkpt>
      <trkpt lat="45.863285064697266" lon="8.469300270080566">
        <ele>1058.068359375</ele>
        <time>2007-12-02T12:02:16Z</time>
      </trkpt>
      <trkpt lat="45.863349437713623" lon="8.469536304473877">
        <ele>1055.6650390625</ele>
        <time>2007-12-02T12:02:21Z</time>
      </trkpt>
      <trkpt lat="45.863306522369385" lon="8.470137119293213">
        <ele>1053.742431640625</ele>
        <time>2007-12-02T12:02:27Z</time>
      </trkpt>
      <trkpt lat="45.863263607025146" lon="8.470480442047119">
        <ele>1052.781005859375</ele>
        <time>2007-12-02T12:02:32Z</time>
      </trkpt>
      <trkpt lat="45.863091945648193" lon="8.470973968505859">
        <ele>1051.3388671875</ele>
        <time>2007-12-02T12:02:41Z</time>
      </trkpt>
      <trkpt lat="45.862963199615479" lon="8.471274375915527">
        <ele>1050.377685546875</ele>
        <time>2007-12-02T12:02:45Z</time>
      </trkpt>
      <trkpt lat="45.86292028427124" lon="8.471446037292481">
        <ele>1049.89697265625</ele>
        <time>2007-12-02T12:02:47Z</time>
      </trkpt>
      <trkpt lat="45.86292028427124" lon="8.471918106079102">
        <ele>1047.49365234375</ele>
        <time>2007-12-02T12:02:53Z</time>
      </trkpt>
      <trkpt lat="45.862941741943359" lon="8.472003936767578">
        <ele>1047.49365234375</ele>
        <time>2007-12-02T12:02:54Z</time>
      </trkpt>
      <trkpt lat="45.862984657287598" lon="8.472154140472412">
        <ele>1046.0517578125</ele>
        <time>2007-12-02T12:02:56Z</time>
      </trkpt>
      <trkpt lat="45.863113403320312" lon="8.472390174865723">
        <ele>1043.6484375</ele>
        <time>2007-12-02T12:03:00Z</time>
      </trkpt>
      <trkpt lat="45.863113403320312" lon="8.472626209259033">
        <ele>1039.322509765625</ele>
        <time>2007-12-02T12:03:05Z</time>
      </trkpt>
      <trkpt lat="45.863070487976074" lon="8.472776412963867">
        <ele>1038.361328125</ele>
        <time>2007-12-02T12:03:08Z</time>
      </trkpt>
      <trkpt lat="45.862984657287598" lon="8.473269939422607">
        <ele>1027.78662109375</ele>
        <time>2007-12-02T12:03:17Z</time>
      </trkpt>
      <trkpt lat="45.863006114959717" lon="8.473441600799561">
        <ele>1020.09619140625</ele>
        <time>2007-12-02T12:03:24Z</time>
      </trkpt>
      <trkpt lat="45.863113403320312" lon="8.473634719848633">
        <ele>1016.250732421875</ele>
        <time>2007-12-02T12:03:34Z</time>
      </trkpt>
      <trkpt lat="45.86317777633667" lon="8.473591804504395">
        <ele>1007.118408203125</ele>
        <time>2007-12-02T12:08:40Z</time>
      </trkpt>
      <trkpt lat="45.86317777633667" lon="8.473570346832275">
        <ele>1004.234619140625</ele>
        <time>2007-12-02T12:09:55Z</time>
      </trkpt>
      <trkpt lat="45.863306522369385" lon="8.473742008209229">
        <ele>1004.715087890625</ele>
        <time>2007-12-02T12:10:06Z</time>
      </trkpt>
      <trkpt lat="45.863499641418457" lon="8.473913669586182">
        <ele>1009.521728515625</ele>
        <time>2007-12-02T12:10:16Z</time>
      </trkpt>
      <trkpt lat="45.863714218139648" lon="8.474128246307373">
        <ele>1009.521728515625</ele>
        <time>2007-12-02T12:10:24Z</time>
      </trkpt>
      <trkpt lat="45.864272117614746" lon="8.474621772766113">
        <ele>1009.041015625</ele>
        <time>2007-12-02T12:10:42Z</time>
      </trkpt>
      <trkpt lat="45.864465236663818" lon="8.474793434143066">
        <ele>1009.041015625</ele>
        <time>2007-12-02T12:10:48Z</time>
      </trkpt>
      <trkpt lat="45.864508152008057" lon="8.474793434143066">
        <ele>1009.041015625</ele>
        <time>2007-12-02T12:10:50Z</time>
      </trkpt>
      <trkpt lat="45.864980220794678" lon="8.475115299224854">
        <ele>1009.041015625</ele>
        <time>2007-12-02T12:10:55Z</time>
      </trkpt>
      <trkpt lat="45.865323543548584" lon="8.475329875946045">
        <ele>1009.041015625</ele>
        <time>2007-12-02T12:11:05Z</time>
      </trkpt>
      <trkpt lat="45.865538120269775" lon="8.475372791290283">
        <ele>1008.560302734375</ele>
        <time>2007-12-02T12:11:13Z</time>
      </trkpt>
      <trkpt lat="45.865838527679443" lon="8.475823402404785">
        <ele>1008.079833984375</ele>
        <time>2007-12-02T12:11:23Z</time>
      </trkpt>
      <trkpt lat="45.86616039276123" lon="8.476316928863525">
        <ele>1005.19580078125</ele>
        <time>2007-12-02T12:11:36Z</time>
      </trkpt>
      <trkpt lat="45.866460800170898" lon="8.476939201354981">
        <ele>1003.753662109375</ele>
        <time>2007-12-02T12:11:50Z</time>
      </trkpt>
      <trkpt lat="45.866739749908447" lon="8.477497100830078">
        <ele>1004.234619140625</ele>
        <time>2007-12-02T12:12:01Z</time>
      </trkpt>
      <trkpt lat="45.866847038269043" lon="8.477990627288818">
        <ele>1001.350341796875</ele>
        <time>2007-12-02T12:12:10Z</time>
      </trkpt>
      <trkpt lat="45.866825580596924" lon="8.478591442108154">
        <ele>1000.86962890625</ele>
        <time>2007-12-02T12:12:22Z</time>
      </trkpt>
      <trkpt lat="45.866782665252686" lon="8.478784561157227">
        <ele>1001.350341796875</ele>
        <time>2007-12-02T12:12:26Z</time>
      </trkpt>
      <trkpt lat="45.866546630859375" lon="8.478913307189941">
        <ele>1000.86962890625</ele>
        <time>2007-12-02T12:12:31Z</time>
      </trkpt>
      <trkpt lat="45.865988731384277" lon="8.479321002960205">
        <ele>999.427734375</ele>
        <time>2007-12-02T12:12:36Z</time>
      </trkpt>
      <trkpt lat="45.865623950958252" lon="8.479235172271729">
        <ele>998.46630859375</ele>
        <time>2007-12-02T12:12:49Z</time>
      </trkpt>
      <trkpt lat="45.865516662597656" lon="8.479321002960205">
        <ele>998.46630859375</ele>
        <time>2007-12-02T12:12:59Z</time>
      </trkpt>
      <trkpt lat="45.865516662597656" lon="8.479363918304443">
        <ele>995.101806640625</ele>
        <time>2007-12-02T12:13:05Z</time>
      </trkpt>
      <trkpt lat="45.865538120269775" lon="8.47970724105835">
        <ele>991.7373046875</ele>
        <time>2007-12-02T12:13:16Z</time>
      </trkpt>
      <trkpt lat="45.865516662597656" lon="8.480072021484375">
        <ele>985.488525390625</ele>
        <time>2007-12-02T12:13:25Z</time>
      </trkpt>
      <trkpt lat="45.865581035614014" lon="8.480329513549805">
        <ele>984.046630859375</ele>
        <time>2007-12-02T12:13:35Z</time>
      </trkpt>
      <trkpt lat="45.86566686630249" lon="8.480544090270996">
        <ele>982.1240234375</ele>
        <time>2007-12-02T12:13:45Z</time>
      </trkpt>
      <trkpt lat="45.865774154663086" lon="8.480780124664307">
        <ele>977.317626953125</ele>
        <time>2007-12-02T12:13:55Z</time>
      </trkpt>
      <trkpt lat="45.865774154663086" lon="8.480994701385498">
        <ele>971.54931640625</ele>
        <time>2007-12-02T12:14:03Z</time>
      </trkpt>
      <trkpt lat="45.865645408630371" lon="8.481295108795166">
        <ele>968.66552734375</ele>
        <time>2007-12-02T12:14:14Z</time>
      </trkpt>
      <trkpt lat="45.865495204925537" lon="8.481509685516357">
        <ele>968.184814453125</ele>
        <time>2007-12-02T12:14:26Z</time>
      </trkpt>
      <trkpt lat="45.865495204925537" lon="8.481574058532715">
        <ele>968.184814453125</ele>
        <time>2007-12-02T12:14:31Z</time>
      </trkpt>
      <trkpt lat="45.865559577941895" lon="8.481681346893311">
        <ele>968.66552734375</ele>
        <time>2007-12-02T12:14:42Z</time>
      </trkpt>
      <trkpt lat="45.865709781646729" lon="8.481767177581787">
        <ele>967.7041015625</ele>
        <time>2007-12-02T12:14:50Z</time>
      </trkpt>
      <trkpt lat="45.865945816040039" lon="8.48193883895874">
        <ele>967.2236328125</ele>
        <time>2007-12-02T12:14:58Z</time>
      </trkpt>
      <trkpt lat="45.86616039276123" lon="8.482174873352051">
        <ele>965.301025390625</ele>
        <time>2007-12-02T12:15:06Z</time>
      </trkpt>
      <trkpt lat="45.866374969482422" lon="8.482711315155029">
        <ele>962.4169921875</ele>
        <time>2007-12-02T12:15:18Z</time>
      </trkpt>
      <trkpt lat="45.866482257843018" lon="8.483333587646484">
        <ele>961.9365234375</ele>
        <time>2007-12-02T12:15:29Z</time>
      </trkpt>
      <trkpt lat="45.866568088531494" lon="8.483784198760986">
        <ele>961.9365234375</ele>
        <time>2007-12-02T12:15:38Z</time>
      </trkpt>
      <trkpt lat="45.866632461547852" lon="8.483333587646484">
        <ele>961.455810546875</ele>
        <time>2007-12-02T12:15:43Z</time>
      </trkpt>
      <trkpt lat="45.866889953613281" lon="8.483355045318604">
        <ele>960.013671875</ele>
        <time>2007-12-02T12:15:48Z</time>
      </trkpt>
      <trkpt lat="45.866954326629639" lon="8.483419418334961">
        <ele>957.610595703125</ele>
        <time>2007-12-02T12:15:51Z</time>
      </trkpt>
      <trkpt lat="45.867104530334473" lon="8.483655452728272">
        <ele>953.284423828125</ele>
        <time>2007-12-02T12:15:59Z</time>
      </trkpt>
      <trkpt lat="45.867340564727783" lon="8.48395586013794">
        <ele>951.36181640625</ele>
        <time>2007-12-02T12:16:11Z</time>
      </trkpt>
      <trkpt lat="45.867640972137451" lon="8.484299182891846">
        <ele>948.477783203125</ele>
        <time>2007-12-02T12:16:25Z</time>
      </trkpt>
      <trkpt lat="45.867855548858643" lon="8.484556674957275">
        <ele>948.477783203125</ele>
        <time>2007-12-02T12:16:33Z</time>
      </trkpt>
      <trkpt lat="45.867877006530762" lon="8.484878540039063">
        <ele>944.632568359375</ele>
        <time>2007-12-02T12:16:40Z</time>
      </trkpt>
      <trkpt lat="45.867812633514404" lon="8.485114574432373">
        <ele>943.67138671875</ele>
        <time>2007-12-02T12:16:47Z</time>
      </trkpt>
      <trkpt lat="45.867683887481689" lon="8.485264778137207">
        <ele>939.34521484375</ele>
        <time>2007-12-02T12:16:55Z</time>
      </trkpt>
      <trkpt lat="45.86766242980957" lon="8.485286235809326">
        <ele>938.384033203125</ele>
        <time>2007-12-02T12:16:58Z</time>
      </trkpt>
      <trkpt lat="45.867598056793213" lon="8.485372066497803">
        <ele>935.01953125</ele>
        <time>2007-12-02T12:17:06Z</time>
      </trkpt>
      <trkpt lat="45.867576599121094" lon="8.485457897186279">
        <ele>932.135498046875</ele>
        <time>2007-12-02T12:17:10Z</time>
      </trkpt>
      <trkpt lat="45.867640972137451" lon="8.485565185546875">
        <ele>931.17431640625</ele>
        <time>2007-12-02T12:17:14Z</time>
      </trkpt>
      <trkpt lat="45.867812633514404" lon="8.48595142364502">
        <ele>930.212890625</ele>
        <time>2007-12-02T12:17:24Z</time>
      </trkpt>
      <trkpt lat="45.867855548858643" lon="8.486080169677734">
        <ele>927.3291015625</ele>
        <time>2007-12-02T12:17:27Z</time>
      </trkpt>
      <trkpt lat="45.867877006530762" lon="8.486230373382568">
        <ele>925.886962890625</ele>
        <time>2007-12-02T12:17:29Z</time>
      </trkpt>
      <trkpt lat="45.867855548858643" lon="8.486573696136475">
        <ele>921.560791015625</ele>
        <time>2007-12-02T12:17:36Z</time>
      </trkpt>
      <trkpt lat="45.867812633514404" lon="8.486852645874023">
        <ele>917.715576171875</ele>
        <time>2007-12-02T12:17:42Z</time>
      </trkpt>
      <trkpt lat="45.867769718170166" lon="8.487281799316406">
        <ele>917.715576171875</ele>
        <time>2007-12-02T12:17:51Z</time>
      </trkpt>
      <trkpt lat="45.867748260498047" lon="8.487796783447266">
        <ele>919.15771484375</ele>
        <time>2007-12-02T12:18:03Z</time>
      </trkpt>
      <trkpt lat="45.867769718170166" lon="8.488054275512695">
        <ele>923.0029296875</ele>
        <time>2007-12-02T12:18:11Z</time>
      </trkpt>
      <trkpt lat="45.867705345153809" lon="8.488333225250244">
        <ele>925.886962890625</ele>
        <time>2007-12-02T12:18:19Z</time>
      </trkpt>
      <trkpt lat="45.867598056793213" lon="8.488612174987793">
        <ele>924.92578125</ele>
        <time>2007-12-02T12:18:28Z</time>
      </trkpt>
      <trkpt lat="45.867469310760498" lon="8.488848209381104">
        <ele>923.0029296875</ele>
        <time>2007-12-02T12:18:35Z</time>
      </trkpt>
      <trkpt lat="45.867362022399902" lon="8.489127159118652">
        <ele>920.118896484375</ele>
        <time>2007-12-02T12:18:43Z</time>
      </trkpt>
      <trkpt lat="45.867297649383545" lon="8.489642143249512">
        <ele>918.1962890625</ele>
        <time>2007-12-02T12:18:55Z</time>
      </trkpt>
      <trkpt lat="45.867125988006592" lon="8.49017858505249">
        <ele>916.75439453125</ele>
        <time>2007-12-02T12:19:07Z</time>
      </trkpt>
      <trkpt lat="45.867061614990234" lon="8.490307331085205">
        <ele>916.273681640625</ele>
        <time>2007-12-02T12:19:11Z</time>
      </trkpt>
      <trkpt lat="45.866718292236328" lon="8.490393161773682">
        <ele>916.75439453125</ele>
        <time>2007-12-02T12:19:20Z</time>
      </trkpt>
      <trkpt lat="45.86641788482666" lon="8.490371704101563">
        <ele>916.75439453125</ele>
        <time>2007-12-02T12:19:29Z</time>
      </trkpt>
      <trkpt lat="45.866353511810303" lon="8.490328788757324">
        <ele>917.235107421875</ele>
        <time>2007-12-02T12:19:34Z</time>
      </trkpt>
      <trkpt lat="45.866332054138184" lon="8.490328788757324">
        <ele>917.715576171875</ele>
        <time>2007-12-02T12:19:46Z</time>
      </trkpt>
      <trkpt lat="45.866353511810303" lon="8.490328788757324">
        <ele>918.1962890625</ele>
        <time>2007-12-02T12:19:53Z</time>
      </trkpt>
      <trkpt lat="45.866332054138184" lon="8.490264415740967">
        <ele>921.080322265625</ele>
        <time>2007-12-02T12:22:25Z</time>
      </trkpt>
      <trkpt lat="45.866289138793945" lon="8.490285873413086">
        <ele>922.04150390625</ele>
        <time>2007-12-02T12:22:30Z</time>
      </trkpt>
      <trkpt lat="45.866289138793945" lon="8.490200042724609">
        <ele>921.560791015625</ele>
        <time>2007-12-02T12:22:37Z</time>
      </trkpt>
      <trkpt lat="45.866117477416992" lon="8.490350246429443">
        <ele>959.533203125</ele>
        <time>2007-12-02T12:29:23Z</time>
      </trkpt>
      <trkpt lat="45.866074562072754" lon="8.490135669708252">
        <ele>957.610595703125</ele>
        <time>2007-12-02T12:29:26Z</time>
      </trkpt>
      <trkpt lat="45.866031646728516" lon="8.489921092987061">
        <ele>919.638427734375</ele>
        <time>2007-12-02T12:29:36Z</time>
      </trkpt>
      <trkpt lat="45.865795612335205" lon="8.489856719970703">
        <ele>924.445068359375</ele>
        <time>2007-12-02T12:29:45Z</time>
      </trkpt>
      <trkpt lat="45.865623950958252" lon="8.489899635314941">
        <ele>925.40625</ele>
        <time>2007-12-02T12:29:53Z</time>
      </trkpt>
      <trkpt lat="45.865452289581299" lon="8.489835262298584">
        <ele>925.886962890625</ele>
        <time>2007-12-02T12:30:02Z</time>
      </trkpt>
      <trkpt lat="45.865280628204346" lon="8.489706516265869">
        <ele>925.40625</ele>
        <time>2007-12-02T12:30:12Z</time>
      </trkpt>
      <trkpt lat="45.86517333984375" lon="8.489534854888916">
        <ele>923.964111328125</ele>
        <time>2007-12-02T12:30:21Z</time>
      </trkpt>
      <trkpt lat="45.865087509155273" lon="8.48944902420044">
        <ele>924.445068359375</ele>
        <time>2007-12-02T12:30:26Z</time>
      </trkpt>
      <trkpt lat="45.864937305450439" lon="8.489470481872559">
        <ele>924.445068359375</ele>
        <time>2007-12-02T12:30:32Z</time>
      </trkpt>
      <trkpt lat="45.864894390106201" lon="8.489491939544678">
        <ele>924.445068359375</ele>
        <time>2007-12-02T12:30:34Z</time>
      </trkpt>
      <trkpt lat="45.864765644073486" lon="8.48944902420044">
        <ele>923.0029296875</ele>
        <time>2007-12-02T12:30:44Z</time>
      </trkpt>
      <trkpt lat="45.864722728729248" lon="8.489406108856201">
        <ele>924.445068359375</ele>
        <time>2007-12-02T12:30:51Z</time>
      </trkpt>
      <trkpt lat="45.864615440368652" lon="8.489384651184082">
        <ele>924.92578125</ele>
        <time>2007-12-02T12:31:03Z</time>
      </trkpt>
      <trkpt lat="45.864572525024414" lon="8.489384651184082">
        <ele>924.92578125</ele>
        <time>2007-12-02T12:31:06Z</time>
      </trkpt>
      <trkpt lat="45.864465236663818" lon="8.48942756652832">
        <ele>927.3291015625</ele>
        <time>2007-12-02T12:31:17Z</time>
      </trkpt>
      <trkpt lat="45.864400863647461" lon="8.489470481872559">
        <ele>928.77099609375</ele>
        <time>2007-12-02T12:31:25Z</time>
      </trkpt>
      <trkpt lat="45.864315032958984" lon="8.489513397216797">
        <ele>929.732177734375</ele>
        <time>2007-12-02T12:31:35Z</time>
      </trkpt>
      <trkpt lat="45.864315032958984" lon="8.489534854888916">
        <ele>929.25146484375</ele>
        <time>2007-12-02T12:31:37Z</time>
      </trkpt>
      <trkpt lat="45.864293575286865" lon="8.489556312561035">
        <ele>929.25146484375</ele>
        <time>2007-12-02T12:31:39Z</time>
      </trkpt>
      <trkpt lat="45.864143371582031" lon="8.489620685577393">
        <ele>926.848388671875</ele>
        <time>2007-12-02T12:31:45Z</time>
      </trkpt>
      <trkpt lat="45.863950252532959" lon="8.489599227905273">
        <ele>926.36767578125</ele>
        <time>2007-12-02T12:31:51Z</time>
      </trkpt>
      <trkpt lat="45.863778591156006" lon="8.489298820495606">
        <ele>927.8095703125</ele>
        <time>2007-12-02T12:32:00Z</time>
      </trkpt>
      <trkpt lat="45.863542556762695" lon="8.489041328430176">
        <ele>927.8095703125</ele>
        <time>2007-12-02T12:32:08Z</time>
      </trkpt>
      <trkpt lat="45.863285064697266" lon="8.488848209381104">
        <ele>927.3291015625</ele>
        <time>2007-12-02T12:32:16Z</time>
      </trkpt>
      <trkpt lat="45.863156318664551" lon="8.48893404006958">
        <ele>927.3291015625</ele>
        <time>2007-12-02T12:32:21Z</time>
      </trkpt>
      <trkpt lat="45.863027572631836" lon="8.489170074462891">
        <ele>926.848388671875</ele>
        <time>2007-12-02T12:32:25Z</time>
      </trkpt>
      <trkpt lat="45.862984657287598" lon="8.489255905151367">
        <ele>925.886962890625</ele>
        <time>2007-12-02T12:32:26Z</time>
      </trkpt>
      <trkpt lat="45.862748622894287" lon="8.489513397216797">
        <ele>923.483642578125</ele>
        <time>2007-12-02T12:32:30Z</time>
      </trkpt>
      <trkpt lat="45.862641334533691" lon="8.48968505859375">
        <ele>922.04150390625</ele>
        <time>2007-12-02T12:32:33Z</time>
      </trkpt>
      <trkpt lat="45.862340927124023" lon="8.490092754364014">
        <ele>914.831787109375</ele>
        <time>2007-12-02T12:32:41Z</time>
      </trkpt>
      <trkpt lat="45.86216926574707" lon="8.490242958068848">
        <ele>911.46728515625</ele>
        <time>2007-12-02T12:32:45Z</time>
      </trkpt>
      <trkpt lat="45.862061977386475" lon="8.490328788757324">
        <ele>909.544677734375</ele>
        <time>2007-12-02T12:32:47Z</time>
      </trkpt>
      <trkpt lat="45.861890316009521" lon="8.490457534790039">
        <ele>906.660400390625</ele>
        <time>2007-12-02T12:32:50Z</time>
      </trkpt>
      <trkpt lat="45.861804485321045" lon="8.490543365478516">
        <ele>905.69921875</ele>
        <time>2007-12-02T12:32:52Z</time>
      </trkpt>
      <trkpt lat="45.861525535583496" lon="8.491337299346924">
        <ele>898.4892578125</ele>
        <time>2007-12-02T12:33:00Z</time>
      </trkpt>
      <trkpt lat="45.861375331878662" lon="8.491873741149902">
        <ele>893.682861328125</ele>
        <time>2007-12-02T12:33:05Z</time>
      </trkpt>
      <trkpt lat="45.861268043518066" lon="8.492066860198975">
        <ele>890.798583984375</ele>
        <time>2007-12-02T12:33:08Z</time>
      </trkpt>
      <trkpt lat="45.861117839813232" lon="8.491959571838379">
        <ele>888.3955078125</ele>
        <time>2007-12-02T12:33:11Z</time>
      </trkpt>
      <trkpt lat="45.861032009124756" lon="8.491916656494141">
        <ele>886.472900390625</ele>
        <time>2007-12-02T12:33:13Z</time>
      </trkpt>
      <trkpt lat="45.860624313354492" lon="8.491981029510498">
        <ele>880.705078125</ele>
        <time>2007-12-02T12:33:21Z</time>
      </trkpt>
      <trkpt lat="45.86017370223999" lon="8.492109775543213">
        <ele>876.379150390625</ele>
        <time>2007-12-02T12:33:28Z</time>
      </trkpt>
      <trkpt lat="45.860023498535156" lon="8.492238521575928">
        <ele>875.41748046875</ele>
        <time>2007-12-02T12:33:31Z</time>
      </trkpt>
      <trkpt lat="45.860023498535156" lon="8.492324352264404">
        <ele>875.41748046875</ele>
        <time>2007-12-02T12:33:32Z</time>
      </trkpt>
      <trkpt lat="45.859894752502441" lon="8.492474555969238">
        <ele>871.572265625</ele>
        <time>2007-12-02T12:33:37Z</time>
      </trkpt>
      <trkpt lat="45.859465599060059" lon="8.492517471313477">
        <ele>867.24658203125</ele>
        <time>2007-12-02T12:33:47Z</time>
      </trkpt>
      <trkpt lat="45.859057903289795" lon="8.492302894592285">
        <ele>867.24658203125</ele>
        <time>2007-12-02T12:33:49Z</time>
      </trkpt>
      <trkpt lat="45.858585834503174" lon="8.492646217346191">
        <ele>862.43994140625</ele>
        <time>2007-12-02T12:33:57Z</time>
      </trkpt>
      <trkpt lat="45.858092308044434" lon="8.49268913269043">
        <ele>815.816162109375</ele>
        <time>2007-12-02T12:34:05Z</time>
      </trkpt>
      <trkpt lat="45.858027935028076" lon="8.492667675018311">
        <ele>813.412841796875</ele>
        <time>2007-12-02T12:34:06Z</time>
      </trkpt>
      <trkpt lat="45.857598781585693" lon="8.492560386657715">
        <ele>806.20263671875</ele>
        <time>2007-12-02T12:34:15Z</time>
      </trkpt>
      <trkpt lat="45.857384204864502" lon="8.492538928985596">
        <ele>802.838134765625</ele>
        <time>2007-12-02T12:34:19Z</time>
      </trkpt>
      <trkpt lat="45.857255458831787" lon="8.492517471313477">
        <ele>801.396240234375</ele>
        <time>2007-12-02T12:34:21Z</time>
      </trkpt>
      <trkpt lat="45.857019424438477" lon="8.492581844329834">
        <ele>800.43505859375</ele>
        <time>2007-12-02T12:34:28Z</time>
      </trkpt>
      <trkpt lat="45.856997966766357" lon="8.492603302001953">
        <ele>800.43505859375</ele>
        <time>2007-12-02T12:34:32Z</time>
      </trkpt>
      <trkpt lat="45.857019424438477" lon="8.492603302001953">
        <ele>805.241455078125</ele>
        <time>2007-12-02T12:35:17Z</time>
      </trkpt>
      <trkpt lat="45.857062339782715" lon="8.492581844329834">
        <ele>795.628173828125</ele>
        <time>2007-12-02T12:36:55Z</time>
      </trkpt>
      <trkpt lat="45.857083797454834" lon="8.492581844329834">
        <ele>802.838134765625</ele>
        <time>2007-12-02T12:39:43Z</time>
      </trkpt>
      <trkpt lat="45.856976509094238" lon="8.49268913269043">
        <ele>809.5673828125</ele>
        <time>2007-12-02T12:41:35Z</time>
      </trkpt>
      <trkpt lat="45.856912136077881" lon="8.492753505706787">
        <ele>808.60595703125</ele>
        <time>2007-12-02T12:41:38Z</time>
      </trkpt>
      <trkpt lat="45.856826305389404" lon="8.493096828460693">
        <ele>806.20263671875</ele>
        <time>2007-12-02T12:41:44Z</time>
      </trkpt>
      <trkpt lat="45.856654644012451" lon="8.493483066558838">
        <ele>806.20263671875</ele>
        <time>2007-12-02T12:41:49Z</time>
      </trkpt>
      <trkpt lat="45.85618257522583" lon="8.494019508361816">
        <ele>805.72216796875</ele>
        <time>2007-12-02T12:41:59Z</time>
      </trkpt>
      <trkpt lat="45.855903625488281" lon="8.49419116973877">
        <ele>798.03173828125</ele>
        <time>2007-12-02T12:42:06Z</time>
      </trkpt>
      <trkpt lat="45.855667591094971" lon="8.494405746459961">
        <ele>791.30224609375</ele>
        <time>2007-12-02T12:42:15Z</time>
      </trkpt>
      <trkpt lat="45.855495929718018" lon="8.494448661804199">
        <ele>790.341064453125</ele>
        <time>2007-12-02T12:42:19Z</time>
      </trkpt>
      <trkpt lat="45.854852199554443" lon="8.494040966033936">
        <ele>789.8603515625</ele>
        <time>2007-12-02T12:42:35Z</time>
      </trkpt>
      <trkpt lat="45.854701995849609" lon="8.49393367767334">
        <ele>787.45703125</ele>
        <time>2007-12-02T12:42:42Z</time>
      </trkpt>
      <trkpt lat="45.854980945587158" lon="8.493204116821289">
        <ele>783.61181640625</ele>
        <time>2007-12-02T12:42:48Z</time>
      </trkpt>
      <trkpt lat="45.854744911193848" lon="8.493289947509766">
        <ele>777.36328125</ele>
        <time>2007-12-02T12:43:01Z</time>
      </trkpt>
      <trkpt lat="45.854723453521729" lon="8.493590354919434">
        <ele>773.51806640625</ele>
        <time>2007-12-02T12:43:12Z</time>
      </trkpt>
      <trkpt lat="45.854766368865967" lon="8.49393367767334">
        <ele>772.556640625</ele>
        <time>2007-12-02T12:43:19Z</time>
      </trkpt>
      <trkpt lat="45.854766368865967" lon="8.494362831115723">
        <ele>768.71142578125</ele>
        <time>2007-12-02T12:43:28Z</time>
      </trkpt>
      <trkpt lat="45.854766368865967" lon="8.494770526885986">
        <ele>766.788818359375</ele>
        <time>2007-12-02T12:43:31Z</time>
      </trkpt>
      <trkpt lat="45.854616165161133" lon="8.495285511016846">
        <ele>764.8662109375</ele>
        <time>2007-12-02T12:43:32Z</time>
      </trkpt>
      <trkpt lat="45.854701995849609" lon="8.495779037475586">
        <ele>711.512939453125</ele>
        <time>2007-12-02T12:43:37Z</time>
      </trkpt>
      <trkpt lat="45.854766368865967" lon="8.495950698852539">
        <ele>708.1484375</ele>
        <time>2007-12-02T12:43:39Z</time>
      </trkpt>
      <trkpt lat="45.855152606964111" lon="8.49642276763916">
        <ele>711.512939453125</ele>
        <time>2007-12-02T12:43:44Z</time>
      </trkpt>
      <trkpt lat="45.855367183685303" lon="8.496830463409424">
        <ele>705.7451171875</ele>
        <time>2007-12-02T12:43:48Z</time>
      </trkpt>
      <trkpt lat="45.855453014373779" lon="8.497045040130615">
        <ele>703.341796875</ele>
        <time>2007-12-02T12:43:50Z</time>
      </trkpt>
      <trkpt lat="45.855495929718018" lon="8.497409820556641">
        <ele>699.97705078125</ele>
        <time>2007-12-02T12:43:54Z</time>
      </trkpt>
      <trkpt lat="45.855345726013184" lon="8.49743127822876">
        <ele>698.534912109375</ele>
        <time>2007-12-02T12:43:58Z</time>
      </trkpt>
      <trkpt lat="45.855281352996826" lon="8.497495651245117">
        <ele>698.054443359375</ele>
        <time>2007-12-02T12:44:00Z</time>
      </trkpt>
      <trkpt lat="45.855002403259277" lon="8.498032093048096">
        <ele>697.57373046875</ele>
        <time>2007-12-02T12:44:11Z</time>
      </trkpt>
      <trkpt lat="45.854980945587158" lon="8.498010635375977">
        <ele>697.57373046875</ele>
        <time>2007-12-02T12:44:17Z</time>
      </trkpt>
      <trkpt lat="45.855152606964111" lon="8.497881889343262">
        <ele>694.209228515625</ele>
        <time>2007-12-02T12:46:31Z</time>
      </trkpt>
      <trkpt lat="45.854916572570801" lon="8.497903347015381">
        <ele>696.612548828125</ele>
        <time>2007-12-02T12:47:13Z</time>
      </trkpt>
      <trkpt lat="45.854959487915039" lon="8.497967720031738">
        <ele>692.767333984375</ele>
        <time>2007-12-02T12:47:30Z</time>
      </trkpt>
      <trkpt lat="45.855109691619873" lon="8.498117923736572">
        <ele>693.247802734375</ele>
        <time>2007-12-02T12:47:39Z</time>
      </trkpt>
      <trkpt lat="45.855259895324707" lon="8.498311042785645">
        <ele>693.247802734375</ele>
        <time>2007-12-02T12:47:47Z</time>
      </trkpt>
      <trkpt lat="45.855410099029541" lon="8.498482704162598">
        <ele>693.247802734375</ele>
        <time>2007-12-02T12:47:55Z</time>
      </trkpt>
      <trkpt lat="45.855603218078613" lon="8.498718738555908">
        <ele>694.689697265625</ele>
        <time>2007-12-02T12:48:04Z</time>
      </trkpt>
      <trkpt lat="45.8559250831604" lon="8.499104976654053">
        <ele>695.17041015625</ele>
        <time>2007-12-02T12:48:16Z</time>
      </trkpt>
      <trkpt lat="45.856225490570068" lon="8.499448299407959">
        <ele>693.247802734375</ele>
        <time>2007-12-02T12:48:26Z</time>
      </trkpt>
      <trkpt lat="45.856397151947021" lon="8.499791622161865">
        <ele>690.364013671875</ele>
        <time>2007-12-02T12:48:33Z</time>
      </trkpt>
      <trkpt lat="45.85644006729126" lon="8.49992036819458">
        <ele>689.88330078125</ele>
        <time>2007-12-02T12:48:35Z</time>
      </trkpt>
      <trkpt lat="45.856461524963379" lon="8.500199317932129">
        <ele>687.47998046875</ele>
        <time>2007-12-02T12:48:39Z</time>
      </trkpt>
      <trkpt lat="45.856525897979736" lon="8.500800132751465">
        <ele>686.518798828125</ele>
        <time>2007-12-02T12:48:47Z</time>
      </trkpt>
      <trkpt lat="45.856590270996094" lon="8.500950336456299">
        <ele>686.518798828125</ele>
        <time>2007-12-02T12:48:49Z</time>
      </trkpt>
      <trkpt lat="45.856912136077881" lon="8.501358032226563">
        <ele>685.557373046875</ele>
        <time>2007-12-02T12:48:56Z</time>
      </trkpt>
      <trkpt lat="45.857255458831787" lon="8.501808643341065">
        <ele>683.634521484375</ele>
        <time>2007-12-02T12:49:04Z</time>
      </trkpt>
      <trkpt lat="45.857491493225098" lon="8.502044677734375">
        <ele>682.192626953125</ele>
        <time>2007-12-02T12:49:08Z</time>
      </trkpt>
      <trkpt lat="45.857834815979004" lon="8.502688407897949">
        <ele>679.789306640625</ele>
        <time>2007-12-02T12:49:17Z</time>
      </trkpt>
      <trkpt lat="45.858135223388672" lon="8.503203392028809">
        <ele>678.828125</ele>
        <time>2007-12-02T12:49:26Z</time>
      </trkpt>
      <trkpt lat="45.858156681060791" lon="8.50341796875">
        <ele>678.828125</ele>
        <time>2007-12-02T12:49:29Z</time>
      </trkpt>
      <trkpt lat="45.858027935028076" lon="8.504061698913574">
        <ele>678.347412109375</ele>
        <time>2007-12-02T12:49:39Z</time>
      </trkpt>
      <trkpt lat="45.858006477355957" lon="8.504576683044434">
        <ele>677.38623046875</ele>
        <time>2007-12-02T12:49:46Z</time>
      </trkpt>
      <trkpt lat="45.858263969421387" lon="8.505542278289795">
        <ele>674.021484375</ele>
        <time>2007-12-02T12:49:58Z</time>
      </trkpt>
      <trkpt lat="45.858521461486816" lon="8.506207466125488">
        <ele>674.021484375</ele>
        <time>2007-12-02T12:50:07Z</time>
      </trkpt>
      <trkpt lat="45.858800411224365" lon="8.507001399993897">
        <ele>672.57958984375</ele>
        <time>2007-12-02T12:50:19Z</time>
      </trkpt>
      <trkpt lat="45.859143733978271" lon="8.507688045501709">
        <ele>673.060302734375</ele>
        <time>2007-12-02T12:50:31Z</time>
      </trkpt>
      <trkpt lat="45.859594345092773" lon="8.50816011428833">
        <ele>672.57958984375</ele>
        <time>2007-12-02T12:50:42Z</time>
      </trkpt>
      <trkpt lat="45.860152244567871" lon="8.50867509841919">
        <ele>672.098876953125</ele>
        <time>2007-12-02T12:50:55Z</time>
      </trkpt>
      <trkpt lat="45.86066722869873" lon="8.50916862487793">
        <ele>673.060302734375</ele>
        <time>2007-12-02T12:51:07Z</time>
      </trkpt>
      <trkpt lat="45.861010551452637" lon="8.509533405303955">
        <ele>674.021484375</ele>
        <time>2007-12-02T12:51:17Z</time>
      </trkpt>
      <trkpt lat="45.861332416534424" lon="8.509769439697266">
        <ele>674.502197265625</ele>
        <time>2007-12-02T12:51:26Z</time>
      </trkpt>
      <trkpt lat="45.861396789550781" lon="8.509790897369385">
        <ele>674.98291015625</ele>
        <time>2007-12-02T12:51:28Z</time>
      </trkpt>
      <trkpt lat="45.861568450927734" lon="8.509747982025147">
        <ele>674.98291015625</ele>
        <time>2007-12-02T12:51:32Z</time>
      </trkpt>
      <trkpt lat="45.861654281616211" lon="8.509747982025147">
        <ele>674.98291015625</ele>
        <time>2007-12-02T12:51:34Z</time>
      </trkpt>
      <trkpt lat="45.861825942993164" lon="8.509962558746338">
        <ele>673.541015625</ele>
        <time>2007-12-02T12:51:38Z</time>
      </trkpt>
      <trkpt lat="45.862104892730713" lon="8.510305881500244">
        <ele>671.1376953125</ele>
        <time>2007-12-02T12:51:43Z</time>
      </trkpt>
      <trkpt lat="45.862576961517334" lon="8.510777950286865">
        <ele>669.215087890625</ele>
        <time>2007-12-02T12:51:51Z</time>
      </trkpt>
      <trkpt lat="45.863027572631836" lon="8.511271476745606">
        <ele>669.215087890625</ele>
        <time>2007-12-02T12:52:00Z</time>
      </trkpt>
      <trkpt lat="45.86341381072998" lon="8.511636257171631">
        <ele>670.17626953125</ele>
        <time>2007-12-02T12:52:09Z</time>
      </trkpt>
      <trkpt lat="45.863735675811768" lon="8.511979579925537">
        <ele>669.215087890625</ele>
        <time>2007-12-02T12:52:20Z</time>
      </trkpt>
      <trkpt lat="45.864014625549316" lon="8.512194156646729">
        <ele>667.772705078125</ele>
        <time>2007-12-02T12:52:30Z</time>
      </trkpt>
      <trkpt lat="45.864293575286865" lon="8.512387275695801">
        <ele>666.8115234375</ele>
        <time>2007-12-02T12:52:38Z</time>
      </trkpt>
      <trkpt lat="45.864765644073486" lon="8.512773513793945">
        <ele>663.927490234375</ele>
        <time>2007-12-02T12:52:47Z</time>
      </trkpt>
      <trkpt lat="45.865259170532227" lon="8.513181209564209">
        <ele>659.12109375</ele>
        <time>2007-12-02T12:52:54Z</time>
      </trkpt>
      <trkpt lat="45.865881443023682" lon="8.51365327835083">
        <ele>655.27587890625</ele>
        <time>2007-12-02T12:53:01Z</time>
      </trkpt>
      <trkpt lat="45.866138935089111" lon="8.513824939727783">
        <ele>654.795166015625</ele>
        <time>2007-12-02T12:53:04Z</time>
      </trkpt>
      <trkpt lat="45.866718292236328" lon="8.51391077041626">
        <ele>653.833984375</ele>
        <time>2007-12-02T12:53:10Z</time>
      </trkpt>
      <trkpt lat="45.868563652038574" lon="8.513953685760498">
        <ele>652.391845703125</ele>
        <time>2007-12-02T12:53:30Z</time>
      </trkpt>
      <trkpt lat="45.869464874267578" lon="8.513803482055664">
        <ele>650.46923828125</ele>
        <time>2007-12-02T12:53:42Z</time>
      </trkpt>
      <trkpt lat="45.870130062103271" lon="8.51365327835083">
        <ele>650.94970703125</ele>
        <time>2007-12-02T12:53:52Z</time>
      </trkpt>
      <trkpt lat="45.870709419250488" lon="8.513846397399902">
        <ele>649.988525390625</ele>
        <time>2007-12-02T12:53:59Z</time>
      </trkpt>
      <trkpt lat="45.870816707611084" lon="8.513867855072022">
        <ele>649.988525390625</ele>
        <time>2007-12-02T12:54:00Z</time>
      </trkpt>
      <trkpt lat="45.871009826660156" lon="8.513996601104736">
        <ele>649.5078125</ele>
        <time>2007-12-02T12:54:02Z</time>
      </trkpt>
      <trkpt lat="45.871632099151611" lon="8.51466178894043">
        <ele>646.6240234375</ele>
        <time>2007-12-02T12:54:08Z</time>
      </trkpt>
      <trkpt lat="45.871996879577637" lon="8.514790534973145">
        <ele>645.181884765625</ele>
        <time>2007-12-02T12:54:11Z</time>
      </trkpt>
      <trkpt lat="45.872254371643066" lon="8.515262603759766">
        <ele>640.85595703125</ele>
        <time>2007-12-02T12:54:15Z</time>
      </trkpt>
      <trkpt lat="45.872275829315186" lon="8.515563011169434">
        <ele>638.452880859375</ele>
        <time>2007-12-02T12:54:17Z</time>
      </trkpt>
      <trkpt lat="45.872254371643066" lon="8.516507148742676">
        <ele>632.2041015625</ele>
        <time>2007-12-02T12:54:23Z</time>
      </trkpt>
      <trkpt lat="45.872125625610352" lon="8.51740837097168">
        <ele>624.994384765625</ele>
        <time>2007-12-02T12:54:28Z</time>
      </trkpt>
      <trkpt lat="45.872104167938232" lon="8.517751693725586">
        <ele>623.552490234375</ele>
        <time>2007-12-02T12:54:30Z</time>
      </trkpt>
      <trkpt lat="45.872082710266113" lon="8.518116474151611">
        <ele>621.629638671875</ele>
        <time>2007-12-02T12:54:32Z</time>
      </trkpt>
      <trkpt lat="45.872211456298828" lon="8.518459796905518">
        <ele>619.226318359375</ele>
        <time>2007-12-02T12:54:35Z</time>
      </trkpt>
      <trkpt lat="45.872275829315186" lon="8.518502712249756">
        <ele>618.264892578125</ele>
        <time>2007-12-02T12:54:36Z</time>
      </trkpt>
      <trkpt lat="45.872576236724854" lon="8.517944812774658">
        <ele>612.977783203125</ele>
        <time>2007-12-02T12:54:43Z</time>
      </trkpt>
      <trkpt lat="45.87291955947876" lon="8.517258167266846">
        <ele>610.09375</ele>
        <time>2007-12-02T12:54:50Z</time>
      </trkpt>
      <trkpt lat="45.873305797576904" lon="8.516550064086914">
        <ele>610.09375</ele>
        <time>2007-12-02T12:54:58Z</time>
      </trkpt>
      <trkpt lat="45.8734130859375" lon="8.516292572021484">
        <ele>609.61328125</ele>
        <time>2007-12-02T12:55:01Z</time>
      </trkpt>
      <trkpt lat="45.873241424560547" lon="8.515992164611816">
        <ele>609.132568359375</ele>
        <time>2007-12-02T12:55:06Z</time>
      </trkpt>
      <trkpt lat="45.87291955947876" lon="8.515691757202148">
        <ele>608.17138671875</ele>
        <time>2007-12-02T12:55:13Z</time>
      </trkpt>
      <trkpt lat="45.872468948364258" lon="8.515090942382813">
        <ele>607.690673828125</ele>
        <time>2007-12-02T12:55:25Z</time>
      </trkpt>
      <trkpt lat="45.87242603302002" lon="8.51416826248169">
        <ele>608.65185546875</ele>
        <time>2007-12-02T12:55:45Z</time>
      </trkpt>
      <trkpt lat="45.87242603302002" lon="8.514060974121094">
        <ele>608.17138671875</ele>
        <time>2007-12-02T12:55:48Z</time>
      </trkpt>
      <trkpt lat="45.872747898101807" lon="8.513524532318115">
        <ele>607.690673828125</ele>
        <time>2007-12-02T12:56:06Z</time>
      </trkpt>
      <trkpt lat="45.873026847839355" lon="8.513481616973877">
        <ele>604.806640625</ele>
        <time>2007-12-02T12:56:11Z</time>
      </trkpt>
      <trkpt lat="45.873756408691406" lon="8.513803482055664">
        <ele>603.84521484375</ele>
        <time>2007-12-02T12:56:14Z</time>
      </trkpt>
      <trkpt lat="45.873885154724121" lon="8.514275550842285">
        <ele>603.364501953125</ele>
        <time>2007-12-02T12:56:24Z</time>
      </trkpt>
      <trkpt lat="45.874121189117432" lon="8.514618873596191">
        <ele>604.806640625</ele>
        <time>2007-12-02T12:56:32Z</time>
      </trkpt>
      <trkpt lat="45.874314308166504" lon="8.514640331268311">
        <ele>607.690673828125</ele>
        <time>2007-12-02T12:56:38Z</time>
      </trkpt>
      <trkpt lat="45.874593257904053" lon="8.514468669891357">
        <ele>607.690673828125</ele>
        <time>2007-12-02T12:56:49Z</time>
      </trkpt>
      <trkpt lat="45.875215530395508" lon="8.514060974121094">
        <ele>607.2099609375</ele>
        <time>2007-12-02T12:57:09Z</time>
      </trkpt>
      <trkpt lat="45.875451564788818" lon="8.513846397399902">
        <ele>607.2099609375</ele>
        <time>2007-12-02T12:57:17Z</time>
      </trkpt>
      <trkpt lat="45.875473022460938" lon="8.513739109039307">
        <ele>607.2099609375</ele>
        <time>2007-12-02T12:57:19Z</time>
      </trkpt>
      <trkpt lat="45.875473022460938" lon="8.513567447662354">
        <ele>608.17138671875</ele>
        <time>2007-12-02T12:57:22Z</time>
      </trkpt>
      <trkpt lat="45.875515937805176" lon="8.513267040252686">
        <ele>610.09375</ele>
        <time>2007-12-02T12:57:27Z</time>
      </trkpt>
      <trkpt lat="45.875580310821533" lon="8.513095378875732">
        <ele>610.09375</ele>
        <time>2007-12-02T12:57:30Z</time>
      </trkpt>
      <trkpt lat="45.87566614151001" lon="8.51290225982666">
        <ele>609.61328125</ele>
        <time>2007-12-02T12:57:33Z</time>
      </trkpt>
      <trkpt lat="45.875988006591797" lon="8.512537479400635">
        <ele>608.65185546875</ele>
        <time>2007-12-02T12:57:42Z</time>
      </trkpt>
      <trkpt lat="45.876009464263916" lon="8.512430191040039">
        <ele>609.132568359375</ele>
        <time>2007-12-02T12:57:44Z</time>
      </trkpt>
      <trkpt lat="45.87590217590332" lon="8.512086868286133">
        <ele>609.132568359375</ele>
        <time>2007-12-02T12:57:49Z</time>
      </trkpt>
      <trkpt lat="45.875966548919678" lon="8.511807918548584">
        <ele>609.61328125</ele>
        <time>2007-12-02T12:57:53Z</time>
      </trkpt>
      <trkpt lat="45.876052379608154" lon="8.511679172515869">
        <ele>610.09375</ele>
        <time>2007-12-02T12:57:56Z</time>
      </trkpt>
      <trkpt lat="45.876245498657227" lon="8.511550426483154">
        <ele>610.09375</ele>
        <time>2007-12-02T12:58:01Z</time>
      </trkpt>
      <trkpt lat="45.876717567443848" lon="8.511099815368652">
        <ele>609.132568359375</ele>
        <time>2007-12-02T12:58:14Z</time>
      </trkpt>
      <trkpt lat="45.877060890197754" lon="8.511271476745606">
        <ele>609.132568359375</ele>
        <time>2007-12-02T12:58:20Z</time>
      </trkpt>
      <trkpt lat="45.877275466918945" lon="8.511271476745606">
        <ele>609.61328125</ele>
        <time>2007-12-02T12:58:24Z</time>
      </trkpt>
      <trkpt lat="45.877554416656494" lon="8.511357307434082">
        <ele>609.132568359375</ele>
        <time>2007-12-02T12:58:29Z</time>
      </trkpt>
      <trkpt lat="45.87791919708252" lon="8.511357307434082">
        <ele>609.61328125</ele>
        <time>2007-12-02T12:58:37Z</time>
      </trkpt>
      <trkpt lat="45.877940654754639" lon="8.511335849761963">
        <ele>610.09375</ele>
        <time>2007-12-02T12:58:43Z</time>
      </trkpt>
    </trkseg>
  </trk>

</gpx>
